<?xml version="1.0" encoding="UTF-8"?>
<gpx version="1.1" creator="2bulu-scraper" xmlns="http://www.topografix.com/GPX/1/1">
  <metadata><name>宜宾马鞍山</name><desc>source: 2bulu.com trackId=78860737; exported 2026-08-31T01:45:38.584Z</desc>
    <bounds minlat="29.173109" minlon="104.634762" maxlat="29.194415" maxlon="104.642346"/>
    <link href="https://www.2bulu.com/track/t-UoptymlMMDXp%252FR2KBg5Tzw%253D%253D.htm"><text>2bulu 源页面</text></link>
  </metadata>
  <wpt lat="29.189656" lon="104.636144"><ele>420</ele><name>左边</name></wpt>
  <wpt lat="29.190935" lon="104.635033"><ele>399</ele><name></name></wpt>
  <wpt lat="29.192135" lon="104.635284"><ele>379</ele><name></name></wpt>
  <wpt lat="29.194322" lon="104.636979"><ele>383</ele><name></name></wpt>
  <wpt lat="29.194098" lon="104.637083"><ele>384</ele><name>右转</name></wpt>
  <wpt lat="29.193409" lon="104.636956"><ele>388</ele><name>左边下坡</name></wpt>
  <wpt lat="29.190366" lon="104.639232"><ele>405</ele><name>左边下坡</name></wpt>
  <wpt lat="29.19" lon="104.638768"><ele>400</ele><name>左边上坡</name></wpt>
  <wpt lat="29.18895" lon="104.639044"><ele>421</ele><name></name></wpt>
  <wpt lat="29.180729" lon="104.640141"><ele>455</ele><name>左转</name></wpt>
  <wpt lat="29.173263" lon="104.638442"><ele>431</ele><name>直行不过桥</name></wpt>
  <wpt lat="29.173823" lon="104.636926"><ele>420</ele><name>左边直行</name></wpt>
  <wpt lat="29.174698" lon="104.635739"><ele>432</ele><name></name></wpt>
  <wpt lat="29.180592" lon="104.639963"><ele>451</ele><name>左转</name></wpt>
  <wpt lat="29.183553" lon="104.63962"><ele>443</ele><name></name></wpt>
  <wpt lat="29.183739" lon="104.637206"><ele>420</ele><name>右转</name></wpt>
  <trk><name>宜宾马鞍山</name>
      <trkseg>
        <trkpt lat="29.188261" lon="104.636329"><ele>420.70508</ele><time>2026-01-31T19:36:07.000Z</time></trkpt>
        <trkpt lat="29.188305" lon="104.636347"><ele>416.50778</ele><time>2026-01-31T19:36:50.000Z</time></trkpt>
        <trkpt lat="29.188355" lon="104.636356"><ele>415.95886</ele><time>2026-01-31T19:37:02.000Z</time></trkpt>
        <trkpt lat="29.188403" lon="104.636366"><ele>415.50742</ele><time>2026-01-31T19:37:08.000Z</time></trkpt>
        <trkpt lat="29.18845" lon="104.636356"><ele>415.0126</ele><time>2026-01-31T19:37:13.000Z</time></trkpt>
        <trkpt lat="29.188499" lon="104.636373"><ele>413.77173</ele><time>2026-01-31T19:37:30.000Z</time></trkpt>
        <trkpt lat="29.188554" lon="104.636385"><ele>413.86108</ele><time>2026-01-31T19:37:35.000Z</time></trkpt>
        <trkpt lat="29.188598" lon="104.636405"><ele>411.86758</ele><time>2026-01-31T19:38:24.000Z</time></trkpt>
        <trkpt lat="29.18865" lon="104.636414"><ele>411.93393</ele><time>2026-01-31T19:40:13.000Z</time></trkpt>
        <trkpt lat="29.188688" lon="104.636444"><ele>413.97546</ele><time>2026-01-31T19:40:39.000Z</time></trkpt>
        <trkpt lat="29.188732" lon="104.636465"><ele>413.90112</ele><time>2026-01-31T19:40:44.000Z</time></trkpt>
        <trkpt lat="29.188751" lon="104.636526"><ele>411.60312</ele><time>2026-01-31T19:41:43.000Z</time></trkpt>
        <trkpt lat="29.188788" lon="104.636566"><ele>412.01538</ele><time>2026-01-31T19:41:51.000Z</time></trkpt>
        <trkpt lat="29.188821" lon="104.636603"><ele>412.58994</ele><time>2026-01-31T19:41:56.000Z</time></trkpt>
        <trkpt lat="29.188856" lon="104.636555"><ele>412.39868</ele><time>2026-01-31T19:42:02.000Z</time></trkpt>
        <trkpt lat="29.188897" lon="104.636523"><ele>411.79504</ele><time>2026-01-31T19:42:07.000Z</time></trkpt>
        <trkpt lat="29.188934" lon="104.636487"><ele>411.2722</ele><time>2026-01-31T19:42:11.000Z</time></trkpt>
        <trkpt lat="29.188977" lon="104.636469"><ele>410.86618</ele><time>2026-01-31T19:42:15.000Z</time></trkpt>
        <trkpt lat="29.189003" lon="104.636514"><ele>410.9026</ele><time>2026-01-31T19:42:20.000Z</time></trkpt>
        <trkpt lat="29.189054" lon="104.636515"><ele>413.2071</ele><time>2026-01-31T19:42:27.000Z</time></trkpt>
        <trkpt lat="29.189097" lon="104.636478"><ele>413.16113</ele><time>2026-01-31T19:42:33.000Z</time></trkpt>
        <trkpt lat="29.189139" lon="104.636435"><ele>412.1883</ele><time>2026-01-31T19:42:38.000Z</time></trkpt>
        <trkpt lat="29.189185" lon="104.636422"><ele>412.0855</ele><time>2026-01-31T19:42:43.000Z</time></trkpt>
        <trkpt lat="29.189232" lon="104.636431"><ele>412.1008</ele><time>2026-01-31T19:44:39.000Z</time></trkpt>
        <trkpt lat="29.189283" lon="104.63643"><ele>412.9689</ele><time>2026-01-31T19:44:45.000Z</time></trkpt>
        <trkpt lat="29.189346" lon="104.636426"><ele>411.67456</ele><time>2026-01-31T19:44:55.000Z</time></trkpt>
        <trkpt lat="29.189374" lon="104.636385"><ele>411.0728</ele><time>2026-01-31T19:45:01.000Z</time></trkpt>
        <trkpt lat="29.189413" lon="104.63634"><ele>412.6639</ele><time>2026-01-31T19:45:06.000Z</time></trkpt>
        <trkpt lat="29.189461" lon="104.63631"><ele>414.69034</ele><time>2026-01-31T19:45:11.000Z</time></trkpt>
        <trkpt lat="29.189512" lon="104.63629"><ele>416.87766</ele><time>2026-01-31T19:45:16.000Z</time></trkpt>
        <trkpt lat="29.189539" lon="104.636246"><ele>418.21915</ele><time>2026-01-31T19:45:24.000Z</time></trkpt>
        <trkpt lat="29.189571" lon="104.636208"><ele>419.76837</ele><time>2026-01-31T19:45:29.000Z</time></trkpt>
        <trkpt lat="29.18961" lon="104.636169"><ele>420.3542</ele><time>2026-01-31T19:45:34.000Z</time></trkpt>
        <trkpt lat="29.189656" lon="104.636144"><ele>419.7974</ele><time>2026-01-31T19:45:39.000Z</time></trkpt>
        <trkpt lat="29.189697" lon="104.63612"><ele>420.84506</ele><time>2026-01-31T19:45:43.000Z</time></trkpt>
        <trkpt lat="29.189739" lon="104.636095"><ele>422.47012</ele><time>2026-01-31T19:45:54.000Z</time></trkpt>
        <trkpt lat="29.189777" lon="104.636064"><ele>422.23822</ele><time>2026-01-31T19:46:01.000Z</time></trkpt>
        <trkpt lat="29.189811" lon="104.636018"><ele>420.8758</ele><time>2026-01-31T19:46:06.000Z</time></trkpt>
        <trkpt lat="29.189859" lon="104.636004"><ele>422.02136</ele><time>2026-01-31T19:47:21.000Z</time></trkpt>
        <trkpt lat="29.189893" lon="104.63597"><ele>423.60913</ele><time>2026-01-31T19:48:51.000Z</time></trkpt>
        <trkpt lat="29.18992" lon="104.635929"><ele>423.11386</ele><time>2026-01-31T19:48:58.000Z</time></trkpt>
        <trkpt lat="29.189956" lon="104.635892"><ele>421.60077</ele><time>2026-01-31T19:49:08.000Z</time></trkpt>
        <trkpt lat="29.190001" lon="104.635867"><ele>419.73532</ele><time>2026-01-31T19:49:13.000Z</time></trkpt>
        <trkpt lat="29.190045" lon="104.635846"><ele>418.8142</ele><time>2026-01-31T19:49:20.000Z</time></trkpt>
        <trkpt lat="29.190085" lon="104.635818"><ele>416.18826</ele><time>2026-01-31T19:49:26.000Z</time></trkpt>
        <trkpt lat="29.190134" lon="104.635825"><ele>413.08798</ele><time>2026-01-31T19:49:58.000Z</time></trkpt>
        <trkpt lat="29.190176" lon="104.635804"><ele>412.48657</ele><time>2026-01-31T19:50:06.000Z</time></trkpt>
        <trkpt lat="29.190232" lon="104.635782"><ele>412.04367</ele><time>2026-01-31T19:50:11.000Z</time></trkpt>
        <trkpt lat="29.190277" lon="104.635744"><ele>413.30896</ele><time>2026-01-31T19:50:16.000Z</time></trkpt>
        <trkpt lat="29.19032" lon="104.635729"><ele>412.58786</ele><time>2026-01-31T19:50:21.000Z</time></trkpt>
        <trkpt lat="29.190359" lon="104.635689"><ele>413.6285</ele><time>2026-01-31T19:50:25.000Z</time></trkpt>
        <trkpt lat="29.190384" lon="104.635644"><ele>412.72015</ele><time>2026-01-31T19:50:31.000Z</time></trkpt>
        <trkpt lat="29.190424" lon="104.635617"><ele>412.30554</ele><time>2026-01-31T19:50:45.000Z</time></trkpt>
        <trkpt lat="29.190427" lon="104.635564"><ele>410.93988</ele><time>2026-01-31T19:50:52.000Z</time></trkpt>
        <trkpt lat="29.19043" lon="104.63551"><ele>410.26874</ele><time>2026-01-31T19:50:58.000Z</time></trkpt>
        <trkpt lat="29.190455" lon="104.635461"><ele>410.71402</ele><time>2026-01-31T19:51:03.000Z</time></trkpt>
        <trkpt lat="29.190481" lon="104.635417"><ele>410.36676</ele><time>2026-01-31T19:51:08.000Z</time></trkpt>
        <trkpt lat="29.190512" lon="104.63538"><ele>411.25195</ele><time>2026-01-31T19:51:13.000Z</time></trkpt>
        <trkpt lat="29.190556" lon="104.635358"><ele>412.72684</ele><time>2026-01-31T19:51:21.000Z</time></trkpt>
        <trkpt lat="29.190596" lon="104.635331"><ele>411.23663</ele><time>2026-01-31T19:51:53.000Z</time></trkpt>
        <trkpt lat="29.190633" lon="104.635291"><ele>411.73093</ele><time>2026-01-31T19:53:28.000Z</time></trkpt>
        <trkpt lat="29.190658" lon="104.635248"><ele>411.07257</ele><time>2026-01-31T19:53:33.000Z</time></trkpt>
        <trkpt lat="29.190702" lon="104.635221"><ele>410.96338</ele><time>2026-01-31T19:53:44.000Z</time></trkpt>
        <trkpt lat="29.190742" lon="104.635183"><ele>411.83234</ele><time>2026-01-31T19:53:53.000Z</time></trkpt>
        <trkpt lat="29.190774" lon="104.635142"><ele>404.87292</ele><time>2026-01-31T19:53:59.000Z</time></trkpt>
        <trkpt lat="29.190819" lon="104.635126"><ele>400.85782</ele><time>2026-01-31T19:54:11.000Z</time></trkpt>
        <trkpt lat="29.190859" lon="104.635095"><ele>400.24884</ele><time>2026-01-31T19:54:20.000Z</time></trkpt>
        <trkpt lat="29.190894" lon="104.635061"><ele>399.92465</ele><time>2026-01-31T19:54:25.000Z</time></trkpt>
        <trkpt lat="29.190935" lon="104.635033"><ele>399.33585</ele><time>2026-01-31T19:54:30.000Z</time></trkpt>
        <trkpt lat="29.190979" lon="104.635009"><ele>399.03943</ele><time>2026-01-31T19:54:36.000Z</time></trkpt>
        <trkpt lat="29.191014" lon="104.63497"><ele>399.70108</ele><time>2026-01-31T19:54:49.000Z</time></trkpt>
        <trkpt lat="29.191045" lon="104.634932"><ele>399.4607</ele><time>2026-01-31T19:54:54.000Z</time></trkpt>
        <trkpt lat="29.191096" lon="104.634907"><ele>399.48764</ele><time>2026-01-31T19:55:00.000Z</time></trkpt>
        <trkpt lat="29.191146" lon="104.634901"><ele>399.06277</ele><time>2026-01-31T19:55:05.000Z</time></trkpt>
        <trkpt lat="29.191196" lon="104.634886"><ele>397.44046</ele><time>2026-01-31T19:55:11.000Z</time></trkpt>
        <trkpt lat="29.191248" lon="104.63488"><ele>396.71567</ele><time>2026-01-31T19:55:16.000Z</time></trkpt>
        <trkpt lat="29.191305" lon="104.634875"><ele>395.3104</ele><time>2026-01-31T19:55:21.000Z</time></trkpt>
        <trkpt lat="29.191352" lon="104.634867"><ele>393.86285</ele><time>2026-01-31T19:55:27.000Z</time></trkpt>
        <trkpt lat="29.19139" lon="104.634828"><ele>391.95532</ele><time>2026-01-31T19:55:50.000Z</time></trkpt>
        <trkpt lat="29.191437" lon="104.634818"><ele>391.88846</ele><time>2026-01-31T19:55:57.000Z</time></trkpt>
        <trkpt lat="29.191485" lon="104.634792"><ele>390.65845</ele><time>2026-01-31T19:56:09.000Z</time></trkpt>
        <trkpt lat="29.191524" lon="104.634762"><ele>389.51007</ele><time>2026-01-31T19:56:20.000Z</time></trkpt>
        <trkpt lat="29.191572" lon="104.634778"><ele>388.29416</ele><time>2026-01-31T19:56:37.000Z</time></trkpt>
        <trkpt lat="29.191617" lon="104.634771"><ele>387.1833</ele><time>2026-01-31T19:58:00.000Z</time></trkpt>
        <trkpt lat="29.191623" lon="104.634823"><ele>385.945</ele><time>2026-01-31T19:58:23.000Z</time></trkpt>
        <trkpt lat="29.191607" lon="104.634873"><ele>383.90436</ele><time>2026-01-31T19:58:39.000Z</time></trkpt>
        <trkpt lat="29.191562" lon="104.634895"><ele>382.2903</ele><time>2026-01-31T19:58:56.000Z</time></trkpt>
        <trkpt lat="29.191528" lon="104.634936"><ele>383.5582</ele><time>2026-01-31T19:59:02.000Z</time></trkpt>
        <trkpt lat="29.191495" lon="104.634972"><ele>384.60873</ele><time>2026-01-31T19:59:07.000Z</time></trkpt>
        <trkpt lat="29.191447" lon="104.634974"><ele>386.2121</ele><time>2026-01-31T19:59:34.000Z</time></trkpt>
        <trkpt lat="29.191414" lon="104.635011"><ele>385.94983</ele><time>2026-01-31T19:59:51.000Z</time></trkpt>
        <trkpt lat="29.191402" lon="104.635061"><ele>385.4995</ele><time>2026-01-31T20:02:42.000Z</time></trkpt>
        <trkpt lat="29.19145" lon="104.635062"><ele>383.6404</ele><time>2026-01-31T20:03:05.000Z</time></trkpt>
        <trkpt lat="29.191455" lon="104.635115"><ele>381.06882</ele><time>2026-01-31T20:03:39.000Z</time></trkpt>
        <trkpt lat="29.191429" lon="104.635171"><ele>380.66556</ele><time>2026-01-31T20:03:57.000Z</time></trkpt>
        <trkpt lat="29.191452" lon="104.635225"><ele>377.93546</ele><time>2026-01-31T20:04:12.000Z</time></trkpt>
        <trkpt lat="29.191475" lon="104.635277"><ele>376.97144</ele><time>2026-01-31T20:04:19.000Z</time></trkpt>
        <trkpt lat="29.191491" lon="104.635331"><ele>375.54932</ele><time>2026-01-31T20:04:26.000Z</time></trkpt>
        <trkpt lat="29.191447" lon="104.635354"><ele>374.9431</ele><time>2026-01-31T20:04:43.000Z</time></trkpt>
        <trkpt lat="29.191405" lon="104.635379"><ele>376.01382</ele><time>2026-01-31T20:04:55.000Z</time></trkpt>
        <trkpt lat="29.191442" lon="104.635413"><ele>376.6163</ele><time>2026-01-31T20:05:11.000Z</time></trkpt>
        <trkpt lat="29.191418" lon="104.635464"><ele>377.39706</ele><time>2026-01-31T20:05:16.000Z</time></trkpt>
        <trkpt lat="29.191387" lon="104.635425"><ele>377.12402</ele><time>2026-01-31T20:05:42.000Z</time></trkpt>
        <trkpt lat="29.191438" lon="104.635452"><ele>376.80255</ele><time>2026-01-31T20:09:12.000Z</time></trkpt>
        <trkpt lat="29.191437" lon="104.635397"><ele>376.3901</ele><time>2026-01-31T20:09:16.000Z</time></trkpt>
        <trkpt lat="29.191426" lon="104.635346"><ele>375.03815</ele><time>2026-01-31T20:09:22.000Z</time></trkpt>
        <trkpt lat="29.191468" lon="104.635321"><ele>375.1667</ele><time>2026-01-31T20:09:27.000Z</time></trkpt>
        <trkpt lat="29.191513" lon="104.635342"><ele>375.2957</ele><time>2026-01-31T20:09:35.000Z</time></trkpt>
        <trkpt lat="29.191566" lon="104.635351"><ele>374.79718</ele><time>2026-01-31T20:09:42.000Z</time></trkpt>
        <trkpt lat="29.19162" lon="104.635366"><ele>374.4551</ele><time>2026-01-31T20:09:49.000Z</time></trkpt>
        <trkpt lat="29.191665" lon="104.635382"><ele>374.12772</ele><time>2026-01-31T20:09:54.000Z</time></trkpt>
        <trkpt lat="29.191706" lon="104.635404"><ele>373.92242</ele><time>2026-01-31T20:09:59.000Z</time></trkpt>
        <trkpt lat="29.191748" lon="104.635425"><ele>374.65878</ele><time>2026-01-31T20:10:04.000Z</time></trkpt>
        <trkpt lat="29.191784" lon="104.635459"><ele>375.09598</ele><time>2026-01-31T20:10:17.000Z</time></trkpt>
        <trkpt lat="29.191839" lon="104.635461"><ele>375.3667</ele><time>2026-01-31T20:10:23.000Z</time></trkpt>
        <trkpt lat="29.191884" lon="104.635456"><ele>376.27908</ele><time>2026-01-31T20:10:29.000Z</time></trkpt>
        <trkpt lat="29.191928" lon="104.635433"><ele>377.01227</ele><time>2026-01-31T20:10:38.000Z</time></trkpt>
        <trkpt lat="29.191979" lon="104.635421"><ele>377.9782</ele><time>2026-01-31T20:11:04.000Z</time></trkpt>
        <trkpt lat="29.192021" lon="104.635402"><ele>378.12534</ele><time>2026-01-31T20:11:08.000Z</time></trkpt>
        <trkpt lat="29.192059" lon="104.635361"><ele>379.3502</ele><time>2026-01-31T20:11:16.000Z</time></trkpt>
        <trkpt lat="29.192099" lon="104.635319"><ele>378.81134</ele><time>2026-01-31T20:11:31.000Z</time></trkpt>
        <trkpt lat="29.192135" lon="104.635284"><ele>379.31912</ele><time>2026-01-31T20:11:37.000Z</time></trkpt>
        <trkpt lat="29.19217" lon="104.635251"><ele>380.18347</ele><time>2026-01-31T20:11:48.000Z</time></trkpt>
        <trkpt lat="29.192215" lon="104.635238"><ele>380.2595</ele><time>2026-01-31T20:11:54.000Z</time></trkpt>
        <trkpt lat="29.192266" lon="104.635231"><ele>381.56674</ele><time>2026-01-31T20:11:59.000Z</time></trkpt>
        <trkpt lat="29.192315" lon="104.635216"><ele>382.81418</ele><time>2026-01-31T20:12:04.000Z</time></trkpt>
        <trkpt lat="29.192361" lon="104.635216"><ele>384.72018</ele><time>2026-01-31T20:12:33.000Z</time></trkpt>
        <trkpt lat="29.192393" lon="104.635176"><ele>384.77356</ele><time>2026-01-31T20:12:36.000Z</time></trkpt>
        <trkpt lat="29.192427" lon="104.635133"><ele>384.1071</ele><time>2026-01-31T20:12:42.000Z</time></trkpt>
        <trkpt lat="29.192467" lon="104.635107"><ele>385.74338</ele><time>2026-01-31T20:12:48.000Z</time></trkpt>
        <trkpt lat="29.192505" lon="104.635063"><ele>385.56418</ele><time>2026-01-31T20:12:57.000Z</time></trkpt>
        <trkpt lat="29.192546" lon="104.635033"><ele>386.25583</ele><time>2026-01-31T20:13:06.000Z</time></trkpt>
        <trkpt lat="29.192587" lon="104.635056"><ele>384.11502</ele><time>2026-01-31T20:13:26.000Z</time></trkpt>
        <trkpt lat="29.192634" lon="104.63504"><ele>384.5779</ele><time>2026-01-31T20:13:33.000Z</time></trkpt>
        <trkpt lat="29.192651" lon="104.634981"><ele>382.7897</ele><time>2026-01-31T20:13:50.000Z</time></trkpt>
        <trkpt lat="29.192694" lon="104.634951"><ele>381.27753</ele><time>2026-01-31T20:13:56.000Z</time></trkpt>
        <trkpt lat="29.192723" lon="104.634905"><ele>380.90262</ele><time>2026-01-31T20:14:05.000Z</time></trkpt>
        <trkpt lat="29.192755" lon="104.634863"><ele>380.5062</ele><time>2026-01-31T20:14:10.000Z</time></trkpt>
        <trkpt lat="29.192809" lon="104.634856"><ele>380.14417</ele><time>2026-01-31T20:14:15.000Z</time></trkpt>
        <trkpt lat="29.192858" lon="104.63485"><ele>380.12967</ele><time>2026-01-31T20:14:20.000Z</time></trkpt>
        <trkpt lat="29.192908" lon="104.634867"><ele>379.51224</ele><time>2026-01-31T20:14:26.000Z</time></trkpt>
        <trkpt lat="29.192957" lon="104.634878"><ele>379.432</ele><time>2026-01-31T20:14:32.000Z</time></trkpt>
        <trkpt lat="29.192992" lon="104.634914"><ele>379.03476</ele><time>2026-01-31T20:14:42.000Z</time></trkpt>
        <trkpt lat="29.193026" lon="104.63495"><ele>379.42438</ele><time>2026-01-31T20:14:55.000Z</time></trkpt>
        <trkpt lat="29.193076" lon="104.634976"><ele>378.29065</ele><time>2026-01-31T20:15:11.000Z</time></trkpt>
        <trkpt lat="29.193112" lon="104.635015"><ele>378.0337</ele><time>2026-01-31T20:15:16.000Z</time></trkpt>
        <trkpt lat="29.193144" lon="104.635055"><ele>377.2913</ele><time>2026-01-31T20:15:22.000Z</time></trkpt>
        <trkpt lat="29.193189" lon="104.635068"><ele>376.076</ele><time>2026-01-31T20:15:29.000Z</time></trkpt>
        <trkpt lat="29.193238" lon="104.635085"><ele>376.44086</ele><time>2026-01-31T20:15:35.000Z</time></trkpt>
        <trkpt lat="29.19328" lon="104.635111"><ele>375.78345</ele><time>2026-01-31T20:15:42.000Z</time></trkpt>
        <trkpt lat="29.193329" lon="104.63513"><ele>376.01575</ele><time>2026-01-31T20:15:47.000Z</time></trkpt>
        <trkpt lat="29.193356" lon="104.635173"><ele>376.6138</ele><time>2026-01-31T20:15:52.000Z</time></trkpt>
        <trkpt lat="29.193388" lon="104.63521"><ele>375.68915</ele><time>2026-01-31T20:16:01.000Z</time></trkpt>
        <trkpt lat="29.193434" lon="104.635232"><ele>376.192</ele><time>2026-01-31T20:16:07.000Z</time></trkpt>
        <trkpt lat="29.193414" lon="104.63528"><ele>376.76212</ele><time>2026-01-31T20:16:23.000Z</time></trkpt>
        <trkpt lat="29.193446" lon="104.635331"><ele>376.1418</ele><time>2026-01-31T20:16:57.000Z</time></trkpt>
        <trkpt lat="29.193471" lon="104.635379"><ele>375.30737</ele><time>2026-01-31T20:17:03.000Z</time></trkpt>
        <trkpt lat="29.193494" lon="104.635431"><ele>373.84543</ele><time>2026-01-31T20:17:09.000Z</time></trkpt>
        <trkpt lat="29.193521" lon="104.635485"><ele>372.7366</ele><time>2026-01-31T20:17:15.000Z</time></trkpt>
        <trkpt lat="29.193557" lon="104.63553"><ele>371.14203</ele><time>2026-01-31T20:17:21.000Z</time></trkpt>
        <trkpt lat="29.193582" lon="104.635574"><ele>368.05823</ele><time>2026-01-31T20:17:30.000Z</time></trkpt>
        <trkpt lat="29.193616" lon="104.635618"><ele>368.44672</ele><time>2026-01-31T20:17:38.000Z</time></trkpt>
        <trkpt lat="29.193659" lon="104.635648"><ele>368.38885</ele><time>2026-01-31T20:17:43.000Z</time></trkpt>
        <trkpt lat="29.193701" lon="104.635675"><ele>369.22626</ele><time>2026-01-31T20:17:49.000Z</time></trkpt>
        <trkpt lat="29.193747" lon="104.635703"><ele>370.03888</ele><time>2026-01-31T20:17:54.000Z</time></trkpt>
        <trkpt lat="29.19379" lon="104.635727"><ele>370.27365</ele><time>2026-01-31T20:17:59.000Z</time></trkpt>
        <trkpt lat="29.193741" lon="104.635722"><ele>370.1513</ele><time>2026-01-31T20:18:08.000Z</time></trkpt>
        <trkpt lat="29.193693" lon="104.6357"><ele>369.79648</ele><time>2026-01-31T20:18:12.000Z</time></trkpt>
        <trkpt lat="29.193648" lon="104.635668"><ele>368.83533</ele><time>2026-01-31T20:18:16.000Z</time></trkpt>
        <trkpt lat="29.193595" lon="104.63564"><ele>368.82632</ele><time>2026-01-31T20:18:20.000Z</time></trkpt>
        <trkpt lat="29.193598" lon="104.635699"><ele>369.37048</ele><time>2026-01-31T20:18:26.000Z</time></trkpt>
        <trkpt lat="29.193637" lon="104.635733"><ele>369.9311</ele><time>2026-01-31T20:18:37.000Z</time></trkpt>
        <trkpt lat="29.193614" lon="104.635787"><ele>370.42764</ele><time>2026-01-31T20:18:56.000Z</time></trkpt>
        <trkpt lat="29.193629" lon="104.635839"><ele>370.12534</ele><time>2026-01-31T20:21:34.000Z</time></trkpt>
        <trkpt lat="29.193672" lon="104.635873"><ele>370.46936</ele><time>2026-01-31T20:23:36.000Z</time></trkpt>
        <trkpt lat="29.19371" lon="104.63591"><ele>372.0668</ele><time>2026-01-31T20:23:50.000Z</time></trkpt>
        <trkpt lat="29.193756" lon="104.635931"><ele>373.08542</ele><time>2026-01-31T20:24:21.000Z</time></trkpt>
        <trkpt lat="29.193799" lon="104.635958"><ele>374.01724</ele><time>2026-01-31T20:24:36.000Z</time></trkpt>
        <trkpt lat="29.193834" lon="104.635994"><ele>374.30295</ele><time>2026-01-31T20:24:44.000Z</time></trkpt>
        <trkpt lat="29.193882" lon="104.636002"><ele>375.3617</ele><time>2026-01-31T20:24:51.000Z</time></trkpt>
        <trkpt lat="29.193925" lon="104.636021"><ele>376.96625</ele><time>2026-01-31T20:25:03.000Z</time></trkpt>
        <trkpt lat="29.193968" lon="104.636044"><ele>378.49063</ele><time>2026-01-31T20:25:41.000Z</time></trkpt>
        <trkpt lat="29.193979" lon="104.636098"><ele>380.08682</ele><time>2026-01-31T20:25:49.000Z</time></trkpt>
        <trkpt lat="29.193986" lon="104.636151"><ele>381.29837</ele><time>2026-01-31T20:26:15.000Z</time></trkpt>
        <trkpt lat="29.193991" lon="104.636209"><ele>383.22638</ele><time>2026-01-31T20:26:22.000Z</time></trkpt>
        <trkpt lat="29.194004" lon="104.636261"><ele>383.4386</ele><time>2026-01-31T20:26:29.000Z</time></trkpt>
        <trkpt lat="29.194026" lon="104.636314"><ele>384.42487</ele><time>2026-01-31T20:26:37.000Z</time></trkpt>
        <trkpt lat="29.194042" lon="104.636363"><ele>384.1359</ele><time>2026-01-31T20:26:44.000Z</time></trkpt>
        <trkpt lat="29.194065" lon="104.636407"><ele>384.03616</ele><time>2026-01-31T20:28:18.000Z</time></trkpt>
        <trkpt lat="29.194106" lon="104.636441"><ele>384.955</ele><time>2026-01-31T20:28:26.000Z</time></trkpt>
        <trkpt lat="29.194143" lon="104.636476"><ele>385.1528</ele><time>2026-01-31T20:28:31.000Z</time></trkpt>
        <trkpt lat="29.194184" lon="104.6365"><ele>385.38373</ele><time>2026-01-31T20:28:37.000Z</time></trkpt>
        <trkpt lat="29.194223" lon="104.636526"><ele>386.01678</ele><time>2026-01-31T20:28:44.000Z</time></trkpt>
        <trkpt lat="29.194267" lon="104.636545"><ele>385.3176</ele><time>2026-01-31T20:29:17.000Z</time></trkpt>
        <trkpt lat="29.194307" lon="104.636579"><ele>385.39133</ele><time>2026-01-31T20:29:39.000Z</time></trkpt>
        <trkpt lat="29.194343" lon="104.636611"><ele>384.43604</ele><time>2026-01-31T20:29:49.000Z</time></trkpt>
        <trkpt lat="29.194338" lon="104.636669"><ele>385.05865</ele><time>2026-01-31T20:30:20.000Z</time></trkpt>
        <trkpt lat="29.194357" lon="104.636717"><ele>385.0444</ele><time>2026-01-31T20:31:08.000Z</time></trkpt>
        <trkpt lat="29.194387" lon="104.636766"><ele>384.23288</ele><time>2026-01-31T20:31:18.000Z</time></trkpt>
        <trkpt lat="29.194404" lon="104.636818"><ele>383.81583</ele><time>2026-01-31T20:31:29.000Z</time></trkpt>
        <trkpt lat="29.194415" lon="104.63687"><ele>382.0003</ele><time>2026-01-31T20:31:52.000Z</time></trkpt>
        <trkpt lat="29.194374" lon="104.636893"><ele>382.41177</ele><time>2026-01-31T20:33:00.000Z</time></trkpt>
        <trkpt lat="29.19436" lon="104.636948"><ele>382.14645</ele><time>2026-01-31T20:33:06.000Z</time></trkpt>
        <trkpt lat="29.194322" lon="104.636979"><ele>382.79062</ele><time>2026-01-31T20:33:16.000Z</time></trkpt>
        <trkpt lat="29.19428" lon="104.637014"><ele>382.76086</ele><time>2026-01-31T20:33:23.000Z</time></trkpt>
        <trkpt lat="29.194232" lon="104.63702"><ele>382.20654</ele><time>2026-01-31T20:33:30.000Z</time></trkpt>
        <trkpt lat="29.194192" lon="104.637045"><ele>382.57758</ele><time>2026-01-31T20:33:35.000Z</time></trkpt>
        <trkpt lat="29.194145" lon="104.637078"><ele>383.19107</ele><time>2026-01-31T20:33:41.000Z</time></trkpt>
        <trkpt lat="29.194093" lon="104.637082"><ele>383.671</ele><time>2026-01-31T20:33:47.000Z</time></trkpt>
        <trkpt lat="29.194047" lon="104.637082"><ele>384.74625</ele><time>2026-01-31T20:33:54.000Z</time></trkpt>
        <trkpt lat="29.194098" lon="104.637083"><ele>383.97443</ele><time>2026-01-31T20:34:13.000Z</time></trkpt>
        <trkpt lat="29.194043" lon="104.637077"><ele>384.52585</ele><time>2026-01-31T20:34:39.000Z</time></trkpt>
        <trkpt lat="29.193997" lon="104.637093"><ele>385.0138</ele><time>2026-01-31T20:34:44.000Z</time></trkpt>
        <trkpt lat="29.193943" lon="104.637096"><ele>386.1651</ele><time>2026-01-31T20:34:54.000Z</time></trkpt>
        <trkpt lat="29.193893" lon="104.637092"><ele>387.36713</ele><time>2026-01-31T20:35:00.000Z</time></trkpt>
        <trkpt lat="29.193847" lon="104.637086"><ele>387.69266</ele><time>2026-01-31T20:35:06.000Z</time></trkpt>
        <trkpt lat="29.193802" lon="104.63707"><ele>389.32962</ele><time>2026-01-31T20:35:16.000Z</time></trkpt>
        <trkpt lat="29.193757" lon="104.637081"><ele>388.75552</ele><time>2026-01-31T20:35:21.000Z</time></trkpt>
        <trkpt lat="29.193704" lon="104.637084"><ele>388.45886</ele><time>2026-01-31T20:35:26.000Z</time></trkpt>
        <trkpt lat="29.193662" lon="104.637055"><ele>389.01138</ele><time>2026-01-31T20:35:33.000Z</time></trkpt>
        <trkpt lat="29.193613" lon="104.637041"><ele>390.15244</ele><time>2026-01-31T20:35:39.000Z</time></trkpt>
        <trkpt lat="29.193565" lon="104.637029"><ele>390.25662</ele><time>2026-01-31T20:35:45.000Z</time></trkpt>
        <trkpt lat="29.193519" lon="104.637015"><ele>389.87665</ele><time>2026-01-31T20:35:50.000Z</time></trkpt>
        <trkpt lat="29.193473" lon="104.63698"><ele>390.7602</ele><time>2026-01-31T20:35:55.000Z</time></trkpt>
        <trkpt lat="29.193428" lon="104.636963"><ele>390.38132</ele><time>2026-01-31T20:36:01.000Z</time></trkpt>
        <trkpt lat="29.193377" lon="104.636944"><ele>389.68164</ele><time>2026-01-31T20:36:06.000Z</time></trkpt>
        <trkpt lat="29.193326" lon="104.636926"><ele>389.26056</ele><time>2026-01-31T20:36:11.000Z</time></trkpt>
        <trkpt lat="29.193291" lon="104.636889"><ele>388.2027</ele><time>2026-01-31T20:37:02.000Z</time></trkpt>
        <trkpt lat="29.19325" lon="104.636855"><ele>388.94748</ele><time>2026-01-31T20:37:10.000Z</time></trkpt>
        <trkpt lat="29.193206" lon="104.636835"><ele>389.4819</ele><time>2026-01-31T20:37:17.000Z</time></trkpt>
        <trkpt lat="29.193174" lon="104.636793"><ele>389.87384</ele><time>2026-01-31T20:37:24.000Z</time></trkpt>
        <trkpt lat="29.193187" lon="104.636849"><ele>388.79483</ele><time>2026-01-31T20:37:42.000Z</time></trkpt>
        <trkpt lat="29.193228" lon="104.636871"><ele>388.6622</ele><time>2026-01-31T20:38:29.000Z</time></trkpt>
        <trkpt lat="29.193273" lon="104.6369"><ele>388.81787</ele><time>2026-01-31T20:38:34.000Z</time></trkpt>
        <trkpt lat="29.193322" lon="104.636917"><ele>387.71942</ele><time>2026-01-31T20:38:40.000Z</time></trkpt>
        <trkpt lat="29.193367" lon="104.636932"><ele>387.7624</ele><time>2026-01-31T20:38:46.000Z</time></trkpt>
        <trkpt lat="29.193409" lon="104.636956"><ele>387.79834</ele><time>2026-01-31T20:38:54.000Z</time></trkpt>
        <trkpt lat="29.193367" lon="104.636985"><ele>387.49548</ele><time>2026-01-31T20:39:33.000Z</time></trkpt>
        <trkpt lat="29.193322" lon="104.637003"><ele>386.95578</ele><time>2026-01-31T20:40:01.000Z</time></trkpt>
        <trkpt lat="29.193284" lon="104.637036"><ele>385.05637</ele><time>2026-01-31T20:43:13.000Z</time></trkpt>
        <trkpt lat="29.193274" lon="104.637089"><ele>384.4482</ele><time>2026-01-31T20:43:25.000Z</time></trkpt>
        <trkpt lat="29.19324" lon="104.637125"><ele>384.11533</ele><time>2026-01-31T20:43:31.000Z</time></trkpt>
        <trkpt lat="29.193253" lon="104.637175"><ele>382.9098</ele><time>2026-01-31T20:43:38.000Z</time></trkpt>
        <trkpt lat="29.193256" lon="104.637231"><ele>382.78534</ele><time>2026-01-31T20:43:43.000Z</time></trkpt>
        <trkpt lat="29.193237" lon="104.637282"><ele>382.08652</ele><time>2026-01-31T20:43:48.000Z</time></trkpt>
        <trkpt lat="29.193204" lon="104.637323"><ele>382.68307</ele><time>2026-01-31T20:44:08.000Z</time></trkpt>
        <trkpt lat="29.19317" lon="104.637362"><ele>382.9951</ele><time>2026-01-31T20:44:13.000Z</time></trkpt>
        <trkpt lat="29.193126" lon="104.637377"><ele>383.70267</ele><time>2026-01-31T20:44:20.000Z</time></trkpt>
        <trkpt lat="29.193099" lon="104.63742"><ele>383.70947</ele><time>2026-01-31T20:44:25.000Z</time></trkpt>
        <trkpt lat="29.19305" lon="104.637441"><ele>384.53583</ele><time>2026-01-31T20:44:32.000Z</time></trkpt>
        <trkpt lat="29.193002" lon="104.637464"><ele>384.77325</ele><time>2026-01-31T20:44:38.000Z</time></trkpt>
        <trkpt lat="29.192973" lon="104.637503"><ele>386.6238</ele><time>2026-01-31T20:45:00.000Z</time></trkpt>
        <trkpt lat="29.192925" lon="104.637537"><ele>386.48068</ele><time>2026-01-31T20:45:08.000Z</time></trkpt>
        <trkpt lat="29.192875" lon="104.637547"><ele>387.5917</ele><time>2026-01-31T20:45:14.000Z</time></trkpt>
        <trkpt lat="29.192832" lon="104.637568"><ele>387.1347</ele><time>2026-01-31T20:45:19.000Z</time></trkpt>
        <trkpt lat="29.192787" lon="104.637575"><ele>388.24332</ele><time>2026-01-31T20:45:40.000Z</time></trkpt>
        <trkpt lat="29.192743" lon="104.6376"><ele>387.6938</ele><time>2026-01-31T20:45:45.000Z</time></trkpt>
        <trkpt lat="29.192696" lon="104.637616"><ele>387.68765</ele><time>2026-01-31T20:45:51.000Z</time></trkpt>
        <trkpt lat="29.192647" lon="104.637636"><ele>388.10745</ele><time>2026-01-31T20:45:57.000Z</time></trkpt>
        <trkpt lat="29.192603" lon="104.637651"><ele>388.71872</ele><time>2026-01-31T20:46:02.000Z</time></trkpt>
        <trkpt lat="29.192555" lon="104.637672"><ele>389.4074</ele><time>2026-01-31T20:46:07.000Z</time></trkpt>
        <trkpt lat="29.192502" lon="104.637675"><ele>390.34958</ele><time>2026-01-31T20:46:13.000Z</time></trkpt>
        <trkpt lat="29.192446" lon="104.637686"><ele>390.45233</ele><time>2026-01-31T20:47:03.000Z</time></trkpt>
        <trkpt lat="29.192395" lon="104.637688"><ele>391.36908</ele><time>2026-01-31T20:47:08.000Z</time></trkpt>
        <trkpt lat="29.192344" lon="104.637699"><ele>391.29315</ele><time>2026-01-31T20:47:13.000Z</time></trkpt>
        <trkpt lat="29.192306" lon="104.637728"><ele>391.57806</ele><time>2026-01-31T20:47:17.000Z</time></trkpt>
        <trkpt lat="29.192262" lon="104.637762"><ele>390.3888</ele><time>2026-01-31T20:47:22.000Z</time></trkpt>
        <trkpt lat="29.19222" lon="104.6378"><ele>389.81897</ele><time>2026-01-31T20:47:29.000Z</time></trkpt>
        <trkpt lat="29.192173" lon="104.637821"><ele>389.34454</ele><time>2026-01-31T20:47:35.000Z</time></trkpt>
        <trkpt lat="29.192126" lon="104.637834"><ele>389.0396</ele><time>2026-01-31T20:47:41.000Z</time></trkpt>
        <trkpt lat="29.19208" lon="104.637868"><ele>388.0154</ele><time>2026-01-31T20:47:49.000Z</time></trkpt>
        <trkpt lat="29.192034" lon="104.637886"><ele>387.74503</ele><time>2026-01-31T20:48:25.000Z</time></trkpt>
        <trkpt lat="29.191979" lon="104.63788"><ele>387.11755</ele><time>2026-01-31T20:48:30.000Z</time></trkpt>
        <trkpt lat="29.191935" lon="104.63791"><ele>387.3499</ele><time>2026-01-31T20:48:35.000Z</time></trkpt>
        <trkpt lat="29.191896" lon="104.637945"><ele>385.7696</ele><time>2026-01-31T20:49:02.000Z</time></trkpt>
        <trkpt lat="29.191875" lon="104.638001"><ele>385.5413</ele><time>2026-01-31T20:49:07.000Z</time></trkpt>
        <trkpt lat="29.191871" lon="104.63806"><ele>384.75934</ele><time>2026-01-31T20:49:11.000Z</time></trkpt>
        <trkpt lat="29.19187" lon="104.638122"><ele>384.0342</ele><time>2026-01-31T20:49:16.000Z</time></trkpt>
        <trkpt lat="29.191857" lon="104.638174"><ele>385.15765</ele><time>2026-01-31T20:51:28.000Z</time></trkpt>
        <trkpt lat="29.191853" lon="104.638227"><ele>385.10913</ele><time>2026-01-31T20:51:33.000Z</time></trkpt>
        <trkpt lat="29.191833" lon="104.638274"><ele>385.54303</ele><time>2026-01-31T20:51:38.000Z</time></trkpt>
        <trkpt lat="29.191835" lon="104.638328"><ele>386.16818</ele><time>2026-01-31T20:51:43.000Z</time></trkpt>
        <trkpt lat="29.191833" lon="104.638387"><ele>386.99313</ele><time>2026-01-31T20:51:48.000Z</time></trkpt>
        <trkpt lat="29.191801" lon="104.638433"><ele>388.18927</ele><time>2026-01-31T20:51:54.000Z</time></trkpt>
        <trkpt lat="29.191766" lon="104.638466"><ele>388.18597</ele><time>2026-01-31T20:51:59.000Z</time></trkpt>
        <trkpt lat="29.191719" lon="104.638474"><ele>387.85168</ele><time>2026-01-31T20:52:21.000Z</time></trkpt>
        <trkpt lat="29.191703" lon="104.638531"><ele>387.232</ele><time>2026-01-31T20:52:30.000Z</time></trkpt>
        <trkpt lat="29.191667" lon="104.638572"><ele>387.58563</ele><time>2026-01-31T20:52:36.000Z</time></trkpt>
        <trkpt lat="29.191636" lon="104.638612"><ele>388.45322</ele><time>2026-01-31T20:52:40.000Z</time></trkpt>
        <trkpt lat="29.191597" lon="104.63864"><ele>390.4701</ele><time>2026-01-31T20:52:45.000Z</time></trkpt>
        <trkpt lat="29.191566" lon="104.638678"><ele>392.12164</ele><time>2026-01-31T20:52:51.000Z</time></trkpt>
        <trkpt lat="29.191519" lon="104.6387"><ele>394.25452</ele><time>2026-01-31T20:53:15.000Z</time></trkpt>
        <trkpt lat="29.191483" lon="104.638736"><ele>394.5683</ele><time>2026-01-31T20:53:21.000Z</time></trkpt>
        <trkpt lat="29.191443" lon="104.638776"><ele>394.16943</ele><time>2026-01-31T20:53:26.000Z</time></trkpt>
        <trkpt lat="29.191409" lon="104.638818"><ele>394.08347</ele><time>2026-01-31T20:53:31.000Z</time></trkpt>
        <trkpt lat="29.191373" lon="104.63886"><ele>394.27542</ele><time>2026-01-31T20:53:36.000Z</time></trkpt>
        <trkpt lat="29.191342" lon="104.638902"><ele>393.23914</ele><time>2026-01-31T20:53:42.000Z</time></trkpt>
        <trkpt lat="29.191308" lon="104.638952"><ele>394.26996</ele><time>2026-01-31T20:53:48.000Z</time></trkpt>
        <trkpt lat="29.191287" lon="104.639005"><ele>396.3577</ele><time>2026-01-31T20:54:21.000Z</time></trkpt>
        <trkpt lat="29.191276" lon="104.639055"><ele>397.0598</ele><time>2026-01-31T20:54:26.000Z</time></trkpt>
        <trkpt lat="29.191264" lon="104.63911"><ele>397.46503</ele><time>2026-01-31T20:54:31.000Z</time></trkpt>
        <trkpt lat="29.191261" lon="104.639172"><ele>399.5279</ele><time>2026-01-31T20:54:36.000Z</time></trkpt>
        <trkpt lat="29.191246" lon="104.639225"><ele>400.979</ele><time>2026-01-31T20:54:41.000Z</time></trkpt>
        <trkpt lat="29.191217" lon="104.639276"><ele>401.80753</ele><time>2026-01-31T20:55:01.000Z</time></trkpt>
        <trkpt lat="29.191177" lon="104.639303"><ele>401.34885</ele><time>2026-01-31T20:55:06.000Z</time></trkpt>
        <trkpt lat="29.191132" lon="104.639321"><ele>402.27798</ele><time>2026-01-31T20:55:10.000Z</time></trkpt>
        <trkpt lat="29.19108" lon="104.63934"><ele>402.44925</ele><time>2026-01-31T20:55:15.000Z</time></trkpt>
        <trkpt lat="29.19103" lon="104.63935"><ele>402.51465</ele><time>2026-01-31T20:55:20.000Z</time></trkpt>
        <trkpt lat="29.190975" lon="104.639336"><ele>402.78763</ele><time>2026-01-31T20:55:25.000Z</time></trkpt>
        <trkpt lat="29.19092" lon="104.639323"><ele>403.0095</ele><time>2026-01-31T20:55:31.000Z</time></trkpt>
        <trkpt lat="29.190866" lon="104.639312"><ele>404.01953</ele><time>2026-01-31T20:55:37.000Z</time></trkpt>
        <trkpt lat="29.190818" lon="104.639295"><ele>402.2957</ele><time>2026-01-31T20:57:24.000Z</time></trkpt>
        <trkpt lat="29.190767" lon="104.639323"><ele>403.68622</ele><time>2026-01-31T20:57:33.000Z</time></trkpt>
        <trkpt lat="29.190721" lon="104.639326"><ele>404.51678</ele><time>2026-01-31T20:57:38.000Z</time></trkpt>
        <trkpt lat="29.190673" lon="104.639322"><ele>404.76764</ele><time>2026-01-31T20:57:43.000Z</time></trkpt>
        <trkpt lat="29.190628" lon="104.6393"><ele>404.75156</ele><time>2026-01-31T20:58:06.000Z</time></trkpt>
        <trkpt lat="29.190582" lon="104.639278"><ele>405.47717</ele><time>2026-01-31T20:58:13.000Z</time></trkpt>
        <trkpt lat="29.190541" lon="104.639255"><ele>404.185</ele><time>2026-01-31T20:58:31.000Z</time></trkpt>
        <trkpt lat="29.190495" lon="104.639259"><ele>404.6161</ele><time>2026-01-31T20:58:43.000Z</time></trkpt>
        <trkpt lat="29.190449" lon="104.639283"><ele>405.26944</ele><time>2026-01-31T20:58:49.000Z</time></trkpt>
        <trkpt lat="29.190406" lon="104.639261"><ele>405.0206</ele><time>2026-01-31T20:59:00.000Z</time></trkpt>
        <trkpt lat="29.190366" lon="104.639232"><ele>404.75125</ele><time>2026-01-31T20:59:05.000Z</time></trkpt>
        <trkpt lat="29.190332" lon="104.639196"><ele>403.75006</ele><time>2026-01-31T20:59:37.000Z</time></trkpt>
        <trkpt lat="29.190284" lon="104.639168"><ele>402.79144</ele><time>2026-01-31T20:59:46.000Z</time></trkpt>
        <trkpt lat="29.190264" lon="104.639118"><ele>402.76947</ele><time>2026-01-31T21:00:02.000Z</time></trkpt>
        <trkpt lat="29.190243" lon="104.639067"><ele>402.82654</ele><time>2026-01-31T21:00:14.000Z</time></trkpt>
        <trkpt lat="29.190196" lon="104.639087"><ele>402.58276</ele><time>2026-01-31T21:00:28.000Z</time></trkpt>
        <trkpt lat="29.190139" lon="104.639097"><ele>401.6616</ele><time>2026-01-31T21:00:33.000Z</time></trkpt>
        <trkpt lat="29.190088" lon="104.639104"><ele>401.6185</ele><time>2026-01-31T21:00:37.000Z</time></trkpt>
        <trkpt lat="29.19005" lon="104.639059"><ele>400.6905</ele><time>2026-01-31T21:00:42.000Z</time></trkpt>
        <trkpt lat="29.190039" lon="104.639008"><ele>399.62457</ele><time>2026-01-31T21:00:46.000Z</time></trkpt>
        <trkpt lat="29.190022" lon="104.638956"><ele>401.3964</ele><time>2026-01-31T21:00:52.000Z</time></trkpt>
        <trkpt lat="29.190025" lon="104.638902"><ele>401.27435</ele><time>2026-01-31T21:01:17.000Z</time></trkpt>
        <trkpt lat="29.190012" lon="104.638846"><ele>401.93268</ele><time>2026-01-31T21:01:25.000Z</time></trkpt>
        <trkpt lat="29.189987" lon="104.638804"><ele>402.2742</ele><time>2026-01-31T21:01:30.000Z</time></trkpt>
        <trkpt lat="29.189963" lon="104.638752"><ele>402.03442</ele><time>2026-01-31T21:01:36.000Z</time></trkpt>
        <trkpt lat="29.189944" lon="104.638699"><ele>402.02527</ele><time>2026-01-31T21:01:41.000Z</time></trkpt>
        <trkpt lat="29.189928" lon="104.63865"><ele>402.01852</ele><time>2026-01-31T21:01:46.000Z</time></trkpt>
        <trkpt lat="29.189905" lon="104.638596"><ele>401.62204</ele><time>2026-01-31T21:01:52.000Z</time></trkpt>
        <trkpt lat="29.189885" lon="104.638546"><ele>402.0369</ele><time>2026-01-31T21:01:57.000Z</time></trkpt>
        <trkpt lat="29.189867" lon="104.638491"><ele>402.15768</ele><time>2026-01-31T21:02:02.000Z</time></trkpt>
        <trkpt lat="29.189835" lon="104.638437"><ele>401.45242</ele><time>2026-01-31T21:02:13.000Z</time></trkpt>
        <trkpt lat="29.189818" lon="104.638389"><ele>401.3191</ele><time>2026-01-31T21:02:18.000Z</time></trkpt>
        <trkpt lat="29.189794" lon="104.638339"><ele>402.27628</ele><time>2026-01-31T21:02:38.000Z</time></trkpt>
        <trkpt lat="29.18981" lon="104.638388"><ele>401.98987</ele><time>2026-01-31T21:02:57.000Z</time></trkpt>
        <trkpt lat="29.189762" lon="104.638394"><ele>403.1996</ele><time>2026-01-31T21:03:06.000Z</time></trkpt>
        <trkpt lat="29.189717" lon="104.638398"><ele>403.06238</ele><time>2026-01-31T21:03:18.000Z</time></trkpt>
        <trkpt lat="29.189743" lon="104.638441"><ele>403.51608</ele><time>2026-01-31T21:04:05.000Z</time></trkpt>
        <trkpt lat="29.189699" lon="104.638459"><ele>403.33044</ele><time>2026-01-31T21:04:38.000Z</time></trkpt>
        <trkpt lat="29.189661" lon="104.638492"><ele>405.0971</ele><time>2026-01-31T21:04:56.000Z</time></trkpt>
        <trkpt lat="29.189616" lon="104.638497"><ele>406.13034</ele><time>2026-01-31T21:05:29.000Z</time></trkpt>
        <trkpt lat="29.189561" lon="104.638507"><ele>405.35153</ele><time>2026-01-31T21:05:40.000Z</time></trkpt>
        <trkpt lat="29.189544" lon="104.638555"><ele>407.18015</ele><time>2026-01-31T21:05:48.000Z</time></trkpt>
        <trkpt lat="29.189496" lon="104.638583"><ele>409.51953</ele><time>2026-01-31T21:06:04.000Z</time></trkpt>
        <trkpt lat="29.189438" lon="104.638579"><ele>409.2192</ele><time>2026-01-31T21:06:21.000Z</time></trkpt>
        <trkpt lat="29.189394" lon="104.638559"><ele>408.23346</ele><time>2026-01-31T21:06:28.000Z</time></trkpt>
        <trkpt lat="29.18934" lon="104.638567"><ele>409.1925</ele><time>2026-01-31T21:06:32.000Z</time></trkpt>
        <trkpt lat="29.189284" lon="104.638558"><ele>409.42142</ele><time>2026-01-31T21:06:37.000Z</time></trkpt>
        <trkpt lat="29.189237" lon="104.638563"><ele>408.55823</ele><time>2026-01-31T21:06:59.000Z</time></trkpt>
        <trkpt lat="29.189206" lon="104.638602"><ele>409.1242</ele><time>2026-01-31T21:07:12.000Z</time></trkpt>
        <trkpt lat="29.18918" lon="104.638652"><ele>410.94296</ele><time>2026-01-31T21:07:17.000Z</time></trkpt>
        <trkpt lat="29.189165" lon="104.638707"><ele>415.34772</ele><time>2026-01-31T21:07:20.000Z</time></trkpt>
        <trkpt lat="29.18912" lon="104.638719"><ele>414.87842</ele><time>2026-01-31T21:07:23.000Z</time></trkpt>
        <trkpt lat="29.189098" lon="104.638766"><ele>415.13492</ele><time>2026-01-31T21:07:28.000Z</time></trkpt>
        <trkpt lat="29.18906" lon="104.638812"><ele>416.8898</ele><time>2026-01-31T21:07:35.000Z</time></trkpt>
        <trkpt lat="29.189039" lon="104.638857"><ele>417.98727</ele><time>2026-01-31T21:07:43.000Z</time></trkpt>
        <trkpt lat="29.189059" lon="104.63881"><ele>415.77966</ele><time>2026-01-31T21:07:49.000Z</time></trkpt>
        <trkpt lat="29.189097" lon="104.638764"><ele>414.12222</ele><time>2026-01-31T21:07:52.000Z</time></trkpt>
        <trkpt lat="29.189137" lon="104.638718"><ele>412.4703</ele><time>2026-01-31T21:07:55.000Z</time></trkpt>
        <trkpt lat="29.189173" lon="104.638673"><ele>410.61588</ele><time>2026-01-31T21:07:58.000Z</time></trkpt>
        <trkpt lat="29.18921" lon="104.638605"><ele>410.74335</ele><time>2026-01-31T21:08:00.000Z</time></trkpt>
        <trkpt lat="29.189233" lon="104.638559"><ele>409.96835</ele><time>2026-01-31T21:08:02.000Z</time></trkpt>
        <trkpt lat="29.189279" lon="104.638554"><ele>409.8068</ele><time>2026-01-31T21:08:04.000Z</time></trkpt>
        <trkpt lat="29.189334" lon="104.638561"><ele>409.74945</ele><time>2026-01-31T21:08:07.000Z</time></trkpt>
        <trkpt lat="29.189386" lon="104.638562"><ele>407.5409</ele><time>2026-01-31T21:08:11.000Z</time></trkpt>
        <trkpt lat="29.18944" lon="104.638584"><ele>408.60284</ele><time>2026-01-31T21:08:15.000Z</time></trkpt>
        <trkpt lat="29.189497" lon="104.638604"><ele>408.39368</ele><time>2026-01-31T21:08:19.000Z</time></trkpt>
        <trkpt lat="29.189553" lon="104.638634"><ele>407.98105</ele><time>2026-01-31T21:08:24.000Z</time></trkpt>
        <trkpt lat="29.1896" lon="104.638674"><ele>409.0746</ele><time>2026-01-31T21:08:27.000Z</time></trkpt>
        <trkpt lat="29.189642" lon="104.63872"><ele>408.756</ele><time>2026-01-31T21:08:31.000Z</time></trkpt>
        <trkpt lat="29.189691" lon="104.638748"><ele>407.45825</ele><time>2026-01-31T21:08:35.000Z</time></trkpt>
        <trkpt lat="29.189731" lon="104.638775"><ele>406.32635</ele><time>2026-01-31T21:08:38.000Z</time></trkpt>
        <trkpt lat="29.189788" lon="104.638795"><ele>405.85388</ele><time>2026-01-31T21:08:42.000Z</time></trkpt>
        <trkpt lat="29.189843" lon="104.638808"><ele>405.48453</ele><time>2026-01-31T21:08:46.000Z</time></trkpt>
        <trkpt lat="29.189887" lon="104.638784"><ele>402.9619</ele><time>2026-01-31T21:08:51.000Z</time></trkpt>
        <trkpt lat="29.189856" lon="104.638746"><ele>402.09976</ele><time>2026-01-31T21:08:54.000Z</time></trkpt>
        <trkpt lat="29.189871" lon="104.638696"><ele>400.98834</ele><time>2026-01-31T21:09:02.000Z</time></trkpt>
        <trkpt lat="29.189916" lon="104.638709"><ele>402.6187</ele><time>2026-01-31T21:09:39.000Z</time></trkpt>
        <trkpt lat="29.189955" lon="104.638742"><ele>401.29083</ele><time>2026-01-31T21:09:51.000Z</time></trkpt>
        <trkpt lat="29.19" lon="104.638768"><ele>400.28555</ele><time>2026-01-31T21:09:55.000Z</time></trkpt>
        <trkpt lat="29.189954" lon="104.63874"><ele>402.5375</ele><time>2026-01-31T21:11:20.000Z</time></trkpt>
        <trkpt lat="29.189909" lon="104.63871"><ele>403.5824</ele><time>2026-01-31T21:11:26.000Z</time></trkpt>
        <trkpt lat="29.189863" lon="104.638732"><ele>404.31464</ele><time>2026-01-31T21:11:55.000Z</time></trkpt>
        <trkpt lat="29.189862" lon="104.638785"><ele>405.2438</ele><time>2026-01-31T21:12:03.000Z</time></trkpt>
        <trkpt lat="29.189832" lon="104.638824"><ele>405.71503</ele><time>2026-01-31T21:12:16.000Z</time></trkpt>
        <trkpt lat="29.189785" lon="104.638814"><ele>406.16293</ele><time>2026-01-31T21:13:49.000Z</time></trkpt>
        <trkpt lat="29.18974" lon="104.6388"><ele>406.27164</ele><time>2026-01-31T21:14:09.000Z</time></trkpt>
        <trkpt lat="29.189689" lon="104.638769"><ele>406.22534</ele><time>2026-01-31T21:14:15.000Z</time></trkpt>
        <trkpt lat="29.189644" lon="104.638747"><ele>407.37836</ele><time>2026-01-31T21:14:20.000Z</time></trkpt>
        <trkpt lat="29.189607" lon="104.638706"><ele>407.0056</ele><time>2026-01-31T21:14:28.000Z</time></trkpt>
        <trkpt lat="29.189568" lon="104.638678"><ele>406.90186</ele><time>2026-01-31T21:14:34.000Z</time></trkpt>
        <trkpt lat="29.189533" lon="104.638634"><ele>406.52338</ele><time>2026-01-31T21:14:40.000Z</time></trkpt>
        <trkpt lat="29.189481" lon="104.638613"><ele>407.81073</ele><time>2026-01-31T21:14:46.000Z</time></trkpt>
        <trkpt lat="29.189429" lon="104.638589"><ele>407.98465</ele><time>2026-01-31T21:14:52.000Z</time></trkpt>
        <trkpt lat="29.189384" lon="104.638566"><ele>407.4034</ele><time>2026-01-31T21:15:02.000Z</time></trkpt>
        <trkpt lat="29.189332" lon="104.638578"><ele>408.9184</ele><time>2026-01-31T21:15:07.000Z</time></trkpt>
        <trkpt lat="29.18928" lon="104.63857"><ele>408.92465</ele><time>2026-01-31T21:15:12.000Z</time></trkpt>
        <trkpt lat="29.189238" lon="104.638588"><ele>409.4414</ele><time>2026-01-31T21:15:17.000Z</time></trkpt>
        <trkpt lat="29.189205" lon="104.638626"><ele>410.44434</ele><time>2026-01-31T21:15:46.000Z</time></trkpt>
        <trkpt lat="29.189176" lon="104.638682"><ele>412.18945</ele><time>2026-01-31T21:15:54.000Z</time></trkpt>
        <trkpt lat="29.189142" lon="104.638722"><ele>417.43097</ele><time>2026-01-31T21:15:57.000Z</time></trkpt>
        <trkpt lat="29.189103" lon="104.638763"><ele>416.10022</ele><time>2026-01-31T21:15:59.000Z</time></trkpt>
        <trkpt lat="29.18907" lon="104.638821"><ele>418.8351</ele><time>2026-01-31T21:16:02.000Z</time></trkpt>
        <trkpt lat="29.189041" lon="104.638868"><ele>418.2598</ele><time>2026-01-31T21:16:07.000Z</time></trkpt>
        <trkpt lat="29.189051" lon="104.638926"><ele>420.6578</ele><time>2026-01-31T21:16:32.000Z</time></trkpt>
        <trkpt lat="29.189011" lon="104.638961"><ele>420.78946</ele><time>2026-01-31T21:16:53.000Z</time></trkpt>
        <trkpt lat="29.188986" lon="104.639006"><ele>421.216</ele><time>2026-01-31T21:18:01.000Z</time></trkpt>
        <trkpt lat="29.18895" lon="104.639044"><ele>421.31244</ele><time>2026-01-31T21:18:07.000Z</time></trkpt>
        <trkpt lat="29.188917" lon="104.639084"><ele>422.71387</ele><time>2026-01-31T21:18:12.000Z</time></trkpt>
        <trkpt lat="29.188886" lon="104.639126"><ele>423.6239</ele><time>2026-01-31T21:18:23.000Z</time></trkpt>
        <trkpt lat="29.188849" lon="104.639171"><ele>424.2604</ele><time>2026-01-31T21:18:32.000Z</time></trkpt>
        <trkpt lat="29.188824" lon="104.639217"><ele>426.2886</ele><time>2026-01-31T21:18:38.000Z</time></trkpt>
        <trkpt lat="29.188782" lon="104.639193"><ele>423.7561</ele><time>2026-01-31T21:19:11.000Z</time></trkpt>
        <trkpt lat="29.188758" lon="104.639242"><ele>424.16275</ele><time>2026-01-31T21:19:16.000Z</time></trkpt>
        <trkpt lat="29.188726" lon="104.639294"><ele>425.3244</ele><time>2026-01-31T21:19:24.000Z</time></trkpt>
        <trkpt lat="29.188703" lon="104.639341"><ele>426.3016</ele><time>2026-01-31T21:19:30.000Z</time></trkpt>
        <trkpt lat="29.188664" lon="104.639379"><ele>426.86493</ele><time>2026-01-31T21:19:36.000Z</time></trkpt>
        <trkpt lat="29.188629" lon="104.639428"><ele>427.84915</ele><time>2026-01-31T21:19:43.000Z</time></trkpt>
        <trkpt lat="29.188589" lon="104.639454"><ele>427.6164</ele><time>2026-01-31T21:20:01.000Z</time></trkpt>
        <trkpt lat="29.188563" lon="104.639497"><ele>428.16855</ele><time>2026-01-31T21:20:29.000Z</time></trkpt>
        <trkpt lat="29.188533" lon="104.639539"><ele>428.50345</ele><time>2026-01-31T21:20:34.000Z</time></trkpt>
        <trkpt lat="29.188497" lon="104.639581"><ele>429.20575</ele><time>2026-01-31T21:20:39.000Z</time></trkpt>
        <trkpt lat="29.188465" lon="104.639625"><ele>430.72067</ele><time>2026-01-31T21:20:50.000Z</time></trkpt>
        <trkpt lat="29.18843" lon="104.639663"><ele>431.64822</ele><time>2026-01-31T21:21:11.000Z</time></trkpt>
        <trkpt lat="29.188399" lon="104.639709"><ele>432.5957</ele><time>2026-01-31T21:21:16.000Z</time></trkpt>
        <trkpt lat="29.188365" lon="104.639747"><ele>433.2746</ele><time>2026-01-31T21:21:33.000Z</time></trkpt>
        <trkpt lat="29.188331" lon="104.639796"><ele>434.6386</ele><time>2026-01-31T21:21:38.000Z</time></trkpt>
      </trkseg>
      <trkseg>
        <trkpt lat="29.188581" lon="104.640476"><ele>433.42334</ele><time>2026-01-31T21:52:04.000Z</time></trkpt>
        <trkpt lat="29.188598" lon="104.640526"><ele>437.3981</ele><time>2026-01-31T21:52:52.000Z</time></trkpt>
        <trkpt lat="29.188644" lon="104.640522"><ele>436.92538</ele><time>2026-01-31T21:52:56.000Z</time></trkpt>
        <trkpt lat="29.18869" lon="104.640526"><ele>436.28427</ele><time>2026-01-31T21:53:01.000Z</time></trkpt>
        <trkpt lat="29.188746" lon="104.640518"><ele>435.54364</ele><time>2026-01-31T21:53:07.000Z</time></trkpt>
        <trkpt lat="29.188793" lon="104.640517"><ele>435.12723</ele><time>2026-01-31T21:53:11.000Z</time></trkpt>
        <trkpt lat="29.188846" lon="104.64053"><ele>434.99664</ele><time>2026-01-31T21:53:17.000Z</time></trkpt>
        <trkpt lat="29.188891" lon="104.640541"><ele>435.30548</ele><time>2026-01-31T21:53:23.000Z</time></trkpt>
        <trkpt lat="29.18893" lon="104.640515"><ele>434.46158</ele><time>2026-01-31T21:53:31.000Z</time></trkpt>
        <trkpt lat="29.188952" lon="104.640469"><ele>432.77258</ele><time>2026-01-31T21:53:35.000Z</time></trkpt>
        <trkpt lat="29.189009" lon="104.640451"><ele>432.91483</ele><time>2026-01-31T21:53:42.000Z</time></trkpt>
        <trkpt lat="29.189063" lon="104.640452"><ele>431.52612</ele><time>2026-01-31T21:53:48.000Z</time></trkpt>
        <trkpt lat="29.189115" lon="104.640451"><ele>431.3287</ele><time>2026-01-31T21:53:53.000Z</time></trkpt>
        <trkpt lat="29.189163" lon="104.640453"><ele>429.90097</ele><time>2026-01-31T21:54:00.000Z</time></trkpt>
        <trkpt lat="29.189203" lon="104.640417"><ele>429.26962</ele><time>2026-01-31T21:54:04.000Z</time></trkpt>
        <trkpt lat="29.189257" lon="104.640421"><ele>429.1063</ele><time>2026-01-31T21:54:11.000Z</time></trkpt>
        <trkpt lat="29.189299" lon="104.640444"><ele>429.67993</ele><time>2026-01-31T21:54:32.000Z</time></trkpt>
        <trkpt lat="29.189352" lon="104.640463"><ele>429.4188</ele><time>2026-01-31T21:54:37.000Z</time></trkpt>
        <trkpt lat="29.189396" lon="104.640492"><ele>429.00943</ele><time>2026-01-31T21:54:46.000Z</time></trkpt>
        <trkpt lat="29.189407" lon="104.640546"><ele>429.77243</ele><time>2026-01-31T21:54:56.000Z</time></trkpt>
        <trkpt lat="29.189456" lon="104.640574"><ele>428.52045</ele><time>2026-01-31T21:55:06.000Z</time></trkpt>
        <trkpt lat="29.189502" lon="104.640575"><ele>427.69983</ele><time>2026-01-31T21:55:31.000Z</time></trkpt>
        <trkpt lat="29.189556" lon="104.640572"><ele>427.76022</ele><time>2026-01-31T21:55:36.000Z</time></trkpt>
        <trkpt lat="29.189606" lon="104.640565"><ele>427.5929</ele><time>2026-01-31T21:55:40.000Z</time></trkpt>
        <trkpt lat="29.189655" lon="104.640576"><ele>427.4082</ele><time>2026-01-31T21:55:44.000Z</time></trkpt>
        <trkpt lat="29.189693" lon="104.640618"><ele>426.81183</ele><time>2026-01-31T21:55:49.000Z</time></trkpt>
        <trkpt lat="29.189661" lon="104.640658"><ele>426.16177</ele><time>2026-01-31T21:56:02.000Z</time></trkpt>
        <trkpt lat="29.189612" lon="104.64068"><ele>425.63184</ele><time>2026-01-31T21:56:19.000Z</time></trkpt>
        <trkpt lat="29.189566" lon="104.640693"><ele>425.16232</ele><time>2026-01-31T21:56:32.000Z</time></trkpt>
        <trkpt lat="29.189511" lon="104.640692"><ele>425.94055</ele><time>2026-01-31T21:56:37.000Z</time></trkpt>
        <trkpt lat="29.189459" lon="104.640704"><ele>427.42117</ele><time>2026-01-31T21:56:42.000Z</time></trkpt>
        <trkpt lat="29.189418" lon="104.640727"><ele>427.844</ele><time>2026-01-31T21:56:46.000Z</time></trkpt>
        <trkpt lat="29.189409" lon="104.640786"><ele>429.55334</ele><time>2026-01-31T21:57:42.000Z</time></trkpt>
        <trkpt lat="29.189387" lon="104.640842"><ele>430.90622</ele><time>2026-01-31T21:57:47.000Z</time></trkpt>
        <trkpt lat="29.189364" lon="104.6409"><ele>431.04297</ele><time>2026-01-31T21:57:52.000Z</time></trkpt>
        <trkpt lat="29.189332" lon="104.640941"><ele>431.83337</ele><time>2026-01-31T21:57:56.000Z</time></trkpt>
        <trkpt lat="29.1893" lon="104.640985"><ele>432.16702</ele><time>2026-01-31T21:58:00.000Z</time></trkpt>
        <trkpt lat="29.189263" lon="104.641017"><ele>432.2058</ele><time>2026-01-31T21:58:49.000Z</time></trkpt>
        <trkpt lat="29.189243" lon="104.641066"><ele>432.91406</ele><time>2026-01-31T21:58:54.000Z</time></trkpt>
        <trkpt lat="29.189217" lon="104.641115"><ele>433.21182</ele><time>2026-01-31T21:58:59.000Z</time></trkpt>
        <trkpt lat="29.189183" lon="104.641158"><ele>434.08954</ele><time>2026-01-31T21:59:04.000Z</time></trkpt>
        <trkpt lat="29.189145" lon="104.641186"><ele>435.23862</ele><time>2026-01-31T21:59:08.000Z</time></trkpt>
        <trkpt lat="29.189109" lon="104.641221"><ele>435.60648</ele><time>2026-01-31T21:59:20.000Z</time></trkpt>
        <trkpt lat="29.18907" lon="104.641257"><ele>437.35147</ele><time>2026-01-31T21:59:26.000Z</time></trkpt>
        <trkpt lat="29.189031" lon="104.641286"><ele>437.6914</ele><time>2026-01-31T21:59:31.000Z</time></trkpt>
        <trkpt lat="29.188987" lon="104.64131"><ele>438.61432</ele><time>2026-01-31T21:59:36.000Z</time></trkpt>
        <trkpt lat="29.188932" lon="104.641327"><ele>439.79016</ele><time>2026-01-31T21:59:43.000Z</time></trkpt>
        <trkpt lat="29.188886" lon="104.641332"><ele>440.66855</ele><time>2026-01-31T21:59:49.000Z</time></trkpt>
        <trkpt lat="29.188832" lon="104.641338"><ele>441.80408</ele><time>2026-01-31T21:59:54.000Z</time></trkpt>
        <trkpt lat="29.188782" lon="104.641337"><ele>441.62134</ele><time>2026-01-31T21:59:59.000Z</time></trkpt>
        <trkpt lat="29.188729" lon="104.641343"><ele>441.82092</ele><time>2026-01-31T22:00:03.000Z</time></trkpt>
        <trkpt lat="29.188678" lon="104.641322"><ele>441.88303</ele><time>2026-01-31T22:00:08.000Z</time></trkpt>
        <trkpt lat="29.188642" lon="104.64129"><ele>442.227</ele><time>2026-01-31T22:00:12.000Z</time></trkpt>
        <trkpt lat="29.188598" lon="104.641254"><ele>443.22168</ele><time>2026-01-31T22:00:17.000Z</time></trkpt>
        <trkpt lat="29.188567" lon="104.641214"><ele>443.4341</ele><time>2026-01-31T22:00:25.000Z</time></trkpt>
        <trkpt lat="29.188539" lon="104.641159"><ele>443.74527</ele><time>2026-01-31T22:00:30.000Z</time></trkpt>
        <trkpt lat="29.188501" lon="104.641124"><ele>444.19867</ele><time>2026-01-31T22:00:45.000Z</time></trkpt>
        <trkpt lat="29.188464" lon="104.641093"><ele>444.78976</ele><time>2026-01-31T22:00:51.000Z</time></trkpt>
        <trkpt lat="29.188423" lon="104.641055"><ele>444.34714</ele><time>2026-01-31T22:00:56.000Z</time></trkpt>
        <trkpt lat="29.188385" lon="104.641018"><ele>443.79156</ele><time>2026-01-31T22:01:01.000Z</time></trkpt>
        <trkpt lat="29.188352" lon="104.640976"><ele>443.3526</ele><time>2026-01-31T22:01:08.000Z</time></trkpt>
        <trkpt lat="29.188328" lon="104.640929"><ele>442.97046</ele><time>2026-01-31T22:01:14.000Z</time></trkpt>
        <trkpt lat="29.188301" lon="104.640877"><ele>442.71304</ele><time>2026-01-31T22:01:19.000Z</time></trkpt>
        <trkpt lat="29.188278" lon="104.640829"><ele>441.4434</ele><time>2026-01-31T22:01:24.000Z</time></trkpt>
        <trkpt lat="29.188257" lon="104.640769"><ele>440.06033</ele><time>2026-01-31T22:01:28.000Z</time></trkpt>
        <trkpt lat="29.188245" lon="104.640713"><ele>440.1796</ele><time>2026-01-31T22:01:32.000Z</time></trkpt>
        <trkpt lat="29.188232" lon="104.640662"><ele>440.05533</ele><time>2026-01-31T22:01:36.000Z</time></trkpt>
        <trkpt lat="29.188209" lon="104.640616"><ele>439.90076</ele><time>2026-01-31T22:01:41.000Z</time></trkpt>
        <trkpt lat="29.188184" lon="104.640563"><ele>438.72906</ele><time>2026-01-31T22:01:46.000Z</time></trkpt>
        <trkpt lat="29.188161" lon="104.640513"><ele>437.76456</ele><time>2026-01-31T22:01:51.000Z</time></trkpt>
        <trkpt lat="29.188136" lon="104.640459"><ele>437.37167</ele><time>2026-01-31T22:02:05.000Z</time></trkpt>
        <trkpt lat="29.188108" lon="104.640416"><ele>437.19196</ele><time>2026-01-31T22:02:12.000Z</time></trkpt>
        <trkpt lat="29.188077" lon="104.640379"><ele>437.20374</ele><time>2026-01-31T22:02:17.000Z</time></trkpt>
        <trkpt lat="29.188039" lon="104.640335"><ele>436.8025</ele><time>2026-01-31T22:02:22.000Z</time></trkpt>
        <trkpt lat="29.188018" lon="104.640285"><ele>436.5247</ele><time>2026-01-31T22:02:26.000Z</time></trkpt>
        <trkpt lat="29.187995" lon="104.640232"><ele>436.9426</ele><time>2026-01-31T22:02:31.000Z</time></trkpt>
        <trkpt lat="29.187957" lon="104.640197"><ele>436.22464</ele><time>2026-01-31T22:02:58.000Z</time></trkpt>
        <trkpt lat="29.18794" lon="104.640146"><ele>436.0832</ele><time>2026-01-31T22:03:07.000Z</time></trkpt>
        <trkpt lat="29.187907" lon="104.640109"><ele>435.37247</ele><time>2026-01-31T22:03:11.000Z</time></trkpt>
        <trkpt lat="29.187876" lon="104.640061"><ele>435.2173</ele><time>2026-01-31T22:03:17.000Z</time></trkpt>
        <trkpt lat="29.187844" lon="104.640018"><ele>434.58362</ele><time>2026-01-31T22:03:22.000Z</time></trkpt>
        <trkpt lat="29.187814" lon="104.63997"><ele>434.00964</ele><time>2026-01-31T22:03:27.000Z</time></trkpt>
        <trkpt lat="29.187779" lon="104.639926"><ele>433.56256</ele><time>2026-01-31T22:03:31.000Z</time></trkpt>
        <trkpt lat="29.187736" lon="104.639902"><ele>433.93332</ele><time>2026-01-31T22:03:35.000Z</time></trkpt>
        <trkpt lat="29.18769" lon="104.639886"><ele>432.82904</ele><time>2026-01-31T22:03:40.000Z</time></trkpt>
        <trkpt lat="29.187649" lon="104.639907"><ele>433.44684</ele><time>2026-01-31T22:03:45.000Z</time></trkpt>
        <trkpt lat="29.187616" lon="104.639945"><ele>433.21036</ele><time>2026-01-31T22:03:51.000Z</time></trkpt>
        <trkpt lat="29.187568" lon="104.639976"><ele>432.2401</ele><time>2026-01-31T22:03:57.000Z</time></trkpt>
        <trkpt lat="29.187509" lon="104.639979"><ele>431.03467</ele><time>2026-01-31T22:04:02.000Z</time></trkpt>
        <trkpt lat="29.187464" lon="104.639966"><ele>432.23163</ele><time>2026-01-31T22:04:06.000Z</time></trkpt>
        <trkpt lat="29.187418" lon="104.639943"><ele>432.1464</ele><time>2026-01-31T22:04:28.000Z</time></trkpt>
        <trkpt lat="29.187376" lon="104.639917"><ele>432.61215</ele><time>2026-01-31T22:04:32.000Z</time></trkpt>
        <trkpt lat="29.187327" lon="104.639886"><ele>432.77927</ele><time>2026-01-31T22:04:37.000Z</time></trkpt>
        <trkpt lat="29.187279" lon="104.639853"><ele>433.02637</ele><time>2026-01-31T22:04:41.000Z</time></trkpt>
        <trkpt lat="29.187241" lon="104.639821"><ele>432.98203</ele><time>2026-01-31T22:04:50.000Z</time></trkpt>
        <trkpt lat="29.187193" lon="104.639793"><ele>433.59106</ele><time>2026-01-31T22:04:55.000Z</time></trkpt>
        <trkpt lat="29.187153" lon="104.639763"><ele>433.448</ele><time>2026-01-31T22:04:59.000Z</time></trkpt>
        <trkpt lat="29.187108" lon="104.639726"><ele>434.2937</ele><time>2026-01-31T22:05:08.000Z</time></trkpt>
        <trkpt lat="29.187064" lon="104.639699"><ele>434.01108</ele><time>2026-01-31T22:05:12.000Z</time></trkpt>
        <trkpt lat="29.187018" lon="104.639671"><ele>434.00665</ele><time>2026-01-31T22:05:16.000Z</time></trkpt>
        <trkpt lat="29.186977" lon="104.639638"><ele>433.91168</ele><time>2026-01-31T22:05:20.000Z</time></trkpt>
        <trkpt lat="29.186937" lon="104.639605"><ele>434.23364</ele><time>2026-01-31T22:05:24.000Z</time></trkpt>
        <trkpt lat="29.186907" lon="104.639565"><ele>434.26996</ele><time>2026-01-31T22:05:37.000Z</time></trkpt>
        <trkpt lat="29.186866" lon="104.639529"><ele>434.4056</ele><time>2026-01-31T22:05:42.000Z</time></trkpt>
        <trkpt lat="29.186818" lon="104.639504"><ele>435.05295</ele><time>2026-01-31T22:05:56.000Z</time></trkpt>
        <trkpt lat="29.186771" lon="104.639475"><ele>434.5644</ele><time>2026-01-31T22:06:00.000Z</time></trkpt>
        <trkpt lat="29.186728" lon="104.639453"><ele>434.42712</ele><time>2026-01-31T22:06:04.000Z</time></trkpt>
        <trkpt lat="29.186685" lon="104.639429"><ele>434.6352</ele><time>2026-01-31T22:06:08.000Z</time></trkpt>
        <trkpt lat="29.186645" lon="104.639399"><ele>435.0205</ele><time>2026-01-31T22:06:12.000Z</time></trkpt>
        <trkpt lat="29.186601" lon="104.639361"><ele>436.11865</ele><time>2026-01-31T22:06:16.000Z</time></trkpt>
        <trkpt lat="29.186562" lon="104.639314"><ele>435.06763</ele><time>2026-01-31T22:06:20.000Z</time></trkpt>
        <trkpt lat="29.18651" lon="104.639301"><ele>434.64563</ele><time>2026-01-31T22:06:24.000Z</time></trkpt>
        <trkpt lat="29.186458" lon="104.63928"><ele>434.22748</ele><time>2026-01-31T22:06:28.000Z</time></trkpt>
        <trkpt lat="29.186399" lon="104.639279"><ele>432.11325</ele><time>2026-01-31T22:06:35.000Z</time></trkpt>
        <trkpt lat="29.186351" lon="104.639304"><ele>432.80322</ele><time>2026-01-31T22:06:38.000Z</time></trkpt>
        <trkpt lat="29.186309" lon="104.639325"><ele>433.66907</ele><time>2026-01-31T22:06:42.000Z</time></trkpt>
        <trkpt lat="29.186268" lon="104.639347"><ele>433.65744</ele><time>2026-01-31T22:06:46.000Z</time></trkpt>
        <trkpt lat="29.18622" lon="104.639367"><ele>433.09625</ele><time>2026-01-31T22:06:52.000Z</time></trkpt>
        <trkpt lat="29.186177" lon="104.639395"><ele>433.22507</ele><time>2026-01-31T22:06:58.000Z</time></trkpt>
        <trkpt lat="29.186136" lon="104.639438"><ele>434.35928</ele><time>2026-01-31T22:07:03.000Z</time></trkpt>
        <trkpt lat="29.186103" lon="104.639478"><ele>434.92764</ele><time>2026-01-31T22:07:07.000Z</time></trkpt>
        <trkpt lat="29.186068" lon="104.639515"><ele>434.5866</ele><time>2026-01-31T22:07:11.000Z</time></trkpt>
        <trkpt lat="29.186038" lon="104.639562"><ele>435.16177</ele><time>2026-01-31T22:07:15.000Z</time></trkpt>
        <trkpt lat="29.186001" lon="104.639608"><ele>435.44186</ele><time>2026-01-31T22:07:19.000Z</time></trkpt>
        <trkpt lat="29.185969" lon="104.639649"><ele>435.93448</ele><time>2026-01-31T22:07:23.000Z</time></trkpt>
        <trkpt lat="29.185946" lon="104.639695"><ele>437.58212</ele><time>2026-01-31T22:07:27.000Z</time></trkpt>
        <trkpt lat="29.185937" lon="104.63976"><ele>438.31912</ele><time>2026-01-31T22:07:32.000Z</time></trkpt>
        <trkpt lat="29.185923" lon="104.63981"><ele>439.59134</ele><time>2026-01-31T22:07:36.000Z</time></trkpt>
        <trkpt lat="29.18592" lon="104.639875"><ele>440.46274</ele><time>2026-01-31T22:07:41.000Z</time></trkpt>
      </trkseg>
      <trkseg>
        <trkpt lat="29.185761" lon="104.640892"><ele>450.58136</ele><time>2026-01-31T22:14:54.000Z</time></trkpt>
        <trkpt lat="29.18577" lon="104.64095"><ele>450.62537</ele><time>2026-01-31T22:14:59.000Z</time></trkpt>
        <trkpt lat="29.185781" lon="104.641014"><ele>450.7487</ele><time>2026-01-31T22:15:04.000Z</time></trkpt>
        <trkpt lat="29.185786" lon="104.641074"><ele>451.04706</ele><time>2026-01-31T22:15:09.000Z</time></trkpt>
        <trkpt lat="29.185793" lon="104.641131"><ele>451.39008</ele><time>2026-01-31T22:15:13.000Z</time></trkpt>
        <trkpt lat="29.185799" lon="104.641191"><ele>451.69638</ele><time>2026-01-31T22:15:18.000Z</time></trkpt>
        <trkpt lat="29.18581" lon="104.641249"><ele>452.4427</ele><time>2026-01-31T22:15:23.000Z</time></trkpt>
        <trkpt lat="29.185807" lon="104.641312"><ele>452.89236</ele><time>2026-01-31T22:15:28.000Z</time></trkpt>
        <trkpt lat="29.185801" lon="104.641376"><ele>453.53394</ele><time>2026-01-31T22:15:33.000Z</time></trkpt>
        <trkpt lat="29.185797" lon="104.641431"><ele>454.0416</ele><time>2026-01-31T22:15:37.000Z</time></trkpt>
        <trkpt lat="29.18579" lon="104.641485"><ele>454.96625</ele><time>2026-01-31T22:15:41.000Z</time></trkpt>
        <trkpt lat="29.18577" lon="104.641544"><ele>455.33536</ele><time>2026-01-31T22:15:47.000Z</time></trkpt>
        <trkpt lat="29.185743" lon="104.641585"><ele>455.68805</ele><time>2026-01-31T22:15:51.000Z</time></trkpt>
        <trkpt lat="29.185716" lon="104.641627"><ele>455.86743</ele><time>2026-01-31T22:15:57.000Z</time></trkpt>
        <trkpt lat="29.185677" lon="104.641666"><ele>455.28616</ele><time>2026-01-31T22:16:03.000Z</time></trkpt>
        <trkpt lat="29.185636" lon="104.641705"><ele>455.32556</ele><time>2026-01-31T22:16:21.000Z</time></trkpt>
        <trkpt lat="29.185594" lon="104.64173"><ele>455.23633</ele><time>2026-01-31T22:16:26.000Z</time></trkpt>
        <trkpt lat="29.185551" lon="104.641755"><ele>455.4341</ele><time>2026-01-31T22:16:31.000Z</time></trkpt>
        <trkpt lat="29.185508" lon="104.641784"><ele>456.10666</ele><time>2026-01-31T22:16:37.000Z</time></trkpt>
        <trkpt lat="29.18547" lon="104.64182"><ele>456.80243</ele><time>2026-01-31T22:16:44.000Z</time></trkpt>
        <trkpt lat="29.185429" lon="104.641854"><ele>457.4478</ele><time>2026-01-31T22:16:49.000Z</time></trkpt>
        <trkpt lat="29.185389" lon="104.641883"><ele>457.1947</ele><time>2026-01-31T22:16:55.000Z</time></trkpt>
        <trkpt lat="29.185346" lon="104.64192"><ele>458.39017</ele><time>2026-01-31T22:17:05.000Z</time></trkpt>
        <trkpt lat="29.1853" lon="104.641946"><ele>459.57138</ele><time>2026-01-31T22:17:10.000Z</time></trkpt>
        <trkpt lat="29.185252" lon="104.641972"><ele>459.29657</ele><time>2026-01-31T22:17:15.000Z</time></trkpt>
        <trkpt lat="29.185207" lon="104.642"><ele>459.72742</ele><time>2026-01-31T22:17:20.000Z</time></trkpt>
        <trkpt lat="29.185161" lon="104.642027"><ele>459.63763</ele><time>2026-01-31T22:17:29.000Z</time></trkpt>
        <trkpt lat="29.185118" lon="104.642057"><ele>458.69028</ele><time>2026-01-31T22:17:33.000Z</time></trkpt>
        <trkpt lat="29.185073" lon="104.642081"><ele>459.21048</ele><time>2026-01-31T22:17:37.000Z</time></trkpt>
        <trkpt lat="29.185027" lon="104.642113"><ele>460.78394</ele><time>2026-01-31T22:17:42.000Z</time></trkpt>
        <trkpt lat="29.184985" lon="104.642142"><ele>462.02686</ele><time>2026-01-31T22:17:47.000Z</time></trkpt>
        <trkpt lat="29.184945" lon="104.642166"><ele>462.5294</ele><time>2026-01-31T22:17:51.000Z</time></trkpt>
        <trkpt lat="29.184903" lon="104.642192"><ele>463.0447</ele><time>2026-01-31T22:17:56.000Z</time></trkpt>
        <trkpt lat="29.184857" lon="104.642224"><ele>463.41998</ele><time>2026-01-31T22:18:01.000Z</time></trkpt>
        <trkpt lat="29.184815" lon="104.642246"><ele>463.64313</ele><time>2026-01-31T22:18:05.000Z</time></trkpt>
        <trkpt lat="29.184768" lon="104.642271"><ele>463.8282</ele><time>2026-01-31T22:18:10.000Z</time></trkpt>
        <trkpt lat="29.184714" lon="104.64228"><ele>463.44318</ele><time>2026-01-31T22:18:55.000Z</time></trkpt>
        <trkpt lat="29.184671" lon="104.642304"><ele>463.05182</ele><time>2026-01-31T22:18:59.000Z</time></trkpt>
        <trkpt lat="29.184619" lon="104.642325"><ele>462.90787</ele><time>2026-01-31T22:19:03.000Z</time></trkpt>
        <trkpt lat="29.18457" lon="104.642341"><ele>462.32553</ele><time>2026-01-31T22:19:08.000Z</time></trkpt>
        <trkpt lat="29.184519" lon="104.642344"><ele>461.17322</ele><time>2026-01-31T22:19:31.000Z</time></trkpt>
        <trkpt lat="29.184462" lon="104.642346"><ele>460.63998</ele><time>2026-01-31T22:19:36.000Z</time></trkpt>
        <trkpt lat="29.184412" lon="104.64233"><ele>460.6771</ele><time>2026-01-31T22:19:41.000Z</time></trkpt>
        <trkpt lat="29.184364" lon="104.642321"><ele>460.22742</ele><time>2026-01-31T22:19:46.000Z</time></trkpt>
        <trkpt lat="29.184316" lon="104.642306"><ele>459.86816</ele><time>2026-01-31T22:19:51.000Z</time></trkpt>
        <trkpt lat="29.184265" lon="104.642291"><ele>459.81485</ele><time>2026-01-31T22:19:56.000Z</time></trkpt>
        <trkpt lat="29.184223" lon="104.642264"><ele>459.48254</ele><time>2026-01-31T22:20:00.000Z</time></trkpt>
        <trkpt lat="29.184179" lon="104.642222"><ele>459.61948</ele><time>2026-01-31T22:20:05.000Z</time></trkpt>
        <trkpt lat="29.18414" lon="104.642191"><ele>459.54684</ele><time>2026-01-31T22:20:09.000Z</time></trkpt>
        <trkpt lat="29.184098" lon="104.642153"><ele>458.63422</ele><time>2026-01-31T22:20:13.000Z</time></trkpt>
        <trkpt lat="29.184047" lon="104.642123"><ele>458.40088</ele><time>2026-01-31T22:20:18.000Z</time></trkpt>
        <trkpt lat="29.184007" lon="104.642091"><ele>457.9993</ele><time>2026-01-31T22:20:22.000Z</time></trkpt>
        <trkpt lat="29.183967" lon="104.642064"><ele>458.16818</ele><time>2026-01-31T22:20:26.000Z</time></trkpt>
        <trkpt lat="29.183925" lon="104.642039"><ele>458.05634</ele><time>2026-01-31T22:20:30.000Z</time></trkpt>
        <trkpt lat="29.183879" lon="104.642022"><ele>457.46863</ele><time>2026-01-31T22:20:35.000Z</time></trkpt>
        <trkpt lat="29.183836" lon="104.641998"><ele>457.29684</ele><time>2026-01-31T22:20:39.000Z</time></trkpt>
        <trkpt lat="29.183793" lon="104.641979"><ele>457.4363</ele><time>2026-01-31T22:21:00.000Z</time></trkpt>
        <trkpt lat="29.183741" lon="104.641977"><ele>458.10663</ele><time>2026-01-31T22:21:09.000Z</time></trkpt>
        <trkpt lat="29.18373" lon="104.64192"><ele>458.59705</ele><time>2026-01-31T22:22:24.000Z</time></trkpt>
        <trkpt lat="29.183686" lon="104.641895"><ele>459.29257</ele><time>2026-01-31T22:22:29.000Z</time></trkpt>
        <trkpt lat="29.183652" lon="104.641855"><ele>458.9186</ele><time>2026-01-31T22:22:33.000Z</time></trkpt>
        <trkpt lat="29.183609" lon="104.641826"><ele>459.06</ele><time>2026-01-31T22:22:39.000Z</time></trkpt>
        <trkpt lat="29.183563" lon="104.641809"><ele>458.85846</ele><time>2026-01-31T22:22:43.000Z</time></trkpt>
        <trkpt lat="29.183509" lon="104.641813"><ele>458.5036</ele><time>2026-01-31T22:22:48.000Z</time></trkpt>
        <trkpt lat="29.18346" lon="104.641822"><ele>459.08044</ele><time>2026-01-31T22:22:52.000Z</time></trkpt>
        <trkpt lat="29.183406" lon="104.641835"><ele>457.8784</ele><time>2026-01-31T22:23:08.000Z</time></trkpt>
        <trkpt lat="29.183355" lon="104.641862"><ele>458.6218</ele><time>2026-01-31T22:23:17.000Z</time></trkpt>
        <trkpt lat="29.183314" lon="104.641884"><ele>458.21127</ele><time>2026-01-31T22:23:30.000Z</time></trkpt>
        <trkpt lat="29.183268" lon="104.641906"><ele>458.40475</ele><time>2026-01-31T22:23:34.000Z</time></trkpt>
        <trkpt lat="29.183213" lon="104.641926"><ele>459.0971</ele><time>2026-01-31T22:23:39.000Z</time></trkpt>
        <trkpt lat="29.183159" lon="104.641947"><ele>460.00604</ele><time>2026-01-31T22:23:44.000Z</time></trkpt>
        <trkpt lat="29.183102" lon="104.641966"><ele>459.58334</ele><time>2026-01-31T22:23:49.000Z</time></trkpt>
        <trkpt lat="29.183054" lon="104.641974"><ele>460.49545</ele><time>2026-01-31T22:23:54.000Z</time></trkpt>
        <trkpt lat="29.183003" lon="104.641975"><ele>460.7425</ele><time>2026-01-31T22:23:59.000Z</time></trkpt>
        <trkpt lat="29.182956" lon="104.641961"><ele>462.13873</ele><time>2026-01-31T22:24:06.000Z</time></trkpt>
        <trkpt lat="29.182903" lon="104.641962"><ele>462.2686</ele><time>2026-01-31T22:24:11.000Z</time></trkpt>
        <trkpt lat="29.182857" lon="104.641945"><ele>462.98196</ele><time>2026-01-31T22:24:15.000Z</time></trkpt>
        <trkpt lat="29.182809" lon="104.641933"><ele>463.70993</ele><time>2026-01-31T22:24:19.000Z</time></trkpt>
        <trkpt lat="29.182765" lon="104.641925"><ele>464.1739</ele><time>2026-01-31T22:24:23.000Z</time></trkpt>
        <trkpt lat="29.18272" lon="104.641916"><ele>464.43564</ele><time>2026-01-31T22:24:27.000Z</time></trkpt>
        <trkpt lat="29.182665" lon="104.641922"><ele>465.48898</ele><time>2026-01-31T22:25:58.000Z</time></trkpt>
        <trkpt lat="29.182621" lon="104.641933"><ele>464.63196</ele><time>2026-01-31T22:26:02.000Z</time></trkpt>
        <trkpt lat="29.182566" lon="104.641945"><ele>464.48727</ele><time>2026-01-31T22:26:06.000Z</time></trkpt>
        <trkpt lat="29.182514" lon="104.641955"><ele>464.86575</ele><time>2026-01-31T22:26:10.000Z</time></trkpt>
        <trkpt lat="29.182464" lon="104.641972"><ele>464.69745</ele><time>2026-01-31T22:26:14.000Z</time></trkpt>
        <trkpt lat="29.182412" lon="104.641993"><ele>464.9042</ele><time>2026-01-31T22:26:18.000Z</time></trkpt>
        <trkpt lat="29.182361" lon="104.641993"><ele>465.78073</ele><time>2026-01-31T22:26:22.000Z</time></trkpt>
        <trkpt lat="29.18231" lon="104.64198"><ele>465.49808</ele><time>2026-01-31T22:26:26.000Z</time></trkpt>
        <trkpt lat="29.182263" lon="104.641958"><ele>465.10327</ele><time>2026-01-31T22:26:30.000Z</time></trkpt>
        <trkpt lat="29.182215" lon="104.641939"><ele>465.1644</ele><time>2026-01-31T22:26:34.000Z</time></trkpt>
        <trkpt lat="29.182169" lon="104.641924"><ele>464.5059</ele><time>2026-01-31T22:26:38.000Z</time></trkpt>
        <trkpt lat="29.182121" lon="104.641912"><ele>463.26587</ele><time>2026-01-31T22:26:42.000Z</time></trkpt>
        <trkpt lat="29.182073" lon="104.641894"><ele>462.83386</ele><time>2026-01-31T22:26:46.000Z</time></trkpt>
        <trkpt lat="29.182023" lon="104.641873"><ele>461.67004</ele><time>2026-01-31T22:26:50.000Z</time></trkpt>
        <trkpt lat="29.181973" lon="104.641854"><ele>461.02032</ele><time>2026-01-31T22:26:54.000Z</time></trkpt>
        <trkpt lat="29.181925" lon="104.641844"><ele>460.1923</ele><time>2026-01-31T22:26:58.000Z</time></trkpt>
        <trkpt lat="29.181883" lon="104.641818"><ele>461.18097</ele><time>2026-01-31T22:27:54.000Z</time></trkpt>
        <trkpt lat="29.181832" lon="104.641806"><ele>460.4039</ele><time>2026-01-31T22:27:59.000Z</time></trkpt>
        <trkpt lat="29.18179" lon="104.641784"><ele>459.03107</ele><time>2026-01-31T22:28:03.000Z</time></trkpt>
        <trkpt lat="29.181744" lon="104.641773"><ele>459.58508</ele><time>2026-01-31T22:28:07.000Z</time></trkpt>
        <trkpt lat="29.181693" lon="104.641758"><ele>459.19745</ele><time>2026-01-31T22:28:11.000Z</time></trkpt>
        <trkpt lat="29.18164" lon="104.641739"><ele>459.35773</ele><time>2026-01-31T22:28:15.000Z</time></trkpt>
        <trkpt lat="29.181591" lon="104.641728"><ele>459.0468</ele><time>2026-01-31T22:28:19.000Z</time></trkpt>
        <trkpt lat="29.181544" lon="104.64171"><ele>458.38193</ele><time>2026-01-31T22:28:23.000Z</time></trkpt>
        <trkpt lat="29.181491" lon="104.641699"><ele>459.33087</ele><time>2026-01-31T22:28:28.000Z</time></trkpt>
        <trkpt lat="29.181443" lon="104.641683"><ele>458.655</ele><time>2026-01-31T22:28:32.000Z</time></trkpt>
        <trkpt lat="29.18139" lon="104.641665"><ele>459.15076</ele><time>2026-01-31T22:28:37.000Z</time></trkpt>
        <trkpt lat="29.181344" lon="104.641644"><ele>458.4745</ele><time>2026-01-31T22:28:41.000Z</time></trkpt>
        <trkpt lat="29.181299" lon="104.641628"><ele>458.86737</ele><time>2026-01-31T22:28:45.000Z</time></trkpt>
        <trkpt lat="29.181252" lon="104.641609"><ele>458.7254</ele><time>2026-01-31T22:28:49.000Z</time></trkpt>
        <trkpt lat="29.18121" lon="104.641581"><ele>459.2403</ele><time>2026-01-31T22:28:53.000Z</time></trkpt>
        <trkpt lat="29.181166" lon="104.641557"><ele>458.46805</ele><time>2026-01-31T22:28:57.000Z</time></trkpt>
        <trkpt lat="29.181124" lon="104.641526"><ele>457.61368</ele><time>2026-01-31T22:29:01.000Z</time></trkpt>
        <trkpt lat="29.181087" lon="104.641494"><ele>458.50137</ele><time>2026-01-31T22:29:05.000Z</time></trkpt>
        <trkpt lat="29.181053" lon="104.641458"><ele>457.386</ele><time>2026-01-31T22:29:09.000Z</time></trkpt>
        <trkpt lat="29.181019" lon="104.641416"><ele>458.26074</ele><time>2026-01-31T22:29:13.000Z</time></trkpt>
        <trkpt lat="29.180986" lon="104.641375"><ele>457.60037</ele><time>2026-01-31T22:29:17.000Z</time></trkpt>
        <trkpt lat="29.180965" lon="104.641324"><ele>457.2252</ele><time>2026-01-31T22:29:21.000Z</time></trkpt>
        <trkpt lat="29.18095" lon="104.641267"><ele>457.67307</ele><time>2026-01-31T22:29:25.000Z</time></trkpt>
        <trkpt lat="29.180941" lon="104.641204"><ele>457.7819</ele><time>2026-01-31T22:29:29.000Z</time></trkpt>
        <trkpt lat="29.18095" lon="104.64114"><ele>458.50394</ele><time>2026-01-31T22:29:33.000Z</time></trkpt>
        <trkpt lat="29.180964" lon="104.641079"><ele>459.34918</ele><time>2026-01-31T22:29:37.000Z</time></trkpt>
        <trkpt lat="29.180977" lon="104.641024"><ele>459.7086</ele><time>2026-01-31T22:29:41.000Z</time></trkpt>
        <trkpt lat="29.181003" lon="104.64097"><ele>460.19867</ele><time>2026-01-31T22:30:05.000Z</time></trkpt>
        <trkpt lat="29.181023" lon="104.640918"><ele>458.7867</ele><time>2026-01-31T22:30:10.000Z</time></trkpt>
        <trkpt lat="29.181039" lon="104.640862"><ele>459.05917</ele><time>2026-01-31T22:30:14.000Z</time></trkpt>
        <trkpt lat="29.181054" lon="104.640809"><ele>458.7624</ele><time>2026-01-31T22:30:18.000Z</time></trkpt>
        <trkpt lat="29.181048" lon="104.640743"><ele>459.29648</ele><time>2026-01-31T22:30:22.000Z</time></trkpt>
        <trkpt lat="29.181032" lon="104.640682"><ele>458.97485</ele><time>2026-01-31T22:30:26.000Z</time></trkpt>
        <trkpt lat="29.181011" lon="104.640622"><ele>459.2396</ele><time>2026-01-31T22:30:30.000Z</time></trkpt>
        <trkpt lat="29.180981" lon="104.640566"><ele>458.95615</ele><time>2026-01-31T22:30:34.000Z</time></trkpt>
        <trkpt lat="29.180954" lon="104.64051"><ele>459.18677</ele><time>2026-01-31T22:30:38.000Z</time></trkpt>
        <trkpt lat="29.180927" lon="104.640459"><ele>458.3952</ele><time>2026-01-31T22:30:42.000Z</time></trkpt>
        <trkpt lat="29.180904" lon="104.640404"><ele>457.84988</ele><time>2026-01-31T22:30:46.000Z</time></trkpt>
        <trkpt lat="29.180876" lon="104.640354"><ele>457.35547</ele><time>2026-01-31T22:30:50.000Z</time></trkpt>
        <trkpt lat="29.18085" lon="104.640305"><ele>457.34726</ele><time>2026-01-31T22:30:54.000Z</time></trkpt>
        <trkpt lat="29.180811" lon="104.640268"><ele>457.68536</ele><time>2026-01-31T22:30:58.000Z</time></trkpt>
        <trkpt lat="29.180786" lon="104.640222"><ele>456.66037</ele><time>2026-01-31T22:31:02.000Z</time></trkpt>
        <trkpt lat="29.18076" lon="104.640178"><ele>456.2169</ele><time>2026-01-31T22:31:06.000Z</time></trkpt>
        <trkpt lat="29.180729" lon="104.640141"><ele>455.36417</ele><time>2026-01-31T22:31:10.000Z</time></trkpt>
        <trkpt lat="29.180705" lon="104.640097"><ele>454.32135</ele><time>2026-01-31T22:31:55.000Z</time></trkpt>
        <trkpt lat="29.180653" lon="104.640084"><ele>454.1638</ele><time>2026-01-31T22:32:17.000Z</time></trkpt>
        <trkpt lat="29.180608" lon="104.64012"><ele>453.05536</ele><time>2026-01-31T22:32:26.000Z</time></trkpt>
        <trkpt lat="29.18056" lon="104.640149"><ele>451.68625</ele><time>2026-01-31T22:32:31.000Z</time></trkpt>
        <trkpt lat="29.180518" lon="104.640177"><ele>450.86835</ele><time>2026-01-31T22:32:35.000Z</time></trkpt>
        <trkpt lat="29.180472" lon="104.640204"><ele>450.8924</ele><time>2026-01-31T22:32:40.000Z</time></trkpt>
        <trkpt lat="29.180425" lon="104.640238"><ele>450.09586</ele><time>2026-01-31T22:32:44.000Z</time></trkpt>
        <trkpt lat="29.180377" lon="104.64026"><ele>448.43033</ele><time>2026-01-31T22:32:48.000Z</time></trkpt>
        <trkpt lat="29.180334" lon="104.640291"><ele>448.11545</ele><time>2026-01-31T22:32:52.000Z</time></trkpt>
        <trkpt lat="29.180282" lon="104.640312"><ele>448.36194</ele><time>2026-01-31T22:32:56.000Z</time></trkpt>
        <trkpt lat="29.180233" lon="104.640331"><ele>447.63443</ele><time>2026-01-31T22:33:00.000Z</time></trkpt>
        <trkpt lat="29.180189" lon="104.640357"><ele>447.57507</ele><time>2026-01-31T22:33:04.000Z</time></trkpt>
        <trkpt lat="29.180138" lon="104.640352"><ele>446.59348</ele><time>2026-01-31T22:33:24.000Z</time></trkpt>
        <trkpt lat="29.180084" lon="104.640369"><ele>445.3988</ele><time>2026-01-31T22:33:29.000Z</time></trkpt>
        <trkpt lat="29.180034" lon="104.640379"><ele>445.88208</ele><time>2026-01-31T22:33:33.000Z</time></trkpt>
        <trkpt lat="29.179987" lon="104.640373"><ele>446.25125</ele><time>2026-01-31T22:33:36.000Z</time></trkpt>
        <trkpt lat="29.179934" lon="104.64035"><ele>445.49084</ele><time>2026-01-31T22:33:40.000Z</time></trkpt>
        <trkpt lat="29.179882" lon="104.640323"><ele>445.13382</ele><time>2026-01-31T22:33:44.000Z</time></trkpt>
        <trkpt lat="29.179852" lon="104.640272"><ele>446.616</ele><time>2026-01-31T22:33:48.000Z</time></trkpt>
        <trkpt lat="29.179813" lon="104.640224"><ele>446.42572</ele><time>2026-01-31T22:33:53.000Z</time></trkpt>
        <trkpt lat="29.179772" lon="104.640192"><ele>445.87512</ele><time>2026-01-31T22:33:57.000Z</time></trkpt>
        <trkpt lat="29.179747" lon="104.640148"><ele>445.3704</ele><time>2026-01-31T22:34:00.000Z</time></trkpt>
        <trkpt lat="29.179728" lon="104.640097"><ele>445.09073</ele><time>2026-01-31T22:34:05.000Z</time></trkpt>
        <trkpt lat="29.179721" lon="104.640042"><ele>446.50546</ele><time>2026-01-31T22:34:19.000Z</time></trkpt>
        <trkpt lat="29.179712" lon="104.639989"><ele>446.69717</ele><time>2026-01-31T22:34:23.000Z</time></trkpt>
        <trkpt lat="29.17969" lon="104.639943"><ele>448.12448</ele><time>2026-01-31T22:34:30.000Z</time></trkpt>
        <trkpt lat="29.179643" lon="104.639913"><ele>448.15582</ele><time>2026-01-31T22:34:41.000Z</time></trkpt>
        <trkpt lat="29.179598" lon="104.639897"><ele>447.93323</ele><time>2026-01-31T22:34:45.000Z</time></trkpt>
        <trkpt lat="29.179549" lon="104.6399"><ele>447.88614</ele><time>2026-01-31T22:34:49.000Z</time></trkpt>
        <trkpt lat="29.179498" lon="104.639913"><ele>446.3115</ele><time>2026-01-31T22:34:54.000Z</time></trkpt>
        <trkpt lat="29.179449" lon="104.639937"><ele>444.70322</ele><time>2026-01-31T22:34:59.000Z</time></trkpt>
        <trkpt lat="29.179404" lon="104.639977"><ele>442.84064</ele><time>2026-01-31T22:35:04.000Z</time></trkpt>
        <trkpt lat="29.179369" lon="104.640023"><ele>441.4665</ele><time>2026-01-31T22:35:08.000Z</time></trkpt>
        <trkpt lat="29.179326" lon="104.640057"><ele>440.48376</ele><time>2026-01-31T22:35:12.000Z</time></trkpt>
        <trkpt lat="29.179274" lon="104.64006"><ele>438.47098</ele><time>2026-01-31T22:35:16.000Z</time></trkpt>
        <trkpt lat="29.179222" lon="104.640052"><ele>438.88898</ele><time>2026-01-31T22:35:20.000Z</time></trkpt>
        <trkpt lat="29.179179" lon="104.640026"><ele>438.10568</ele><time>2026-01-31T22:35:24.000Z</time></trkpt>
        <trkpt lat="29.179127" lon="104.640029"><ele>438.27966</ele><time>2026-01-31T22:35:28.000Z</time></trkpt>
        <trkpt lat="29.17909" lon="104.64007"><ele>437.7646</ele><time>2026-01-31T22:35:32.000Z</time></trkpt>
        <trkpt lat="29.179059" lon="104.640015"><ele>436.58176</ele><time>2026-01-31T22:35:52.000Z</time></trkpt>
        <trkpt lat="29.179009" lon="104.640021"><ele>435.91708</ele><time>2026-01-31T22:35:59.000Z</time></trkpt>
        <trkpt lat="29.178968" lon="104.639992"><ele>436.33612</ele><time>2026-01-31T22:36:10.000Z</time></trkpt>
      </trkseg>
      <trkseg>
        <trkpt lat="29.178877" lon="104.639884"><ele>434.40067</ele><time>2026-01-31T22:38:49.000Z</time></trkpt>
        <trkpt lat="29.178863" lon="104.639937"><ele>433.53427</ele><time>2026-01-31T22:39:00.000Z</time></trkpt>
        <trkpt lat="29.178849" lon="104.640004"><ele>434.23532</ele><time>2026-01-31T22:39:05.000Z</time></trkpt>
        <trkpt lat="29.178808" lon="104.640031"><ele>432.4598</ele><time>2026-01-31T22:39:12.000Z</time></trkpt>
        <trkpt lat="29.178763" lon="104.640013"><ele>431.07437</ele><time>2026-01-31T22:39:17.000Z</time></trkpt>
        <trkpt lat="29.178744" lon="104.639958"><ele>429.9466</ele><time>2026-01-31T22:39:26.000Z</time></trkpt>
        <trkpt lat="29.178751" lon="104.639899"><ele>430.0291</ele><time>2026-01-31T22:39:31.000Z</time></trkpt>
        <trkpt lat="29.178744" lon="104.639842"><ele>428.9931</ele><time>2026-01-31T22:39:36.000Z</time></trkpt>
        <trkpt lat="29.178724" lon="104.639786"><ele>430.52112</ele><time>2026-01-31T22:39:41.000Z</time></trkpt>
        <trkpt lat="29.17868" lon="104.639747"><ele>429.24625</ele><time>2026-01-31T22:39:46.000Z</time></trkpt>
        <trkpt lat="29.178636" lon="104.639723"><ele>429.05713</ele><time>2026-01-31T22:39:50.000Z</time></trkpt>
        <trkpt lat="29.178589" lon="104.639731"><ele>427.03345</ele><time>2026-01-31T22:40:00.000Z</time></trkpt>
        <trkpt lat="29.178551" lon="104.639774"><ele>426.8118</ele><time>2026-01-31T22:40:06.000Z</time></trkpt>
        <trkpt lat="29.178508" lon="104.639795"><ele>426.7274</ele><time>2026-01-31T22:40:11.000Z</time></trkpt>
        <trkpt lat="29.178459" lon="104.639813"><ele>426.7775</ele><time>2026-01-31T22:40:16.000Z</time></trkpt>
        <trkpt lat="29.178413" lon="104.639841"><ele>426.4469</ele><time>2026-01-31T22:40:21.000Z</time></trkpt>
        <trkpt lat="29.178368" lon="104.639864"><ele>426.49933</ele><time>2026-01-31T22:40:26.000Z</time></trkpt>
        <trkpt lat="29.178323" lon="104.639869"><ele>426.1679</ele><time>2026-01-31T22:40:29.000Z</time></trkpt>
        <trkpt lat="29.178271" lon="104.639877"><ele>426.93744</ele><time>2026-01-31T22:40:36.000Z</time></trkpt>
        <trkpt lat="29.178218" lon="104.639913"><ele>434.98657</ele><time>2026-01-31T22:41:09.000Z</time></trkpt>
        <trkpt lat="29.178217" lon="104.639855"><ele>426.75256</ele><time>2026-01-31T22:41:11.000Z</time></trkpt>
        <trkpt lat="29.178171" lon="104.639839"><ele>426.98453</ele><time>2026-01-31T22:41:15.000Z</time></trkpt>
        <trkpt lat="29.178123" lon="104.639824"><ele>427.37027</ele><time>2026-01-31T22:41:20.000Z</time></trkpt>
        <trkpt lat="29.178075" lon="104.639815"><ele>428.6889</ele><time>2026-01-31T22:41:26.000Z</time></trkpt>
        <trkpt lat="29.178022" lon="104.639818"><ele>429.40057</ele><time>2026-01-31T22:41:32.000Z</time></trkpt>
        <trkpt lat="29.178069" lon="104.639807"><ele>430.7034</ele><time>2026-01-31T22:42:00.000Z</time></trkpt>
        <trkpt lat="29.178015" lon="104.639814"><ele>430.46622</ele><time>2026-01-31T22:42:50.000Z</time></trkpt>
        <trkpt lat="29.177977" lon="104.639787"><ele>428.94598</ele><time>2026-01-31T22:43:04.000Z</time></trkpt>
      </trkseg>
      <trkseg>
        <trkpt lat="29.177937" lon="104.639755"><ele>429.2183</ele><time>2026-01-31T22:43:21.000Z</time></trkpt>
        <trkpt lat="29.177892" lon="104.639733"><ele>429.49655</ele><time>2026-01-31T22:43:26.000Z</time></trkpt>
        <trkpt lat="29.177848" lon="104.6397"><ele>429.53094</ele><time>2026-01-31T22:44:13.000Z</time></trkpt>
        <trkpt lat="29.177818" lon="104.639648"><ele>430.34598</ele><time>2026-01-31T22:44:18.000Z</time></trkpt>
        <trkpt lat="29.177802" lon="104.639597"><ele>431.6072</ele><time>2026-01-31T22:44:23.000Z</time></trkpt>
        <trkpt lat="29.177774" lon="104.639553"><ele>432.30917</ele><time>2026-01-31T22:44:28.000Z</time></trkpt>
        <trkpt lat="29.177733" lon="104.639527"><ele>433.11835</ele><time>2026-01-31T22:44:33.000Z</time></trkpt>
        <trkpt lat="29.177687" lon="104.639524"><ele>434.17148</ele><time>2026-01-31T22:44:44.000Z</time></trkpt>
        <trkpt lat="29.177635" lon="104.639539"><ele>434.45486</ele><time>2026-01-31T22:44:53.000Z</time></trkpt>
        <trkpt lat="29.177583" lon="104.639547"><ele>434.32077</ele><time>2026-01-31T22:44:59.000Z</time></trkpt>
        <trkpt lat="29.177535" lon="104.639556"><ele>433.94623</ele><time>2026-01-31T22:45:04.000Z</time></trkpt>
        <trkpt lat="29.177484" lon="104.63957"><ele>433.07123</ele><time>2026-01-31T22:45:10.000Z</time></trkpt>
        <trkpt lat="29.177448" lon="104.639606"><ele>432.28763</ele><time>2026-01-31T22:45:17.000Z</time></trkpt>
        <trkpt lat="29.177401" lon="104.639611"><ele>431.37708</ele><time>2026-01-31T22:45:21.000Z</time></trkpt>
        <trkpt lat="29.177346" lon="104.639626"><ele>432.2343</ele><time>2026-01-31T22:45:27.000Z</time></trkpt>
        <trkpt lat="29.177297" lon="104.639649"><ele>432.19043</ele><time>2026-01-31T22:45:33.000Z</time></trkpt>
        <trkpt lat="29.177248" lon="104.639661"><ele>432.0228</ele><time>2026-01-31T22:45:38.000Z</time></trkpt>
        <trkpt lat="29.177209" lon="104.6397"><ele>431.14636</ele><time>2026-01-31T22:45:43.000Z</time></trkpt>
        <trkpt lat="29.177164" lon="104.639715"><ele>429.78665</ele><time>2026-01-31T22:45:53.000Z</time></trkpt>
        <trkpt lat="29.177118" lon="104.639733"><ele>430.83334</ele><time>2026-01-31T22:45:58.000Z</time></trkpt>
        <trkpt lat="29.177068" lon="104.639769"><ele>428.67532</ele><time>2026-01-31T22:46:14.000Z</time></trkpt>
        <trkpt lat="29.177027" lon="104.639813"><ele>428.12207</ele><time>2026-01-31T22:46:19.000Z</time></trkpt>
        <trkpt lat="29.17699" lon="104.639849"><ele>427.61322</ele><time>2026-01-31T22:46:23.000Z</time></trkpt>
        <trkpt lat="29.176958" lon="104.639887"><ele>427.86993</ele><time>2026-01-31T22:46:26.000Z</time></trkpt>
        <trkpt lat="29.176912" lon="104.639883"><ele>428.87338</ele><time>2026-01-31T22:46:56.000Z</time></trkpt>
        <trkpt lat="29.176861" lon="104.639891"><ele>429.03928</ele><time>2026-01-31T22:47:00.000Z</time></trkpt>
        <trkpt lat="29.176809" lon="104.639922"><ele>429.3014</ele><time>2026-01-31T22:47:05.000Z</time></trkpt>
        <trkpt lat="29.176771" lon="104.639952"><ele>430.34088</ele><time>2026-01-31T22:47:10.000Z</time></trkpt>
        <trkpt lat="29.176723" lon="104.639963"><ele>429.8558</ele><time>2026-01-31T22:47:20.000Z</time></trkpt>
        <trkpt lat="29.17667" lon="104.639972"><ele>429.8394</ele><time>2026-01-31T22:47:26.000Z</time></trkpt>
        <trkpt lat="29.176619" lon="104.639976"><ele>430.06485</ele><time>2026-01-31T22:47:31.000Z</time></trkpt>
        <trkpt lat="29.176564" lon="104.639972"><ele>430.0693</ele><time>2026-01-31T22:47:36.000Z</time></trkpt>
        <trkpt lat="29.176518" lon="104.639965"><ele>430.275</ele><time>2026-01-31T22:47:40.000Z</time></trkpt>
        <trkpt lat="29.176468" lon="104.639934"><ele>430.32846</ele><time>2026-01-31T22:47:46.000Z</time></trkpt>
        <trkpt lat="29.176426" lon="104.639902"><ele>430.73938</ele><time>2026-01-31T22:47:51.000Z</time></trkpt>
        <trkpt lat="29.176389" lon="104.639856"><ele>430.9016</ele><time>2026-01-31T22:47:56.000Z</time></trkpt>
        <trkpt lat="29.176356" lon="104.639818"><ele>432.24487</ele><time>2026-01-31T22:48:05.000Z</time></trkpt>
        <trkpt lat="29.176309" lon="104.639793"><ele>432.62698</ele><time>2026-01-31T22:48:22.000Z</time></trkpt>
        <trkpt lat="29.176275" lon="104.639752"><ele>432.06314</ele><time>2026-01-31T22:48:34.000Z</time></trkpt>
        <trkpt lat="29.176244" lon="104.639709"><ele>431.55627</ele><time>2026-01-31T22:48:47.000Z</time></trkpt>
        <trkpt lat="29.176199" lon="104.63967"><ele>430.94998</ele><time>2026-01-31T22:48:51.000Z</time></trkpt>
        <trkpt lat="29.176226" lon="104.639613"><ele>432.3235</ele><time>2026-01-31T22:49:05.000Z</time></trkpt>
        <trkpt lat="29.176256" lon="104.639568"><ele>433.53958</ele><time>2026-01-31T22:49:10.000Z</time></trkpt>
        <trkpt lat="29.176223" lon="104.639524"><ele>431.50854</ele><time>2026-01-31T22:49:29.000Z</time></trkpt>
        <trkpt lat="29.1762" lon="104.639476"><ele>430.26355</ele><time>2026-01-31T22:49:35.000Z</time></trkpt>
        <trkpt lat="29.176194" lon="104.639425"><ele>429.49747</ele><time>2026-01-31T22:49:40.000Z</time></trkpt>
        <trkpt lat="29.176184" lon="104.639371"><ele>428.98373</ele><time>2026-01-31T22:49:46.000Z</time></trkpt>
        <trkpt lat="29.176187" lon="104.63931"><ele>427.86563</ele><time>2026-01-31T22:49:50.000Z</time></trkpt>
        <trkpt lat="29.176227" lon="104.639266"><ele>427.16226</ele><time>2026-01-31T22:50:04.000Z</time></trkpt>
        <trkpt lat="29.176269" lon="104.639245"><ele>428.51544</ele><time>2026-01-31T22:50:28.000Z</time></trkpt>
        <trkpt lat="29.176306" lon="104.639208"><ele>426.69183</ele><time>2026-01-31T22:50:33.000Z</time></trkpt>
        <trkpt lat="29.176339" lon="104.639155"><ele>426.42838</ele><time>2026-01-31T22:50:38.000Z</time></trkpt>
        <trkpt lat="29.176361" lon="104.639105"><ele>426.917</ele><time>2026-01-31T22:50:42.000Z</time></trkpt>
        <trkpt lat="29.176396" lon="104.639069"><ele>426.8246</ele><time>2026-01-31T22:50:46.000Z</time></trkpt>
        <trkpt lat="29.176418" lon="104.639022"><ele>426.30472</ele><time>2026-01-31T22:50:51.000Z</time></trkpt>
        <trkpt lat="29.17641" lon="104.638964"><ele>426.07758</ele><time>2026-01-31T22:50:56.000Z</time></trkpt>
        <trkpt lat="29.176393" lon="104.63891"><ele>425.84695</ele><time>2026-01-31T22:51:01.000Z</time></trkpt>
        <trkpt lat="29.176368" lon="104.638864"><ele>424.9902</ele><time>2026-01-31T22:51:05.000Z</time></trkpt>
        <trkpt lat="29.176332" lon="104.638816"><ele>425.32245</ele><time>2026-01-31T22:51:09.000Z</time></trkpt>
        <trkpt lat="29.176285" lon="104.638808"><ele>426.21213</ele><time>2026-01-31T22:51:13.000Z</time></trkpt>
        <trkpt lat="29.176239" lon="104.638815"><ele>426.39905</ele><time>2026-01-31T22:51:17.000Z</time></trkpt>
        <trkpt lat="29.176194" lon="104.638821"><ele>427.23633</ele><time>2026-01-31T22:51:21.000Z</time></trkpt>
        <trkpt lat="29.17615" lon="104.638812"><ele>427.33588</ele><time>2026-01-31T22:51:26.000Z</time></trkpt>
        <trkpt lat="29.176102" lon="104.6388"><ele>427.53427</ele><time>2026-01-31T22:51:59.000Z</time></trkpt>
        <trkpt lat="29.176059" lon="104.638782"><ele>428.33832</ele><time>2026-01-31T22:52:06.000Z</time></trkpt>
        <trkpt lat="29.176031" lon="104.638736"><ele>428.53867</ele><time>2026-01-31T22:52:56.000Z</time></trkpt>
        <trkpt lat="29.175984" lon="104.638713"><ele>428.4791</ele><time>2026-01-31T22:53:32.000Z</time></trkpt>
        <trkpt lat="29.175927" lon="104.638687"><ele>428.0376</ele><time>2026-01-31T22:53:37.000Z</time></trkpt>
        <trkpt lat="29.175879" lon="104.638664"><ele>429.18985</ele><time>2026-01-31T22:53:42.000Z</time></trkpt>
        <trkpt lat="29.175845" lon="104.638619"><ele>428.87042</ele><time>2026-01-31T22:53:47.000Z</time></trkpt>
        <trkpt lat="29.175811" lon="104.63858"><ele>428.45584</ele><time>2026-01-31T22:53:52.000Z</time></trkpt>
        <trkpt lat="29.175774" lon="104.638542"><ele>427.45667</ele><time>2026-01-31T22:53:58.000Z</time></trkpt>
        <trkpt lat="29.175747" lon="104.6385"><ele>427.3782</ele><time>2026-01-31T22:54:02.000Z</time></trkpt>
        <trkpt lat="29.175726" lon="104.638445"><ele>426.9659</ele><time>2026-01-31T22:54:07.000Z</time></trkpt>
        <trkpt lat="29.17571" lon="104.638384"><ele>426.22418</ele><time>2026-01-31T22:54:38.000Z</time></trkpt>
        <trkpt lat="29.175688" lon="104.638338"><ele>426.37564</ele><time>2026-01-31T22:54:43.000Z</time></trkpt>
        <trkpt lat="29.175643" lon="104.638329"><ele>426.98825</ele><time>2026-01-31T22:54:47.000Z</time></trkpt>
        <trkpt lat="29.175592" lon="104.638341"><ele>426.68646</ele><time>2026-01-31T22:54:52.000Z</time></trkpt>
        <trkpt lat="29.175543" lon="104.638362"><ele>425.83994</ele><time>2026-01-31T22:54:57.000Z</time></trkpt>
        <trkpt lat="29.175504" lon="104.638389"><ele>425.2343</ele><time>2026-01-31T22:55:01.000Z</time></trkpt>
        <trkpt lat="29.175467" lon="104.638422"><ele>424.29843</ele><time>2026-01-31T22:55:14.000Z</time></trkpt>
        <trkpt lat="29.175423" lon="104.638455"><ele>425.55194</ele><time>2026-01-31T22:55:18.000Z</time></trkpt>
        <trkpt lat="29.175369" lon="104.638457"><ele>426.46115</ele><time>2026-01-31T22:55:23.000Z</time></trkpt>
        <trkpt lat="29.175321" lon="104.638482"><ele>427.6762</ele><time>2026-01-31T22:55:27.000Z</time></trkpt>
        <trkpt lat="29.17528" lon="104.638516"><ele>427.04395</ele><time>2026-01-31T22:55:32.000Z</time></trkpt>
        <trkpt lat="29.175229" lon="104.638529"><ele>427.55847</ele><time>2026-01-31T22:55:37.000Z</time></trkpt>
        <trkpt lat="29.175185" lon="104.638539"><ele>428.05222</ele><time>2026-01-31T22:55:45.000Z</time></trkpt>
        <trkpt lat="29.175195" lon="104.638484"><ele>426.23724</ele><time>2026-01-31T22:56:54.000Z</time></trkpt>
        <trkpt lat="29.17515" lon="104.638494"><ele>427.30276</ele><time>2026-01-31T22:57:22.000Z</time></trkpt>
        <trkpt lat="29.175105" lon="104.638499"><ele>427.2106</ele><time>2026-01-31T22:57:27.000Z</time></trkpt>
        <trkpt lat="29.175057" lon="104.638502"><ele>427.5286</ele><time>2026-01-31T22:57:32.000Z</time></trkpt>
        <trkpt lat="29.175013" lon="104.638517"><ele>426.3115</ele><time>2026-01-31T22:57:37.000Z</time></trkpt>
        <trkpt lat="29.174972" lon="104.638551"><ele>426.90063</ele><time>2026-01-31T22:57:42.000Z</time></trkpt>
        <trkpt lat="29.17493" lon="104.638589"><ele>425.9801</ele><time>2026-01-31T22:57:47.000Z</time></trkpt>
        <trkpt lat="29.174883" lon="104.638624"><ele>425.97363</ele><time>2026-01-31T22:57:52.000Z</time></trkpt>
        <trkpt lat="29.174847" lon="104.638661"><ele>426.22873</ele><time>2026-01-31T22:57:56.000Z</time></trkpt>
        <trkpt lat="29.1748" lon="104.638659"><ele>426.8828</ele><time>2026-01-31T22:58:13.000Z</time></trkpt>
        <trkpt lat="29.174752" lon="104.63869"><ele>426.49203</ele><time>2026-01-31T22:58:20.000Z</time></trkpt>
        <trkpt lat="29.174714" lon="104.638718"><ele>426.20096</ele><time>2026-01-31T22:58:27.000Z</time></trkpt>
        <trkpt lat="29.174676" lon="104.638761"><ele>426.12482</ele><time>2026-01-31T22:58:32.000Z</time></trkpt>
        <trkpt lat="29.174643" lon="104.638812"><ele>425.26523</ele><time>2026-01-31T22:58:38.000Z</time></trkpt>
        <trkpt lat="29.174607" lon="104.638846"><ele>424.39307</ele><time>2026-01-31T22:58:43.000Z</time></trkpt>
        <trkpt lat="29.174563" lon="104.638864"><ele>424.5834</ele><time>2026-01-31T22:58:48.000Z</time></trkpt>
        <trkpt lat="29.174514" lon="104.638878"><ele>425.10056</ele><time>2026-01-31T22:58:53.000Z</time></trkpt>
        <trkpt lat="29.174465" lon="104.638887"><ele>424.93643</ele><time>2026-01-31T22:58:58.000Z</time></trkpt>
        <trkpt lat="29.174419" lon="104.638892"><ele>425.34384</ele><time>2026-01-31T22:59:02.000Z</time></trkpt>
        <trkpt lat="29.17437" lon="104.638895"><ele>425.99042</ele><time>2026-01-31T22:59:07.000Z</time></trkpt>
        <trkpt lat="29.174325" lon="104.638902"><ele>426.7977</ele><time>2026-01-31T22:59:12.000Z</time></trkpt>
        <trkpt lat="29.174271" lon="104.638901"><ele>428.4314</ele><time>2026-01-31T22:59:37.000Z</time></trkpt>
        <trkpt lat="29.174224" lon="104.638916"><ele>427.90515</ele><time>2026-01-31T22:59:43.000Z</time></trkpt>
        <trkpt lat="29.174172" lon="104.638928"><ele>426.78925</ele><time>2026-01-31T22:59:55.000Z</time></trkpt>
        <trkpt lat="29.174126" lon="104.638936"><ele>427.71106</ele><time>2026-01-31T22:59:59.000Z</time></trkpt>
        <trkpt lat="29.174073" lon="104.638922"><ele>427.85522</ele><time>2026-01-31T23:00:04.000Z</time></trkpt>
        <trkpt lat="29.174029" lon="104.638911"><ele>428.09982</ele><time>2026-01-31T23:00:14.000Z</time></trkpt>
        <trkpt lat="29.173976" lon="104.63891"><ele>428.27255</ele><time>2026-01-31T23:00:18.000Z</time></trkpt>
        <trkpt lat="29.173922" lon="104.638909"><ele>428.09738</ele><time>2026-01-31T23:00:23.000Z</time></trkpt>
        <trkpt lat="29.17387" lon="104.638897"><ele>428.14337</ele><time>2026-01-31T23:00:28.000Z</time></trkpt>
        <trkpt lat="29.17382" lon="104.638882"><ele>429.12964</ele><time>2026-01-31T23:00:32.000Z</time></trkpt>
        <trkpt lat="29.173776" lon="104.638868"><ele>428.43723</ele><time>2026-01-31T23:00:37.000Z</time></trkpt>
        <trkpt lat="29.17373" lon="104.638846"><ele>428.38348</ele><time>2026-01-31T23:00:42.000Z</time></trkpt>
        <trkpt lat="29.173685" lon="104.638828"><ele>428.7683</ele><time>2026-01-31T23:00:47.000Z</time></trkpt>
      </trkseg>
      <trkseg>
        <trkpt lat="29.173559" lon="104.638748"><ele>430.0479</ele><time>2026-01-31T23:01:45.000Z</time></trkpt>
        <trkpt lat="29.173521" lon="104.638711"><ele>430.9441</ele><time>2026-01-31T23:01:50.000Z</time></trkpt>
        <trkpt lat="29.173476" lon="104.638675"><ele>431.12988</ele><time>2026-01-31T23:01:55.000Z</time></trkpt>
        <trkpt lat="29.17344" lon="104.638636"><ele>430.57788</ele><time>2026-01-31T23:01:59.000Z</time></trkpt>
        <trkpt lat="29.173404" lon="104.638592"><ele>430.1978</ele><time>2026-01-31T23:02:03.000Z</time></trkpt>
        <trkpt lat="29.173363" lon="104.638553"><ele>430.56363</ele><time>2026-01-31T23:02:07.000Z</time></trkpt>
        <trkpt lat="29.173327" lon="104.638516"><ele>429.56528</ele><time>2026-01-31T23:02:11.000Z</time></trkpt>
        <trkpt lat="29.173294" lon="104.638474"><ele>430.012</ele><time>2026-01-31T23:02:16.000Z</time></trkpt>
        <trkpt lat="29.17325" lon="104.638458"><ele>430.2576</ele><time>2026-01-31T23:03:41.000Z</time></trkpt>
        <trkpt lat="29.173299" lon="104.638457"><ele>431.1571</ele><time>2026-01-31T23:04:02.000Z</time></trkpt>
        <trkpt lat="29.173325" lon="104.638505"><ele>432.4567</ele><time>2026-01-31T23:05:08.000Z</time></trkpt>
      </trkseg>
      <trkseg>
        <trkpt lat="29.173232" lon="104.638391"><ele>431.49957</ele><time>2026-01-31T23:21:21.000Z</time></trkpt>
        <trkpt lat="29.173263" lon="104.638442"><ele>430.96008</ele><time>2026-01-31T23:21:28.000Z</time></trkpt>
        <trkpt lat="29.173303" lon="104.638478"><ele>431.3379</ele><time>2026-01-31T23:21:39.000Z</time></trkpt>
        <trkpt lat="29.173302" lon="104.638417"><ele>433.6119</ele><time>2026-01-31T23:22:35.000Z</time></trkpt>
        <trkpt lat="29.173272" lon="104.638368"><ele>434.34567</ele><time>2026-01-31T23:22:39.000Z</time></trkpt>
        <trkpt lat="29.173249" lon="104.63832"><ele>434.99338</ele><time>2026-01-31T23:22:44.000Z</time></trkpt>
        <trkpt lat="29.173221" lon="104.638269"><ele>434.9703</ele><time>2026-01-31T23:22:50.000Z</time></trkpt>
        <trkpt lat="29.173192" lon="104.638223"><ele>434.29297</ele><time>2026-01-31T23:22:56.000Z</time></trkpt>
        <trkpt lat="29.173173" lon="104.638176"><ele>433.60208</ele><time>2026-01-31T23:23:01.000Z</time></trkpt>
        <trkpt lat="29.173148" lon="104.638132"><ele>431.7973</ele><time>2026-01-31T23:23:06.000Z</time></trkpt>
        <trkpt lat="29.173135" lon="104.638081"><ele>432.89594</ele><time>2026-01-31T23:23:10.000Z</time></trkpt>
        <trkpt lat="29.173133" lon="104.638025"><ele>433.36243</ele><time>2026-01-31T23:23:16.000Z</time></trkpt>
        <trkpt lat="29.173117" lon="104.637972"><ele>432.9359</ele><time>2026-01-31T23:23:22.000Z</time></trkpt>
        <trkpt lat="29.173109" lon="104.637914"><ele>431.73294</ele><time>2026-01-31T23:23:28.000Z</time></trkpt>
        <trkpt lat="29.173118" lon="104.637859"><ele>430.81924</ele><time>2026-01-31T23:23:35.000Z</time></trkpt>
        <trkpt lat="29.173129" lon="104.637808"><ele>431.78522</ele><time>2026-01-31T23:23:43.000Z</time></trkpt>
        <trkpt lat="29.173145" lon="104.637759"><ele>433.15128</ele><time>2026-01-31T23:23:48.000Z</time></trkpt>
        <trkpt lat="29.173139" lon="104.637703"><ele>432.9265</ele><time>2026-01-31T23:23:53.000Z</time></trkpt>
        <trkpt lat="29.173145" lon="104.637648"><ele>432.6977</ele><time>2026-01-31T23:23:57.000Z</time></trkpt>
        <trkpt lat="29.173136" lon="104.637588"><ele>430.86453</ele><time>2026-01-31T23:24:03.000Z</time></trkpt>
        <trkpt lat="29.173132" lon="104.637528"><ele>429.5492</ele><time>2026-01-31T23:24:08.000Z</time></trkpt>
        <trkpt lat="29.17314" lon="104.637462"><ele>428.1052</ele><time>2026-01-31T23:24:27.000Z</time></trkpt>
        <trkpt lat="29.17316" lon="104.63741"><ele>426.43457</ele><time>2026-01-31T23:24:32.000Z</time></trkpt>
        <trkpt lat="29.173187" lon="104.637357"><ele>425.41132</ele><time>2026-01-31T23:24:38.000Z</time></trkpt>
        <trkpt lat="29.173213" lon="104.637306"><ele>423.25757</ele><time>2026-01-31T23:24:44.000Z</time></trkpt>
        <trkpt lat="29.173251" lon="104.637268"><ele>422.0775</ele><time>2026-01-31T23:24:50.000Z</time></trkpt>
        <trkpt lat="29.173303" lon="104.637257"><ele>421.02383</ele><time>2026-01-31T23:24:55.000Z</time></trkpt>
        <trkpt lat="29.173346" lon="104.637239"><ele>422.18137</ele><time>2026-01-31T23:25:00.000Z</time></trkpt>
        <trkpt lat="29.173395" lon="104.637217"><ele>421.09875</ele><time>2026-01-31T23:25:05.000Z</time></trkpt>
        <trkpt lat="29.173443" lon="104.637186"><ele>420.39923</ele><time>2026-01-31T23:25:10.000Z</time></trkpt>
        <trkpt lat="29.173485" lon="104.637157"><ele>419.7611</ele><time>2026-01-31T23:25:19.000Z</time></trkpt>
        <trkpt lat="29.173532" lon="104.637135"><ele>419.78363</ele><time>2026-01-31T23:25:23.000Z</time></trkpt>
        <trkpt lat="29.173577" lon="104.637123"><ele>420.16797</ele><time>2026-01-31T23:25:28.000Z</time></trkpt>
        <trkpt lat="29.173623" lon="104.637105"><ele>420.2191</ele><time>2026-01-31T23:25:33.000Z</time></trkpt>
        <trkpt lat="29.173661" lon="104.637075"><ele>419.50345</ele><time>2026-01-31T23:25:39.000Z</time></trkpt>
        <trkpt lat="29.173705" lon="104.637056"><ele>420.0495</ele><time>2026-01-31T23:25:44.000Z</time></trkpt>
        <trkpt lat="29.17373" lon="104.637006"><ele>420.94687</ele><time>2026-01-31T23:25:55.000Z</time></trkpt>
        <trkpt lat="29.173777" lon="104.636976"><ele>420.00912</ele><time>2026-01-31T23:26:02.000Z</time></trkpt>
        <trkpt lat="29.173803" lon="104.636933"><ele>420.80823</ele><time>2026-01-31T23:26:45.000Z</time></trkpt>
        <trkpt lat="29.173854" lon="104.636913"><ele>420.9962</ele><time>2026-01-31T23:27:01.000Z</time></trkpt>
        <trkpt lat="29.173891" lon="104.636946"><ele>425.31088</ele><time>2026-01-31T23:27:31.000Z</time></trkpt>
        <trkpt lat="29.173937" lon="104.636961"><ele>425.64264</ele><time>2026-01-31T23:27:37.000Z</time></trkpt>
        <trkpt lat="29.17398" lon="104.636982"><ele>424.602</ele><time>2026-01-31T23:27:49.000Z</time></trkpt>
        <trkpt lat="29.174026" lon="104.636992"><ele>424.744</ele><time>2026-01-31T23:28:14.000Z</time></trkpt>
        <trkpt lat="29.174066" lon="104.637019"><ele>423.83942</ele><time>2026-01-31T23:28:33.000Z</time></trkpt>
        <trkpt lat="29.174118" lon="104.637034"><ele>423.28622</ele><time>2026-01-31T23:28:40.000Z</time></trkpt>
        <trkpt lat="29.174166" lon="104.637039"><ele>423.5444</ele><time>2026-01-31T23:28:45.000Z</time></trkpt>
        <trkpt lat="29.174207" lon="104.637064"><ele>423.67444</ele><time>2026-01-31T23:28:50.000Z</time></trkpt>
        <trkpt lat="29.174255" lon="104.637065"><ele>424.37738</ele><time>2026-01-31T23:28:54.000Z</time></trkpt>
        <trkpt lat="29.174305" lon="104.637067"><ele>424.16882</ele><time>2026-01-31T23:28:59.000Z</time></trkpt>
        <trkpt lat="29.174347" lon="104.637115"><ele>423.8105</ele><time>2026-01-31T23:29:15.000Z</time></trkpt>
        <trkpt lat="29.174363" lon="104.637178"><ele>424.4615</ele><time>2026-01-31T23:29:28.000Z</time></trkpt>
        <trkpt lat="29.174401" lon="104.637227"><ele>426.20575</ele><time>2026-01-31T23:29:37.000Z</time></trkpt>
        <trkpt lat="29.174448" lon="104.637246"><ele>424.7255</ele><time>2026-01-31T23:29:43.000Z</time></trkpt>
        <trkpt lat="29.17449" lon="104.63727"><ele>426.01968</ele><time>2026-01-31T23:29:50.000Z</time></trkpt>
        <trkpt lat="29.174529" lon="104.637296"><ele>426.1914</ele><time>2026-01-31T23:30:04.000Z</time></trkpt>
        <trkpt lat="29.174581" lon="104.637297"><ele>425.6738</ele><time>2026-01-31T23:30:33.000Z</time></trkpt>
        <trkpt lat="29.174624" lon="104.637319"><ele>424.97452</ele><time>2026-01-31T23:31:38.000Z</time></trkpt>
        <trkpt lat="29.17466" lon="104.637351"><ele>425.11548</ele><time>2026-01-31T23:31:46.000Z</time></trkpt>
        <trkpt lat="29.174706" lon="104.637357"><ele>425.56628</ele><time>2026-01-31T23:31:57.000Z</time></trkpt>
        <trkpt lat="29.174665" lon="104.637382"><ele>425.63562</ele><time>2026-01-31T23:32:42.000Z</time></trkpt>
        <trkpt lat="29.174619" lon="104.637358"><ele>426.52866</ele><time>2026-01-31T23:32:48.000Z</time></trkpt>
        <trkpt lat="29.17457" lon="104.637329"><ele>426.17096</ele><time>2026-01-31T23:32:55.000Z</time></trkpt>
      </trkseg>
      <trkseg>
        <trkpt lat="29.17384" lon="104.636875"><ele>420.3343</ele><time>2026-01-31T23:35:54.000Z</time></trkpt>
        <trkpt lat="29.173863" lon="104.636824"><ele>420.35065</ele><time>2026-01-31T23:36:04.000Z</time></trkpt>
        <trkpt lat="29.173884" lon="104.636773"><ele>419.1802</ele><time>2026-01-31T23:36:36.000Z</time></trkpt>
        <trkpt lat="29.173854" lon="104.63672"><ele>418.99033</ele><time>2026-01-31T23:36:41.000Z</time></trkpt>
        <trkpt lat="29.173876" lon="104.636664"><ele>418.33707</ele><time>2026-01-31T23:36:46.000Z</time></trkpt>
        <trkpt lat="29.173924" lon="104.636683"><ele>418.8621</ele><time>2026-01-31T23:37:15.000Z</time></trkpt>
        <trkpt lat="29.173978" lon="104.636674"><ele>418.27524</ele><time>2026-01-31T23:37:23.000Z</time></trkpt>
        <trkpt lat="29.174028" lon="104.636669"><ele>418.5078</ele><time>2026-01-31T23:37:29.000Z</time></trkpt>
        <trkpt lat="29.174083" lon="104.636681"><ele>415.90466</ele><time>2026-01-31T23:37:47.000Z</time></trkpt>
        <trkpt lat="29.174142" lon="104.636662"><ele>417.87216</ele><time>2026-01-31T23:37:52.000Z</time></trkpt>
        <trkpt lat="29.174097" lon="104.636681"><ele>418.0883</ele><time>2026-01-31T23:38:21.000Z</time></trkpt>
        <trkpt lat="29.174048" lon="104.63667"><ele>417.98856</ele><time>2026-01-31T23:38:24.000Z</time></trkpt>
        <trkpt lat="29.174046" lon="104.636614"><ele>416.44168</ele><time>2026-01-31T23:38:33.000Z</time></trkpt>
        <trkpt lat="29.173998" lon="104.636577"><ele>415.9687</ele><time>2026-01-31T23:38:39.000Z</time></trkpt>
        <trkpt lat="29.173953" lon="104.636588"><ele>416.006</ele><time>2026-01-31T23:38:42.000Z</time></trkpt>
        <trkpt lat="29.173906" lon="104.636548"><ele>415.57492</ele><time>2026-01-31T23:38:50.000Z</time></trkpt>
        <trkpt lat="29.173868" lon="104.63651"><ele>416.3959</ele><time>2026-01-31T23:38:54.000Z</time></trkpt>
        <trkpt lat="29.173831" lon="104.636463"><ele>415.58044</ele><time>2026-01-31T23:38:58.000Z</time></trkpt>
        <trkpt lat="29.173801" lon="104.636407"><ele>415.2187</ele><time>2026-01-31T23:39:02.000Z</time></trkpt>
        <trkpt lat="29.173775" lon="104.636352"><ele>415.6662</ele><time>2026-01-31T23:39:06.000Z</time></trkpt>
        <trkpt lat="29.173753" lon="104.636307"><ele>415.03165</ele><time>2026-01-31T23:39:19.000Z</time></trkpt>
        <trkpt lat="29.173809" lon="104.636298"><ele>414.33807</ele><time>2026-01-31T23:40:43.000Z</time></trkpt>
        <trkpt lat="29.173849" lon="104.636259"><ele>413.93777</ele><time>2026-01-31T23:42:08.000Z</time></trkpt>
        <trkpt lat="29.173893" lon="104.636234"><ele>413.2899</ele><time>2026-01-31T23:42:36.000Z</time></trkpt>
        <trkpt lat="29.173931" lon="104.636194"><ele>412.94983</ele><time>2026-01-31T23:42:43.000Z</time></trkpt>
        <trkpt lat="29.173982" lon="104.636186"><ele>413.1841</ele><time>2026-01-31T23:42:48.000Z</time></trkpt>
        <trkpt lat="29.174028" lon="104.636211"><ele>413.26166</ele><time>2026-01-31T23:42:52.000Z</time></trkpt>
        <trkpt lat="29.174086" lon="104.636216"><ele>413.9121</ele><time>2026-01-31T23:42:56.000Z</time></trkpt>
        <trkpt lat="29.174136" lon="104.63621"><ele>414.2947</ele><time>2026-01-31T23:43:01.000Z</time></trkpt>
        <trkpt lat="29.174184" lon="104.636202"><ele>413.57327</ele><time>2026-01-31T23:43:16.000Z</time></trkpt>
        <trkpt lat="29.174228" lon="104.636174"><ele>414.49945</ele><time>2026-01-31T23:43:25.000Z</time></trkpt>
        <trkpt lat="29.174277" lon="104.636144"><ele>415.3694</ele><time>2026-01-31T23:43:30.000Z</time></trkpt>
        <trkpt lat="29.174323" lon="104.636107"><ele>416.4216</ele><time>2026-01-31T23:43:36.000Z</time></trkpt>
        <trkpt lat="29.174365" lon="104.636083"><ele>420.10052</ele><time>2026-01-31T23:44:00.000Z</time></trkpt>
        <trkpt lat="29.174407" lon="104.63604"><ele>420.75104</ele><time>2026-01-31T23:44:05.000Z</time></trkpt>
        <trkpt lat="29.174439" lon="104.635988"><ele>422.76663</ele><time>2026-01-31T23:44:10.000Z</time></trkpt>
        <trkpt lat="29.174436" lon="104.635936"><ele>425.4136</ele><time>2026-01-31T23:44:16.000Z</time></trkpt>
        <trkpt lat="29.174415" lon="104.635886"><ele>425.68155</ele><time>2026-01-31T23:44:21.000Z</time></trkpt>
        <trkpt lat="29.174398" lon="104.635837"><ele>426.74435</ele><time>2026-01-31T23:44:26.000Z</time></trkpt>
        <trkpt lat="29.17444" lon="104.635814"><ele>426.61496</ele><time>2026-01-31T23:45:11.000Z</time></trkpt>
        <trkpt lat="29.174473" lon="104.635775"><ele>427.30865</ele><time>2026-01-31T23:45:19.000Z</time></trkpt>
        <trkpt lat="29.174505" lon="104.635727"><ele>427.65903</ele><time>2026-01-31T23:45:27.000Z</time></trkpt>
        <trkpt lat="29.174525" lon="104.635681"><ele>428.7582</ele><time>2026-01-31T23:46:14.000Z</time></trkpt>
        <trkpt lat="29.17457" lon="104.635658"><ele>428.84494</ele><time>2026-01-31T23:46:19.000Z</time></trkpt>
        <trkpt lat="29.17462" lon="104.635665"><ele>429.7748</ele><time>2026-01-31T23:46:28.000Z</time></trkpt>
        <trkpt lat="29.174662" lon="104.635699"><ele>431.08905</ele><time>2026-01-31T23:46:41.000Z</time></trkpt>
        <trkpt lat="29.174698" lon="104.635739"><ele>432.06396</ele><time>2026-01-31T23:46:46.000Z</time></trkpt>
        <trkpt lat="29.174739" lon="104.635775"><ele>433.50143</ele><time>2026-01-31T23:46:56.000Z</time></trkpt>
        <trkpt lat="29.174765" lon="104.635818"><ele>434.89417</ele><time>2026-01-31T23:47:01.000Z</time></trkpt>
        <trkpt lat="29.174799" lon="104.635854"><ele>436.00232</ele><time>2026-01-31T23:47:06.000Z</time></trkpt>
        <trkpt lat="29.174828" lon="104.635898"><ele>437.41895</ele><time>2026-01-31T23:47:12.000Z</time></trkpt>
        <trkpt lat="29.174856" lon="104.635942"><ele>437.63287</ele><time>2026-01-31T23:47:56.000Z</time></trkpt>
        <trkpt lat="29.174887" lon="104.636"><ele>438.79065</ele><time>2026-01-31T23:48:02.000Z</time></trkpt>
        <trkpt lat="29.174921" lon="104.636035"><ele>439.93344</ele><time>2026-01-31T23:48:08.000Z</time></trkpt>
        <trkpt lat="29.17496" lon="104.635994"><ele>439.9604</ele><time>2026-01-31T23:48:34.000Z</time></trkpt>
        <trkpt lat="29.175005" lon="104.635967"><ele>440.1682</ele><time>2026-01-31T23:48:41.000Z</time></trkpt>
        <trkpt lat="29.175052" lon="104.635954"><ele>440.73828</ele><time>2026-01-31T23:48:46.000Z</time></trkpt>
        <trkpt lat="29.175099" lon="104.63595"><ele>440.46387</ele><time>2026-01-31T23:48:51.000Z</time></trkpt>
        <trkpt lat="29.175135" lon="104.635981"><ele>441.0777</ele><time>2026-01-31T23:48:55.000Z</time></trkpt>
        <trkpt lat="29.175178" lon="104.635999"><ele>441.14697</ele><time>2026-01-31T23:49:00.000Z</time></trkpt>
        <trkpt lat="29.17522" lon="104.636016"><ele>441.63687</ele><time>2026-01-31T23:49:04.000Z</time></trkpt>
        <trkpt lat="29.17527" lon="104.636014"><ele>443.6797</ele><time>2026-01-31T23:49:09.000Z</time></trkpt>
        <trkpt lat="29.175314" lon="104.63602"><ele>441.21432</ele><time>2026-01-31T23:49:14.000Z</time></trkpt>
        <trkpt lat="29.17536" lon="104.635997"><ele>441.2972</ele><time>2026-01-31T23:49:19.000Z</time></trkpt>
        <trkpt lat="29.175408" lon="104.636013"><ele>442.4012</ele><time>2026-01-31T23:51:00.000Z</time></trkpt>
        <trkpt lat="29.17546" lon="104.636006"><ele>444.16733</ele><time>2026-01-31T23:51:18.000Z</time></trkpt>
        <trkpt lat="29.175512" lon="104.636017"><ele>443.77487</ele><time>2026-01-31T23:51:23.000Z</time></trkpt>
        <trkpt lat="29.175558" lon="104.63603"><ele>444.3838</ele><time>2026-01-31T23:51:27.000Z</time></trkpt>
        <trkpt lat="29.175612" lon="104.636018"><ele>445.45447</ele><time>2026-01-31T23:51:32.000Z</time></trkpt>
        <trkpt lat="29.17566" lon="104.636"><ele>446.17694</ele><time>2026-01-31T23:51:36.000Z</time></trkpt>
        <trkpt lat="29.175714" lon="104.635992"><ele>446.6784</ele><time>2026-01-31T23:51:41.000Z</time></trkpt>
        <trkpt lat="29.175758" lon="104.635977"><ele>447.60852</ele><time>2026-01-31T23:51:45.000Z</time></trkpt>
        <trkpt lat="29.175796" lon="104.635945"><ele>447.3597</ele><time>2026-01-31T23:51:49.000Z</time></trkpt>
        <trkpt lat="29.175839" lon="104.635906"><ele>448.57288</ele><time>2026-01-31T23:51:54.000Z</time></trkpt>
        <trkpt lat="29.175885" lon="104.635865"><ele>449.14673</ele><time>2026-01-31T23:51:59.000Z</time></trkpt>
        <trkpt lat="29.175919" lon="104.635829"><ele>449.74142</ele><time>2026-01-31T23:52:03.000Z</time></trkpt>
        <trkpt lat="29.17594" lon="104.635783"><ele>451.22134</ele><time>2026-01-31T23:52:08.000Z</time></trkpt>
        <trkpt lat="29.175987" lon="104.635757"><ele>453.4584</ele><time>2026-01-31T23:53:05.000Z</time></trkpt>
        <trkpt lat="29.176012" lon="104.635714"><ele>453.3915</ele><time>2026-01-31T23:53:10.000Z</time></trkpt>
        <trkpt lat="29.176038" lon="104.635669"><ele>453.77084</ele><time>2026-01-31T23:53:15.000Z</time></trkpt>
        <trkpt lat="29.176052" lon="104.635614"><ele>454.5027</ele><time>2026-01-31T23:53:19.000Z</time></trkpt>
        <trkpt lat="29.176069" lon="104.635558"><ele>454.9351</ele><time>2026-01-31T23:53:25.000Z</time></trkpt>
        <trkpt lat="29.176123" lon="104.635537"><ele>454.91672</ele><time>2026-01-31T23:53:34.000Z</time></trkpt>
        <trkpt lat="29.176169" lon="104.635527"><ele>455.4148</ele><time>2026-01-31T23:53:38.000Z</time></trkpt>
        <trkpt lat="29.176215" lon="104.635509"><ele>455.58224</ele><time>2026-01-31T23:53:42.000Z</time></trkpt>
        <trkpt lat="29.176263" lon="104.635491"><ele>456.11346</ele><time>2026-01-31T23:53:46.000Z</time></trkpt>
        <trkpt lat="29.17626" lon="104.635542"><ele>455.83777</ele><time>2026-01-31T23:54:32.000Z</time></trkpt>
        <trkpt lat="29.176309" lon="104.635571"><ele>456.30914</ele><time>2026-01-31T23:54:41.000Z</time></trkpt>
        <trkpt lat="29.176343" lon="104.635608"><ele>456.82867</ele><time>2026-01-31T23:54:46.000Z</time></trkpt>
        <trkpt lat="29.176382" lon="104.635652"><ele>457.13022</ele><time>2026-01-31T23:54:54.000Z</time></trkpt>
        <trkpt lat="29.176412" lon="104.6357"><ele>457.6809</ele><time>2026-01-31T23:55:00.000Z</time></trkpt>
        <trkpt lat="29.176403" lon="104.635756"><ele>457.83612</ele><time>2026-01-31T23:55:18.000Z</time></trkpt>
        <trkpt lat="29.176416" lon="104.635806"><ele>457.96695</ele><time>2026-01-31T23:55:24.000Z</time></trkpt>
        <trkpt lat="29.176432" lon="104.635858"><ele>458.15082</ele><time>2026-01-31T23:55:30.000Z</time></trkpt>
        <trkpt lat="29.176451" lon="104.635905"><ele>457.9077</ele><time>2026-01-31T23:55:36.000Z</time></trkpt>
        <trkpt lat="29.176464" lon="104.635955"><ele>457.5395</ele><time>2026-01-31T23:55:42.000Z</time></trkpt>
        <trkpt lat="29.176482" lon="104.636007"><ele>457.64972</ele><time>2026-01-31T23:55:48.000Z</time></trkpt>
        <trkpt lat="29.176496" lon="104.636063"><ele>457.46136</ele><time>2026-01-31T23:55:54.000Z</time></trkpt>
        <trkpt lat="29.176505" lon="104.636119"><ele>457.82825</ele><time>2026-01-31T23:56:00.000Z</time></trkpt>
        <trkpt lat="29.176516" lon="104.636178"><ele>458.15192</ele><time>2026-01-31T23:56:06.000Z</time></trkpt>
        <trkpt lat="29.176523" lon="104.636235"><ele>457.68884</ele><time>2026-01-31T23:56:12.000Z</time></trkpt>
        <trkpt lat="29.176528" lon="104.636291"><ele>457.6881</ele><time>2026-01-31T23:56:18.000Z</time></trkpt>
        <trkpt lat="29.176535" lon="104.636345"><ele>458.12823</ele><time>2026-01-31T23:56:24.000Z</time></trkpt>
        <trkpt lat="29.176545" lon="104.636398"><ele>458.14633</ele><time>2026-01-31T23:56:30.000Z</time></trkpt>
        <trkpt lat="29.176556" lon="104.63645"><ele>458.128</ele><time>2026-01-31T23:56:36.000Z</time></trkpt>
        <trkpt lat="29.176568" lon="104.636505"><ele>457.65488</ele><time>2026-01-31T23:56:47.000Z</time></trkpt>
        <trkpt lat="29.176577" lon="104.636559"><ele>458.2216</ele><time>2026-01-31T23:56:55.000Z</time></trkpt>
        <trkpt lat="29.17658" lon="104.636613"><ele>458.14896</ele><time>2026-01-31T23:57:03.000Z</time></trkpt>
        <trkpt lat="29.1766" lon="104.63667"><ele>457.9738</ele><time>2026-01-31T23:57:46.000Z</time></trkpt>
        <trkpt lat="29.176629" lon="104.636714"><ele>458.3427</ele><time>2026-01-31T23:57:55.000Z</time></trkpt>
        <trkpt lat="29.176654" lon="104.636769"><ele>459.39178</ele><time>2026-01-31T23:58:06.000Z</time></trkpt>
      </trkseg>
      <trkseg>
        <trkpt lat="29.17664" lon="104.636827"><ele>456.80054</ele><time>2026-02-01T00:00:05.000Z</time></trkpt>
        <trkpt lat="29.176656" lon="104.636898"><ele>457.26245</ele><time>2026-02-01T00:00:08.000Z</time></trkpt>
        <trkpt lat="29.176672" lon="104.636959"><ele>458.26154</ele><time>2026-02-01T00:00:11.000Z</time></trkpt>
        <trkpt lat="29.176691" lon="104.637012"><ele>458.70966</ele><time>2026-02-01T00:00:14.000Z</time></trkpt>
        <trkpt lat="29.176717" lon="104.637071"><ele>459.58167</ele><time>2026-02-01T00:00:18.000Z</time></trkpt>
        <trkpt lat="29.176746" lon="104.637125"><ele>459.85663</ele><time>2026-02-01T00:00:22.000Z</time></trkpt>
        <trkpt lat="29.176773" lon="104.637174"><ele>459.74664</ele><time>2026-02-01T00:00:27.000Z</time></trkpt>
        <trkpt lat="29.176795" lon="104.637224"><ele>459.15808</ele><time>2026-02-01T00:00:31.000Z</time></trkpt>
        <trkpt lat="29.176859" lon="104.637266"><ele>457.03946</ele><time>2026-02-01T00:00:35.000Z</time></trkpt>
        <trkpt lat="29.176884" lon="104.637325"><ele>456.0047</ele><time>2026-02-01T00:00:45.000Z</time></trkpt>
        <trkpt lat="29.176909" lon="104.637378"><ele>456.10663</ele><time>2026-02-01T00:00:50.000Z</time></trkpt>
        <trkpt lat="29.17694" lon="104.637421"><ele>455.84232</ele><time>2026-02-01T00:00:55.000Z</time></trkpt>
        <trkpt lat="29.176966" lon="104.637471"><ele>455.07758</ele><time>2026-02-01T00:01:00.000Z</time></trkpt>
        <trkpt lat="29.177004" lon="104.637519"><ele>454.65155</ele><time>2026-02-01T00:01:05.000Z</time></trkpt>
        <trkpt lat="29.17703" lon="104.637563"><ele>453.94736</ele><time>2026-02-01T00:01:09.000Z</time></trkpt>
        <trkpt lat="29.177055" lon="104.637613"><ele>453.04794</ele><time>2026-02-01T00:01:14.000Z</time></trkpt>
        <trkpt lat="29.177092" lon="104.637654"><ele>452.44485</ele><time>2026-02-01T00:01:19.000Z</time></trkpt>
        <trkpt lat="29.177114" lon="104.637705"><ele>452.20856</ele><time>2026-02-01T00:01:23.000Z</time></trkpt>
        <trkpt lat="29.177148" lon="104.637746"><ele>452.36096</ele><time>2026-02-01T00:01:27.000Z</time></trkpt>
        <trkpt lat="29.177181" lon="104.637782"><ele>451.87762</ele><time>2026-02-01T00:01:31.000Z</time></trkpt>
        <trkpt lat="29.177222" lon="104.637825"><ele>451.6383</ele><time>2026-02-01T00:01:36.000Z</time></trkpt>
        <trkpt lat="29.177257" lon="104.637871"><ele>450.8821</ele><time>2026-02-01T00:01:41.000Z</time></trkpt>
        <trkpt lat="29.177286" lon="104.637914"><ele>450.91345</ele><time>2026-02-01T00:01:45.000Z</time></trkpt>
        <trkpt lat="29.177324" lon="104.637943"><ele>451.19888</ele><time>2026-02-01T00:01:49.000Z</time></trkpt>
        <trkpt lat="29.177353" lon="104.637983"><ele>451.30817</ele><time>2026-02-01T00:01:53.000Z</time></trkpt>
        <trkpt lat="29.177393" lon="104.638011"><ele>451.8265</ele><time>2026-02-01T00:01:57.000Z</time></trkpt>
        <trkpt lat="29.17743" lon="104.638043"><ele>451.7938</ele><time>2026-02-01T00:02:01.000Z</time></trkpt>
        <trkpt lat="29.177473" lon="104.638079"><ele>452.89478</ele><time>2026-02-01T00:02:06.000Z</time></trkpt>
        <trkpt lat="29.177494" lon="104.63813"><ele>454.6813</ele><time>2026-02-01T00:02:31.000Z</time></trkpt>
        <trkpt lat="29.177531" lon="104.638161"><ele>455.5523</ele><time>2026-02-01T00:02:35.000Z</time></trkpt>
        <trkpt lat="29.177578" lon="104.638191"><ele>456.72253</ele><time>2026-02-01T00:02:40.000Z</time></trkpt>
        <trkpt lat="29.177627" lon="104.638223"><ele>458.1289</ele><time>2026-02-01T00:02:45.000Z</time></trkpt>
        <trkpt lat="29.177667" lon="104.638247"><ele>459.51868</ele><time>2026-02-01T00:02:49.000Z</time></trkpt>
        <trkpt lat="29.177712" lon="104.638266"><ele>460.55743</ele><time>2026-02-01T00:02:54.000Z</time></trkpt>
        <trkpt lat="29.177757" lon="104.638282"><ele>461.1889</ele><time>2026-02-01T00:02:59.000Z</time></trkpt>
        <trkpt lat="29.177805" lon="104.638287"><ele>462.3922</ele><time>2026-02-01T00:03:04.000Z</time></trkpt>
        <trkpt lat="29.177862" lon="104.638287"><ele>462.99277</ele><time>2026-02-01T00:03:09.000Z</time></trkpt>
      </trkseg>
      <trkseg>
        <trkpt lat="29.177969" lon="104.638179"><ele>460.42395</ele><time>2026-02-01T00:04:29.000Z</time></trkpt>
        <trkpt lat="29.17801" lon="104.638138"><ele>460.6258</ele><time>2026-02-01T00:04:34.000Z</time></trkpt>
        <trkpt lat="29.178048" lon="104.638096"><ele>461.90308</ele><time>2026-02-01T00:04:48.000Z</time></trkpt>
        <trkpt lat="29.178132" lon="104.638073"><ele>465.23444</ele><time>2026-02-01T00:04:52.000Z</time></trkpt>
        <trkpt lat="29.178171" lon="104.638041"><ele>466.03003</ele><time>2026-02-01T00:05:03.000Z</time></trkpt>
        <trkpt lat="29.178205" lon="104.638005"><ele>466.50342</ele><time>2026-02-01T00:05:10.000Z</time></trkpt>
        <trkpt lat="29.178245" lon="104.637975"><ele>467.01483</ele><time>2026-02-01T00:05:17.000Z</time></trkpt>
        <trkpt lat="29.178273" lon="104.637922"><ele>466.50922</ele><time>2026-02-01T00:05:22.000Z</time></trkpt>
        <trkpt lat="29.17831" lon="104.637879"><ele>467.7472</ele><time>2026-02-01T00:05:27.000Z</time></trkpt>
        <trkpt lat="29.178337" lon="104.63783"><ele>468.67828</ele><time>2026-02-01T00:05:33.000Z</time></trkpt>
        <trkpt lat="29.178374" lon="104.637796"><ele>468.30148</ele><time>2026-02-01T00:05:40.000Z</time></trkpt>
        <trkpt lat="29.178411" lon="104.637764"><ele>468.0317</ele><time>2026-02-01T00:05:46.000Z</time></trkpt>
        <trkpt lat="29.178448" lon="104.637719"><ele>468.08902</ele><time>2026-02-01T00:05:51.000Z</time></trkpt>
        <trkpt lat="29.178492" lon="104.6377"><ele>467.52112</ele><time>2026-02-01T00:05:57.000Z</time></trkpt>
        <trkpt lat="29.178543" lon="104.637693"><ele>467.84393</ele><time>2026-02-01T00:06:04.000Z</time></trkpt>
        <trkpt lat="29.178589" lon="104.637691"><ele>467.2881</ele><time>2026-02-01T00:06:11.000Z</time></trkpt>
        <trkpt lat="29.178635" lon="104.637692"><ele>466.98712</ele><time>2026-02-01T00:06:16.000Z</time></trkpt>
        <trkpt lat="29.17868" lon="104.637701"><ele>467.07642</ele><time>2026-02-01T00:06:21.000Z</time></trkpt>
        <trkpt lat="29.178724" lon="104.637723"><ele>467.13007</ele><time>2026-02-01T00:06:27.000Z</time></trkpt>
        <trkpt lat="29.178762" lon="104.637766"><ele>467.6356</ele><time>2026-02-01T00:06:49.000Z</time></trkpt>
        <trkpt lat="29.178807" lon="104.637794"><ele>467.98242</ele><time>2026-02-01T00:06:54.000Z</time></trkpt>
        <trkpt lat="29.178856" lon="104.63782"><ele>467.9687</ele><time>2026-02-01T00:06:59.000Z</time></trkpt>
        <trkpt lat="29.178901" lon="104.637855"><ele>468.22162</ele><time>2026-02-01T00:07:04.000Z</time></trkpt>
        <trkpt lat="29.178939" lon="104.637885"><ele>469.15057</ele><time>2026-02-01T00:07:08.000Z</time></trkpt>
        <trkpt lat="29.178978" lon="104.637912"><ele>469.13394</ele><time>2026-02-01T00:07:12.000Z</time></trkpt>
        <trkpt lat="29.179015" lon="104.637942"><ele>469.52316</ele><time>2026-02-01T00:07:16.000Z</time></trkpt>
        <trkpt lat="29.17906" lon="104.637972"><ele>469.41483</ele><time>2026-02-01T00:07:21.000Z</time></trkpt>
        <trkpt lat="29.1791" lon="104.63801"><ele>469.31253</ele><time>2026-02-01T00:07:26.000Z</time></trkpt>
        <trkpt lat="29.179145" lon="104.638039"><ele>468.6825</ele><time>2026-02-01T00:07:31.000Z</time></trkpt>
        <trkpt lat="29.179191" lon="104.638067"><ele>468.51703</ele><time>2026-02-01T00:07:36.000Z</time></trkpt>
        <trkpt lat="29.179235" lon="104.638092"><ele>468.12357</ele><time>2026-02-01T00:07:41.000Z</time></trkpt>
        <trkpt lat="29.179288" lon="104.638108"><ele>467.58386</ele><time>2026-02-01T00:07:46.000Z</time></trkpt>
        <trkpt lat="29.179336" lon="104.638117"><ele>467.15454</ele><time>2026-02-01T00:07:51.000Z</time></trkpt>
        <trkpt lat="29.17939" lon="104.638127"><ele>466.5779</ele><time>2026-02-01T00:07:56.000Z</time></trkpt>
        <trkpt lat="29.179441" lon="104.638129"><ele>466.16147</ele><time>2026-02-01T00:08:01.000Z</time></trkpt>
        <trkpt lat="29.179495" lon="104.638134"><ele>465.51178</ele><time>2026-02-01T00:08:06.000Z</time></trkpt>
        <trkpt lat="29.179544" lon="104.638136"><ele>465.0656</ele><time>2026-02-01T00:08:10.000Z</time></trkpt>
        <trkpt lat="29.179598" lon="104.638139"><ele>464.8467</ele><time>2026-02-01T00:08:15.000Z</time></trkpt>
        <trkpt lat="29.17965" lon="104.638142"><ele>463.8465</ele><time>2026-02-01T00:08:20.000Z</time></trkpt>
        <trkpt lat="29.179701" lon="104.638141"><ele>463.58228</ele><time>2026-02-01T00:08:24.000Z</time></trkpt>
        <trkpt lat="29.179751" lon="104.638142"><ele>463.7528</ele><time>2026-02-01T00:08:28.000Z</time></trkpt>
        <trkpt lat="29.179805" lon="104.63815"><ele>462.7832</ele><time>2026-02-01T00:08:33.000Z</time></trkpt>
        <trkpt lat="29.179843" lon="104.638182"><ele>462.56387</ele><time>2026-02-01T00:08:55.000Z</time></trkpt>
        <trkpt lat="29.179892" lon="104.638216"><ele>461.172</ele><time>2026-02-01T00:09:03.000Z</time></trkpt>
        <trkpt lat="29.179928" lon="104.638267"><ele>460.32404</ele><time>2026-02-01T00:09:08.000Z</time></trkpt>
        <trkpt lat="29.179965" lon="104.638311"><ele>459.21518</ele><time>2026-02-01T00:09:12.000Z</time></trkpt>
        <trkpt lat="29.179984" lon="104.638363"><ele>459.4498</ele><time>2026-02-01T00:09:16.000Z</time></trkpt>
        <trkpt lat="29.180007" lon="104.638408"><ele>459.9896</ele><time>2026-02-01T00:09:19.000Z</time></trkpt>
        <trkpt lat="29.180017" lon="104.638472"><ele>460.69794</ele><time>2026-02-01T00:09:23.000Z</time></trkpt>
        <trkpt lat="29.180012" lon="104.638534"><ele>461.81195</ele><time>2026-02-01T00:09:27.000Z</time></trkpt>
        <trkpt lat="29.180003" lon="104.638593"><ele>462.83203</ele><time>2026-02-01T00:09:31.000Z</time></trkpt>
        <trkpt lat="29.179989" lon="104.63865"><ele>463.20367</ele><time>2026-02-01T00:09:35.000Z</time></trkpt>
        <trkpt lat="29.179971" lon="104.638706"><ele>463.39172</ele><time>2026-02-01T00:09:39.000Z</time></trkpt>
        <trkpt lat="29.179953" lon="104.638763"><ele>462.4117</ele><time>2026-02-01T00:09:43.000Z</time></trkpt>
        <trkpt lat="29.179965" lon="104.638818"><ele>463.63123</ele><time>2026-02-01T00:09:48.000Z</time></trkpt>
        <trkpt lat="29.179979" lon="104.638874"><ele>464.09924</ele><time>2026-02-01T00:09:53.000Z</time></trkpt>
        <trkpt lat="29.180009" lon="104.638913"><ele>464.7407</ele><time>2026-02-01T00:09:57.000Z</time></trkpt>
        <trkpt lat="29.180056" lon="104.638943"><ele>465.04712</ele><time>2026-02-01T00:10:01.000Z</time></trkpt>
        <trkpt lat="29.180102" lon="104.638966"><ele>465.12033</ele><time>2026-02-01T00:10:06.000Z</time></trkpt>
        <trkpt lat="29.180153" lon="104.638971"><ele>465.23483</ele><time>2026-02-01T00:10:11.000Z</time></trkpt>
        <trkpt lat="29.180201" lon="104.638966"><ele>464.81503</ele><time>2026-02-01T00:10:16.000Z</time></trkpt>
        <trkpt lat="29.180254" lon="104.638951"><ele>464.16943</ele><time>2026-02-01T00:10:24.000Z</time></trkpt>
        <trkpt lat="29.180307" lon="104.638949"><ele>464.779</ele><time>2026-02-01T00:10:29.000Z</time></trkpt>
        <trkpt lat="29.180358" lon="104.638947"><ele>463.45816</ele><time>2026-02-01T00:10:34.000Z</time></trkpt>
        <trkpt lat="29.180415" lon="104.638941"><ele>462.43094</ele><time>2026-02-01T00:10:39.000Z</time></trkpt>
        <trkpt lat="29.180467" lon="104.638936"><ele>461.36026</ele><time>2026-02-01T00:10:45.000Z</time></trkpt>
        <trkpt lat="29.180513" lon="104.638924"><ele>460.37643</ele><time>2026-02-01T00:10:50.000Z</time></trkpt>
        <trkpt lat="29.180565" lon="104.638916"><ele>459.4374</ele><time>2026-02-01T00:10:55.000Z</time></trkpt>
        <trkpt lat="29.180607" lon="104.638892"><ele>458.8276</ele><time>2026-02-01T00:11:00.000Z</time></trkpt>
        <trkpt lat="29.180652" lon="104.638866"><ele>457.61456</ele><time>2026-02-01T00:11:10.000Z</time></trkpt>
        <trkpt lat="29.180692" lon="104.638843"><ele>456.9226</ele><time>2026-02-01T00:11:41.000Z</time></trkpt>
        <trkpt lat="29.180729" lon="104.638812"><ele>456.68542</ele><time>2026-02-01T00:11:45.000Z</time></trkpt>
        <trkpt lat="29.18077" lon="104.63878"><ele>455.90134</ele><time>2026-02-01T00:11:50.000Z</time></trkpt>
        <trkpt lat="29.18081" lon="104.638749"><ele>454.34225</ele><time>2026-02-01T00:11:55.000Z</time></trkpt>
        <trkpt lat="29.180848" lon="104.638713"><ele>453.72546</ele><time>2026-02-01T00:11:59.000Z</time></trkpt>
        <trkpt lat="29.180879" lon="104.638667"><ele>452.88092</ele><time>2026-02-01T00:12:02.000Z</time></trkpt>
        <trkpt lat="29.180921" lon="104.638622"><ele>451.3395</ele><time>2026-02-01T00:12:06.000Z</time></trkpt>
        <trkpt lat="29.180955" lon="104.638582"><ele>450.1301</ele><time>2026-02-01T00:12:10.000Z</time></trkpt>
        <trkpt lat="29.181" lon="104.638546"><ele>448.98666</ele><time>2026-02-01T00:12:14.000Z</time></trkpt>
        <trkpt lat="29.181021" lon="104.638592"><ele>449.04236</ele><time>2026-02-01T00:12:17.000Z</time></trkpt>
        <trkpt lat="29.180988" lon="104.638628"><ele>448.70062</ele><time>2026-02-01T00:12:20.000Z</time></trkpt>
        <trkpt lat="29.180956" lon="104.638671"><ele>449.7054</ele><time>2026-02-01T00:12:24.000Z</time></trkpt>
        <trkpt lat="29.180921" lon="104.63872"><ele>449.63593</ele><time>2026-02-01T00:12:30.000Z</time></trkpt>
        <trkpt lat="29.180891" lon="104.638775"><ele>450.0487</ele><time>2026-02-01T00:12:35.000Z</time></trkpt>
        <trkpt lat="29.180867" lon="104.638831"><ele>450.99808</ele><time>2026-02-01T00:12:39.000Z</time></trkpt>
        <trkpt lat="29.180842" lon="104.63888"><ele>450.78885</ele><time>2026-02-01T00:12:43.000Z</time></trkpt>
        <trkpt lat="29.180825" lon="104.63893"><ele>450.2073</ele><time>2026-02-01T00:12:47.000Z</time></trkpt>
        <trkpt lat="29.180804" lon="104.638979"><ele>449.87735</ele><time>2026-02-01T00:12:51.000Z</time></trkpt>
        <trkpt lat="29.180787" lon="104.639031"><ele>449.42947</ele><time>2026-02-01T00:12:55.000Z</time></trkpt>
        <trkpt lat="29.180775" lon="104.639084"><ele>448.906</ele><time>2026-02-01T00:12:59.000Z</time></trkpt>
        <trkpt lat="29.180753" lon="104.639139"><ele>448.9502</ele><time>2026-02-01T00:13:03.000Z</time></trkpt>
        <trkpt lat="29.180732" lon="104.639197"><ele>449.18677</ele><time>2026-02-01T00:13:07.000Z</time></trkpt>
        <trkpt lat="29.180713" lon="104.639256"><ele>449.47342</ele><time>2026-02-01T00:13:11.000Z</time></trkpt>
        <trkpt lat="29.180699" lon="104.639313"><ele>449.40338</ele><time>2026-02-01T00:13:15.000Z</time></trkpt>
        <trkpt lat="29.180678" lon="104.639367"><ele>450.05655</ele><time>2026-02-01T00:13:19.000Z</time></trkpt>
        <trkpt lat="29.180656" lon="104.639421"><ele>450.19846</ele><time>2026-02-01T00:13:23.000Z</time></trkpt>
        <trkpt lat="29.180628" lon="104.639474"><ele>450.1535</ele><time>2026-02-01T00:13:27.000Z</time></trkpt>
        <trkpt lat="29.180606" lon="104.63953"><ele>450.39905</ele><time>2026-02-01T00:13:31.000Z</time></trkpt>
        <trkpt lat="29.180582" lon="104.639585"><ele>450.52432</ele><time>2026-02-01T00:13:35.000Z</time></trkpt>
        <trkpt lat="29.180563" lon="104.639639"><ele>450.63284</ele><time>2026-02-01T00:13:39.000Z</time></trkpt>
        <trkpt lat="29.180549" lon="104.639691"><ele>450.30664</ele><time>2026-02-01T00:13:43.000Z</time></trkpt>
        <trkpt lat="29.180544" lon="104.639742"><ele>450.95038</ele><time>2026-02-01T00:13:47.000Z</time></trkpt>
        <trkpt lat="29.180534" lon="104.639803"><ele>450.67102</ele><time>2026-02-01T00:13:52.000Z</time></trkpt>
        <trkpt lat="29.180546" lon="104.639865"><ele>450.90274</ele><time>2026-02-01T00:13:57.000Z</time></trkpt>
        <trkpt lat="29.180562" lon="104.639924"><ele>450.7175</ele><time>2026-02-01T00:14:02.000Z</time></trkpt>
        <trkpt lat="29.180592" lon="104.639963"><ele>451.1301</ele><time>2026-02-01T00:14:06.000Z</time></trkpt>
        <trkpt lat="29.180632" lon="104.640008"><ele>453.2981</ele><time>2026-02-01T00:14:19.000Z</time></trkpt>
        <trkpt lat="29.180675" lon="104.640041"><ele>453.21466</ele><time>2026-02-01T00:14:24.000Z</time></trkpt>
        <trkpt lat="29.180724" lon="104.640048"><ele>452.54797</ele><time>2026-02-01T00:14:29.000Z</time></trkpt>
        <trkpt lat="29.180766" lon="104.640019"><ele>453.44452</ele><time>2026-02-01T00:14:44.000Z</time></trkpt>
        <trkpt lat="29.180813" lon="104.639997"><ele>453.75674</ele><time>2026-02-01T00:14:48.000Z</time></trkpt>
        <trkpt lat="29.18085" lon="104.639968"><ele>454.58246</ele><time>2026-02-01T00:15:03.000Z</time></trkpt>
        <trkpt lat="29.180894" lon="104.639941"><ele>454.80237</ele><time>2026-02-01T00:15:09.000Z</time></trkpt>
        <trkpt lat="29.180936" lon="104.639918"><ele>454.22534</ele><time>2026-02-01T00:15:28.000Z</time></trkpt>
        <trkpt lat="29.180979" lon="104.639904"><ele>454.11813</ele><time>2026-02-01T00:15:32.000Z</time></trkpt>
        <trkpt lat="29.181026" lon="104.639911"><ele>454.5847</ele><time>2026-02-01T00:15:38.000Z</time></trkpt>
        <trkpt lat="29.181076" lon="104.639916"><ele>456.0448</ele><time>2026-02-01T00:15:43.000Z</time></trkpt>
        <trkpt lat="29.181125" lon="104.639897"><ele>456.84015</ele><time>2026-02-01T00:15:48.000Z</time></trkpt>
        <trkpt lat="29.18117" lon="104.63988"><ele>456.1566</ele><time>2026-02-01T00:15:53.000Z</time></trkpt>
        <trkpt lat="29.181211" lon="104.63985"><ele>455.51202</ele><time>2026-02-01T00:15:57.000Z</time></trkpt>
        <trkpt lat="29.181257" lon="104.639822"><ele>455.48743</ele><time>2026-02-01T00:16:02.000Z</time></trkpt>
        <trkpt lat="29.181302" lon="104.639807"><ele>455.3995</ele><time>2026-02-01T00:16:06.000Z</time></trkpt>
        <trkpt lat="29.181348" lon="104.639792"><ele>455.12234</ele><time>2026-02-01T00:16:10.000Z</time></trkpt>
        <trkpt lat="29.181397" lon="104.639776"><ele>454.46664</ele><time>2026-02-01T00:16:15.000Z</time></trkpt>
        <trkpt lat="29.181442" lon="104.639764"><ele>454.7512</ele><time>2026-02-01T00:16:23.000Z</time></trkpt>
        <trkpt lat="29.181488" lon="104.639756"><ele>454.66907</ele><time>2026-02-01T00:16:29.000Z</time></trkpt>
        <trkpt lat="29.181534" lon="104.639743"><ele>455.3332</ele><time>2026-02-01T00:16:33.000Z</time></trkpt>
        <trkpt lat="29.181585" lon="104.639759"><ele>455.82068</ele><time>2026-02-01T00:16:37.000Z</time></trkpt>
        <trkpt lat="29.181631" lon="104.639788"><ele>456.39444</ele><time>2026-02-01T00:16:41.000Z</time></trkpt>
        <trkpt lat="29.18167" lon="104.639816"><ele>456.82083</ele><time>2026-02-01T00:16:45.000Z</time></trkpt>
        <trkpt lat="29.181717" lon="104.639822"><ele>456.56235</ele><time>2026-02-01T00:16:50.000Z</time></trkpt>
        <trkpt lat="29.18176" lon="104.639849"><ele>456.35052</ele><time>2026-02-01T00:16:55.000Z</time></trkpt>
        <trkpt lat="29.18181" lon="104.639855"><ele>456.75452</ele><time>2026-02-01T00:17:00.000Z</time></trkpt>
        <trkpt lat="29.181862" lon="104.639877"><ele>456.43835</ele><time>2026-02-01T00:17:09.000Z</time></trkpt>
        <trkpt lat="29.181916" lon="104.639886"><ele>456.43826</ele><time>2026-02-01T00:17:14.000Z</time></trkpt>
        <trkpt lat="29.181961" lon="104.639902"><ele>456.0427</ele><time>2026-02-01T00:17:18.000Z</time></trkpt>
        <trkpt lat="29.182002" lon="104.639928"><ele>455.24173</ele><time>2026-02-01T00:17:22.000Z</time></trkpt>
        <trkpt lat="29.182054" lon="104.639934"><ele>456.68246</ele><time>2026-02-01T00:17:26.000Z</time></trkpt>
        <trkpt lat="29.182076" lon="104.63998"><ele>459.19077</ele><time>2026-02-01T00:17:59.000Z</time></trkpt>
        <trkpt lat="29.182127" lon="104.639979"><ele>458.95285</ele><time>2026-02-01T00:18:22.000Z</time></trkpt>
        <trkpt lat="29.182181" lon="104.639957"><ele>458.8646</ele><time>2026-02-01T00:18:27.000Z</time></trkpt>
        <trkpt lat="29.182227" lon="104.639922"><ele>458.45288</ele><time>2026-02-01T00:18:33.000Z</time></trkpt>
        <trkpt lat="29.182275" lon="104.639887"><ele>458.52692</ele><time>2026-02-01T00:18:38.000Z</time></trkpt>
        <trkpt lat="29.182321" lon="104.639861"><ele>459.21817</ele><time>2026-02-01T00:18:44.000Z</time></trkpt>
        <trkpt lat="29.182372" lon="104.639844"><ele>459.54022</ele><time>2026-02-01T00:18:48.000Z</time></trkpt>
        <trkpt lat="29.182417" lon="104.63983"><ele>458.9433</ele><time>2026-02-01T00:18:53.000Z</time></trkpt>
        <trkpt lat="29.182471" lon="104.639822"><ele>458.72498</ele><time>2026-02-01T00:18:58.000Z</time></trkpt>
        <trkpt lat="29.182518" lon="104.639826"><ele>459.02176</ele><time>2026-02-01T00:19:02.000Z</time></trkpt>
        <trkpt lat="29.18257" lon="104.639833"><ele>459.28305</ele><time>2026-02-01T00:19:07.000Z</time></trkpt>
        <trkpt lat="29.182607" lon="104.639865"><ele>460.9864</ele><time>2026-02-01T00:19:54.000Z</time></trkpt>
        <trkpt lat="29.182654" lon="104.639899"><ele>460.29623</ele><time>2026-02-01T00:20:00.000Z</time></trkpt>
        <trkpt lat="29.182709" lon="104.639914"><ele>459.04565</ele><time>2026-02-01T00:20:06.000Z</time></trkpt>
        <trkpt lat="29.182759" lon="104.639935"><ele>459.68906</ele><time>2026-02-01T00:20:11.000Z</time></trkpt>
        <trkpt lat="29.182804" lon="104.639941"><ele>459.77188</ele><time>2026-02-01T00:20:15.000Z</time></trkpt>
        <trkpt lat="29.182855" lon="104.639963"><ele>459.1844</ele><time>2026-02-01T00:20:20.000Z</time></trkpt>
        <trkpt lat="29.182906" lon="104.639972"><ele>459.14264</ele><time>2026-02-01T00:20:24.000Z</time></trkpt>
        <trkpt lat="29.182953" lon="104.639968"><ele>459.19873</ele><time>2026-02-01T00:20:29.000Z</time></trkpt>
        <trkpt lat="29.183002" lon="104.639961"><ele>457.2996</ele><time>2026-02-01T00:20:41.000Z</time></trkpt>
        <trkpt lat="29.183057" lon="104.63995"><ele>456.05795</ele><time>2026-02-01T00:20:46.000Z</time></trkpt>
        <trkpt lat="29.183099" lon="104.639931"><ele>455.39374</ele><time>2026-02-01T00:20:55.000Z</time></trkpt>
        <trkpt lat="29.183143" lon="104.639892"><ele>454.31647</ele><time>2026-02-01T00:21:00.000Z</time></trkpt>
        <trkpt lat="29.18318" lon="104.63985"><ele>453.17587</ele><time>2026-02-01T00:21:05.000Z</time></trkpt>
        <trkpt lat="29.18322" lon="104.639812"><ele>452.07773</ele><time>2026-02-01T00:21:10.000Z</time></trkpt>
        <trkpt lat="29.183262" lon="104.639791"><ele>451.05606</ele><time>2026-02-01T00:21:44.000Z</time></trkpt>
        <trkpt lat="29.183308" lon="104.639775"><ele>449.6015</ele><time>2026-02-01T00:21:50.000Z</time></trkpt>
        <trkpt lat="29.183354" lon="104.639773"><ele>448.26486</ele><time>2026-02-01T00:21:57.000Z</time></trkpt>
        <trkpt lat="29.183397" lon="104.639757"><ele>447.1078</ele><time>2026-02-01T00:22:02.000Z</time></trkpt>
        <trkpt lat="29.183446" lon="104.639729"><ele>445.32434</ele><time>2026-02-01T00:22:07.000Z</time></trkpt>
        <trkpt lat="29.183487" lon="104.639689"><ele>443.74765</ele><time>2026-02-01T00:22:12.000Z</time></trkpt>
        <trkpt lat="29.18351" lon="104.639638"><ele>442.736</ele><time>2026-02-01T00:22:17.000Z</time></trkpt>
        <trkpt lat="29.183553" lon="104.63962"><ele>442.86313</ele><time>2026-02-01T00:22:53.000Z</time></trkpt>
      </trkseg>
      <trkseg>
        <trkpt lat="29.183562" lon="104.639555"><ele>448.66913</ele><time>2026-02-01T00:28:24.000Z</time></trkpt>
        <trkpt lat="29.183553" lon="104.6395"><ele>448.43414</ele><time>2026-02-01T00:28:30.000Z</time></trkpt>
        <trkpt lat="29.183568" lon="104.639441"><ele>448.015</ele><time>2026-02-01T00:28:35.000Z</time></trkpt>
        <trkpt lat="29.183566" lon="104.639377"><ele>447.20996</ele><time>2026-02-01T00:28:40.000Z</time></trkpt>
        <trkpt lat="29.183543" lon="104.639326"><ele>446.72296</ele><time>2026-02-01T00:28:45.000Z</time></trkpt>
        <trkpt lat="29.183507" lon="104.639273"><ele>446.41797</ele><time>2026-02-01T00:28:50.000Z</time></trkpt>
        <trkpt lat="29.183471" lon="104.639232"><ele>441.66483</ele><time>2026-02-01T00:28:55.000Z</time></trkpt>
        <trkpt lat="29.183452" lon="104.63917"><ele>439.79398</ele><time>2026-02-01T00:29:02.000Z</time></trkpt>
        <trkpt lat="29.183434" lon="104.639111"><ele>438.43018</ele><time>2026-02-01T00:29:06.000Z</time></trkpt>
        <trkpt lat="29.183432" lon="104.639051"><ele>437.9028</ele><time>2026-02-01T00:29:10.000Z</time></trkpt>
        <trkpt lat="29.183428" lon="104.638994"><ele>437.5708</ele><time>2026-02-01T00:29:14.000Z</time></trkpt>
        <trkpt lat="29.183433" lon="104.638937"><ele>437.21466</ele><time>2026-02-01T00:29:18.000Z</time></trkpt>
        <trkpt lat="29.183447" lon="104.638881"><ele>436.15973</ele><time>2026-02-01T00:29:22.000Z</time></trkpt>
        <trkpt lat="29.183452" lon="104.638826"><ele>435.32846</ele><time>2026-02-01T00:29:26.000Z</time></trkpt>
        <trkpt lat="29.183476" lon="104.638779"><ele>435.16217</ele><time>2026-02-01T00:29:30.000Z</time></trkpt>
        <trkpt lat="29.183497" lon="104.63873"><ele>434.05344</ele><time>2026-02-01T00:29:34.000Z</time></trkpt>
        <trkpt lat="29.18351" lon="104.638675"><ele>433.07727</ele><time>2026-02-01T00:29:38.000Z</time></trkpt>
        <trkpt lat="29.183543" lon="104.638632"><ele>432.41574</ele><time>2026-02-01T00:29:42.000Z</time></trkpt>
        <trkpt lat="29.183569" lon="104.638587"><ele>431.37967</ele><time>2026-02-01T00:29:46.000Z</time></trkpt>
        <trkpt lat="29.183583" lon="104.638537"><ele>430.22174</ele><time>2026-02-01T00:29:50.000Z</time></trkpt>
        <trkpt lat="29.183601" lon="104.638477"><ele>429.29065</ele><time>2026-02-01T00:29:55.000Z</time></trkpt>
        <trkpt lat="29.183611" lon="104.638415"><ele>428.56924</ele><time>2026-02-01T00:30:00.000Z</time></trkpt>
        <trkpt lat="29.183618" lon="104.63836"><ele>427.67337</ele><time>2026-02-01T00:30:04.000Z</time></trkpt>
        <trkpt lat="29.183618" lon="104.638306"><ele>426.77542</ele><time>2026-02-01T00:30:08.000Z</time></trkpt>
        <trkpt lat="29.183613" lon="104.638252"><ele>426.2377</ele><time>2026-02-01T00:30:12.000Z</time></trkpt>
        <trkpt lat="29.183618" lon="104.638197"><ele>426.2944</ele><time>2026-02-01T00:30:16.000Z</time></trkpt>
        <trkpt lat="29.183621" lon="104.638143"><ele>425.73834</ele><time>2026-02-01T00:30:20.000Z</time></trkpt>
        <trkpt lat="29.183625" lon="104.638089"><ele>425.376</ele><time>2026-02-01T00:30:24.000Z</time></trkpt>
        <trkpt lat="29.183636" lon="104.638038"><ele>424.0468</ele><time>2026-02-01T00:30:28.000Z</time></trkpt>
        <trkpt lat="29.183634" lon="104.63798"><ele>424.05963</ele><time>2026-02-01T00:30:32.000Z</time></trkpt>
        <trkpt lat="29.183649" lon="104.637929"><ele>423.71606</ele><time>2026-02-01T00:30:36.000Z</time></trkpt>
        <trkpt lat="29.183651" lon="104.637874"><ele>423.89954</ele><time>2026-02-01T00:30:47.000Z</time></trkpt>
        <trkpt lat="29.183661" lon="104.637813"><ele>423.63373</ele><time>2026-02-01T00:30:52.000Z</time></trkpt>
        <trkpt lat="29.183669" lon="104.637762"><ele>423.33942</ele><time>2026-02-01T00:30:56.000Z</time></trkpt>
        <trkpt lat="29.183692" lon="104.637704"><ele>422.83774</ele><time>2026-02-01T00:31:01.000Z</time></trkpt>
      </trkseg>
      <trkseg>
        <trkpt lat="29.18372" lon="104.637664"><ele>422.66708</ele><time>2026-02-01T00:31:26.000Z</time></trkpt>
        <trkpt lat="29.183733" lon="104.637613"><ele>421.48953</ele><time>2026-02-01T00:31:31.000Z</time></trkpt>
        <trkpt lat="29.183753" lon="104.637562"><ele>420.717</ele><time>2026-02-01T00:31:36.000Z</time></trkpt>
        <trkpt lat="29.183774" lon="104.637507"><ele>419.551</ele><time>2026-02-01T00:31:41.000Z</time></trkpt>
        <trkpt lat="29.183773" lon="104.637452"><ele>419.7842</ele><time>2026-02-01T00:31:57.000Z</time></trkpt>
      </trkseg>
      <trkseg>
        <trkpt lat="29.183712" lon="104.637162"><ele>420.11185</ele><time>2026-02-01T00:35:52.000Z</time></trkpt>
        <trkpt lat="29.183703" lon="104.637109"><ele>421.4934</ele><time>2026-02-01T00:35:57.000Z</time></trkpt>
        <trkpt lat="29.183718" lon="104.637159"><ele>420.92834</ele><time>2026-02-01T00:36:05.000Z</time></trkpt>
        <trkpt lat="29.183767" lon="104.63717"><ele>420.51532</ele><time>2026-02-01T00:36:12.000Z</time></trkpt>
        <trkpt lat="29.183795" lon="104.637212"><ele>418.9539</ele><time>2026-02-01T00:37:02.000Z</time></trkpt>
        <trkpt lat="29.183825" lon="104.637167"><ele>417.37625</ele><time>2026-02-01T00:40:36.000Z</time></trkpt>
        <trkpt lat="29.183867" lon="104.637136"><ele>416.07968</ele><time>2026-02-01T00:40:56.000Z</time></trkpt>
        <trkpt lat="29.183914" lon="104.637141"><ele>414.50772</ele><time>2026-02-01T00:41:08.000Z</time></trkpt>
        <trkpt lat="29.183958" lon="104.63713"><ele>413.5291</ele><time>2026-02-01T00:41:23.000Z</time></trkpt>
        <trkpt lat="29.183977" lon="104.637082"><ele>412.53702</ele><time>2026-02-01T00:41:28.000Z</time></trkpt>
        <trkpt lat="29.183991" lon="104.637032"><ele>410.64917</ele><time>2026-02-01T00:41:34.000Z</time></trkpt>
        <trkpt lat="29.184031" lon="104.637002"><ele>409.15674</ele><time>2026-02-01T00:42:32.000Z</time></trkpt>
        <trkpt lat="29.184078" lon="104.636981"><ele>408.55463</ele><time>2026-02-01T00:42:41.000Z</time></trkpt>
        <trkpt lat="29.184125" lon="104.636989"><ele>406.10532</ele><time>2026-02-01T00:42:56.000Z</time></trkpt>
        <trkpt lat="29.184169" lon="104.636974"><ele>404.09244</ele><time>2026-02-01T00:43:15.000Z</time></trkpt>
        <trkpt lat="29.184173" lon="104.636908"><ele>403.82288</ele><time>2026-02-01T00:43:21.000Z</time></trkpt>
        <trkpt lat="29.184235" lon="104.636916"><ele>402.50735</ele><time>2026-02-01T00:43:32.000Z</time></trkpt>
        <trkpt lat="29.184284" lon="104.636919"><ele>403.70645</ele><time>2026-02-01T00:43:38.000Z</time></trkpt>
        <trkpt lat="29.184331" lon="104.636915"><ele>403.95477</ele><time>2026-02-01T00:43:43.000Z</time></trkpt>
        <trkpt lat="29.184378" lon="104.636921"><ele>407.01837</ele><time>2026-02-01T00:44:12.000Z</time></trkpt>
        <trkpt lat="29.184434" lon="104.636931"><ele>409.1025</ele><time>2026-02-01T00:44:52.000Z</time></trkpt>
        <trkpt lat="29.184464" lon="104.636889"><ele>409.79114</ele><time>2026-02-01T00:45:05.000Z</time></trkpt>
        <trkpt lat="29.184473" lon="104.636827"><ele>411.1491</ele><time>2026-02-01T00:45:11.000Z</time></trkpt>
        <trkpt lat="29.184469" lon="104.636773"><ele>412.06024</ele><time>2026-02-01T00:45:16.000Z</time></trkpt>
        <trkpt lat="29.184471" lon="104.636716"><ele>412.41678</ele><time>2026-02-01T00:45:23.000Z</time></trkpt>
        <trkpt lat="29.184506" lon="104.636682"><ele>415.5457</ele><time>2026-02-01T00:46:43.000Z</time></trkpt>
        <trkpt lat="29.184531" lon="104.636735"><ele>413.69843</ele><time>2026-02-01T00:47:04.000Z</time></trkpt>
        <trkpt lat="29.184544" lon="104.636795"><ele>414.84924</ele><time>2026-02-01T00:47:16.000Z</time></trkpt>
        <trkpt lat="29.184546" lon="104.636855"><ele>415.1905</ele><time>2026-02-01T00:47:27.000Z</time></trkpt>
        <trkpt lat="29.184543" lon="104.636909"><ele>414.7743</ele><time>2026-02-01T00:47:32.000Z</time></trkpt>
        <trkpt lat="29.184535" lon="104.636969"><ele>414.35422</ele><time>2026-02-01T00:47:37.000Z</time></trkpt>
        <trkpt lat="29.184533" lon="104.637032"><ele>413.8884</ele><time>2026-02-01T00:47:52.000Z</time></trkpt>
        <trkpt lat="29.184528" lon="104.637085"><ele>415.11597</ele><time>2026-02-01T00:47:57.000Z</time></trkpt>
        <trkpt lat="29.184525" lon="104.637029"><ele>414.8517</ele><time>2026-02-01T00:48:04.000Z</time></trkpt>
        <trkpt lat="29.18454" lon="104.636977"><ele>415.29974</ele><time>2026-02-01T00:48:08.000Z</time></trkpt>
        <trkpt lat="29.184531" lon="104.636921"><ele>415.286</ele><time>2026-02-01T00:48:19.000Z</time></trkpt>
        <trkpt lat="29.184541" lon="104.63686"><ele>415.34464</ele><time>2026-02-01T00:48:24.000Z</time></trkpt>
        <trkpt lat="29.18454" lon="104.636809"><ele>415.2314</ele><time>2026-02-01T00:48:28.000Z</time></trkpt>
        <trkpt lat="29.184524" lon="104.636754"><ele>415.18784</ele><time>2026-02-01T00:48:34.000Z</time></trkpt>
        <trkpt lat="29.184495" lon="104.636701"><ele>414.02878</ele><time>2026-02-01T00:48:40.000Z</time></trkpt>
        <trkpt lat="29.184483" lon="104.636649"><ele>412.52634</ele><time>2026-02-01T00:49:07.000Z</time></trkpt>
        <trkpt lat="29.184522" lon="104.636679"><ele>413.5105</ele><time>2026-02-01T00:49:24.000Z</time></trkpt>
        <trkpt lat="29.184563" lon="104.636703"><ele>414.73328</ele><time>2026-02-01T00:49:51.000Z</time></trkpt>
        <trkpt lat="29.184562" lon="104.636758"><ele>413.65628</ele><time>2026-02-01T00:50:11.000Z</time></trkpt>
        <trkpt lat="29.184599" lon="104.636723"><ele>414.64566</ele><time>2026-02-01T00:50:39.000Z</time></trkpt>
        <trkpt lat="29.184652" lon="104.636713"><ele>413.78635</ele><time>2026-02-01T00:51:23.000Z</time></trkpt>
        <trkpt lat="29.184697" lon="104.636737"><ele>415.958</ele><time>2026-02-01T00:51:30.000Z</time></trkpt>
        <trkpt lat="29.184728" lon="104.636776"><ele>417.0204</ele><time>2026-02-01T00:51:54.000Z</time></trkpt>
        <trkpt lat="29.184766" lon="104.636812"><ele>417.65363</ele><time>2026-02-01T00:52:00.000Z</time></trkpt>
        <trkpt lat="29.184814" lon="104.636835"><ele>418.69794</ele><time>2026-02-01T00:52:06.000Z</time></trkpt>
        <trkpt lat="29.184864" lon="104.636825"><ele>417.96213</ele><time>2026-02-01T00:52:31.000Z</time></trkpt>
        <trkpt lat="29.184908" lon="104.636839"><ele>418.73694</ele><time>2026-02-01T00:52:37.000Z</time></trkpt>
        <trkpt lat="29.184954" lon="104.636828"><ele>418.45883</ele><time>2026-02-01T00:52:41.000Z</time></trkpt>
        <trkpt lat="29.185004" lon="104.636826"><ele>419.02866</ele><time>2026-02-01T00:52:47.000Z</time></trkpt>
        <trkpt lat="29.185039" lon="104.636869"><ele>419.14758</ele><time>2026-02-01T00:53:24.000Z</time></trkpt>
        <trkpt lat="29.185069" lon="104.636928"><ele>419.00238</ele><time>2026-02-01T00:53:29.000Z</time></trkpt>
        <trkpt lat="29.185081" lon="104.636978"><ele>420.50333</ele><time>2026-02-01T00:53:34.000Z</time></trkpt>
        <trkpt lat="29.185092" lon="104.637036"><ele>420.79572</ele><time>2026-02-01T00:53:43.000Z</time></trkpt>
        <trkpt lat="29.185105" lon="104.637091"><ele>420.94412</ele><time>2026-02-01T00:53:49.000Z</time></trkpt>
        <trkpt lat="29.18511" lon="104.637143"><ele>421.52487</ele><time>2026-02-01T00:53:53.000Z</time></trkpt>
        <trkpt lat="29.185094" lon="104.6372"><ele>422.3958</ele><time>2026-02-01T00:53:59.000Z</time></trkpt>
        <trkpt lat="29.185097" lon="104.63726"><ele>423.09116</ele><time>2026-02-01T00:54:04.000Z</time></trkpt>
        <trkpt lat="29.185116" lon="104.637315"><ele>422.7686</ele><time>2026-02-01T00:54:09.000Z</time></trkpt>
        <trkpt lat="29.185144" lon="104.637357"><ele>423.3166</ele><time>2026-02-01T00:54:32.000Z</time></trkpt>
        <trkpt lat="29.185165" lon="104.63741"><ele>423.77362</ele><time>2026-02-01T00:54:39.000Z</time></trkpt>
        <trkpt lat="29.185175" lon="104.637464"><ele>423.58417</ele><time>2026-02-01T00:54:44.000Z</time></trkpt>
        <trkpt lat="29.185169" lon="104.637413"><ele>423.28397</ele><time>2026-02-01T00:54:52.000Z</time></trkpt>
        <trkpt lat="29.185144" lon="104.637367"><ele>421.89258</ele><time>2026-02-01T00:55:05.000Z</time></trkpt>
        <trkpt lat="29.185147" lon="104.637426"><ele>422.50726</ele><time>2026-02-01T00:55:25.000Z</time></trkpt>
        <trkpt lat="29.185162" lon="104.637484"><ele>422.58536</ele><time>2026-02-01T00:55:30.000Z</time></trkpt>
        <trkpt lat="29.18518" lon="104.637533"><ele>422.16382</ele><time>2026-02-01T00:55:35.000Z</time></trkpt>
        <trkpt lat="29.185177" lon="104.637585"><ele>421.83276</ele><time>2026-02-01T00:55:40.000Z</time></trkpt>
        <trkpt lat="29.185168" lon="104.637645"><ele>421.9347</ele><time>2026-02-01T00:55:45.000Z</time></trkpt>
        <trkpt lat="29.185167" lon="104.637705"><ele>422.50864</ele><time>2026-02-01T00:55:51.000Z</time></trkpt>
        <trkpt lat="29.185206" lon="104.637734"><ele>422.14774</ele><time>2026-02-01T00:55:56.000Z</time></trkpt>
        <trkpt lat="29.18524" lon="104.637784"><ele>422.15573</ele><time>2026-02-01T00:56:01.000Z</time></trkpt>
        <trkpt lat="29.185278" lon="104.637823"><ele>421.90933</ele><time>2026-02-01T00:56:06.000Z</time></trkpt>
        <trkpt lat="29.185326" lon="104.63784"><ele>421.16907</ele><time>2026-02-01T00:56:11.000Z</time></trkpt>
        <trkpt lat="29.185376" lon="104.637862"><ele>420.7494</ele><time>2026-02-01T00:56:17.000Z</time></trkpt>
        <trkpt lat="29.185424" lon="104.637881"><ele>420.30078</ele><time>2026-02-01T00:56:22.000Z</time></trkpt>
        <trkpt lat="29.185475" lon="104.637887"><ele>419.906</ele><time>2026-02-01T00:56:26.000Z</time></trkpt>
        <trkpt lat="29.185527" lon="104.637896"><ele>420.64993</ele><time>2026-02-01T00:56:30.000Z</time></trkpt>
        <trkpt lat="29.185577" lon="104.637897"><ele>420.61813</ele><time>2026-02-01T00:56:34.000Z</time></trkpt>
        <trkpt lat="29.185624" lon="104.637903"><ele>421.62415</ele><time>2026-02-01T00:57:05.000Z</time></trkpt>
        <trkpt lat="29.185664" lon="104.637926"><ele>421.58868</ele><time>2026-02-01T00:57:10.000Z</time></trkpt>
        <trkpt lat="29.185695" lon="104.637968"><ele>422.70364</ele><time>2026-02-01T00:57:15.000Z</time></trkpt>
        <trkpt lat="29.185694" lon="104.63803"><ele>423.40082</ele><time>2026-02-01T00:57:19.000Z</time></trkpt>
        <trkpt lat="29.185717" lon="104.638079"><ele>423.3858</ele><time>2026-02-01T00:57:23.000Z</time></trkpt>
        <trkpt lat="29.185747" lon="104.638129"><ele>423.1306</ele><time>2026-02-01T00:57:27.000Z</time></trkpt>
        <trkpt lat="29.185787" lon="104.638166"><ele>422.98242</ele><time>2026-02-01T00:57:31.000Z</time></trkpt>
        <trkpt lat="29.185834" lon="104.63819"><ele>422.60788</ele><time>2026-02-01T00:57:35.000Z</time></trkpt>
        <trkpt lat="29.185887" lon="104.638202"><ele>423.207</ele><time>2026-02-01T00:57:39.000Z</time></trkpt>
        <trkpt lat="29.185938" lon="104.638213"><ele>423.09244</ele><time>2026-02-01T00:57:43.000Z</time></trkpt>
        <trkpt lat="29.18599" lon="104.638218"><ele>423.5269</ele><time>2026-02-01T00:57:47.000Z</time></trkpt>
        <trkpt lat="29.186041" lon="104.638232"><ele>423.46863</ele><time>2026-02-01T00:57:51.000Z</time></trkpt>
        <trkpt lat="29.186092" lon="104.638238"><ele>423.30646</ele><time>2026-02-01T00:57:55.000Z</time></trkpt>
        <trkpt lat="29.18614" lon="104.638231"><ele>423.02158</ele><time>2026-02-01T00:57:59.000Z</time></trkpt>
        <trkpt lat="29.18619" lon="104.638239"><ele>423.47183</ele><time>2026-02-01T00:58:04.000Z</time></trkpt>
        <trkpt lat="29.186242" lon="104.63824"><ele>423.4859</ele><time>2026-02-01T00:58:25.000Z</time></trkpt>
        <trkpt lat="29.186298" lon="104.638244"><ele>422.90186</ele><time>2026-02-01T00:58:30.000Z</time></trkpt>
        <trkpt lat="29.186347" lon="104.638246"><ele>423.98453</ele><time>2026-02-01T00:58:34.000Z</time></trkpt>
        <trkpt lat="29.186403" lon="104.638243"><ele>422.85556</ele><time>2026-02-01T00:58:38.000Z</time></trkpt>
        <trkpt lat="29.186454" lon="104.638239"><ele>421.8617</ele><time>2026-02-01T00:58:43.000Z</time></trkpt>
        <trkpt lat="29.186504" lon="104.638241"><ele>421.52615</ele><time>2026-02-01T00:58:48.000Z</time></trkpt>
        <trkpt lat="29.186552" lon="104.638242"><ele>421.11078</ele><time>2026-02-01T00:58:52.000Z</time></trkpt>
        <trkpt lat="29.186612" lon="104.638237"><ele>420.57492</ele><time>2026-02-01T00:58:57.000Z</time></trkpt>
        <trkpt lat="29.186661" lon="104.638209"><ele>421.30374</ele><time>2026-02-01T00:59:13.000Z</time></trkpt>
        <trkpt lat="29.186703" lon="104.638187"><ele>420.16785</ele><time>2026-02-01T00:59:23.000Z</time></trkpt>
        <trkpt lat="29.186749" lon="104.638174"><ele>419.50595</ele><time>2026-02-01T00:59:27.000Z</time></trkpt>
        <trkpt lat="29.186794" lon="104.63815"><ele>418.96243</ele><time>2026-02-01T00:59:38.000Z</time></trkpt>
        <trkpt lat="29.186843" lon="104.638121"><ele>417.78827</ele><time>2026-02-01T00:59:42.000Z</time></trkpt>
        <trkpt lat="29.186885" lon="104.638094"><ele>417.01392</ele><time>2026-02-01T00:59:46.000Z</time></trkpt>
        <trkpt lat="29.186917" lon="104.638055"><ele>416.34988</ele><time>2026-02-01T00:59:50.000Z</time></trkpt>
        <trkpt lat="29.186948" lon="104.638013"><ele>415.9224</ele><time>2026-02-01T00:59:54.000Z</time></trkpt>
        <trkpt lat="29.186993" lon="104.637974"><ele>415.55975</ele><time>2026-02-01T00:59:58.000Z</time></trkpt>
        <trkpt lat="29.187031" lon="104.637934"><ele>414.00223</ele><time>2026-02-01T01:00:03.000Z</time></trkpt>
        <trkpt lat="29.187051" lon="104.637879"><ele>413.0007</ele><time>2026-02-01T01:00:07.000Z</time></trkpt>
        <trkpt lat="29.187059" lon="104.63782"><ele>411.66302</ele><time>2026-02-01T01:00:11.000Z</time></trkpt>
        <trkpt lat="29.187061" lon="104.637764"><ele>410.85327</ele><time>2026-02-01T01:00:15.000Z</time></trkpt>
        <trkpt lat="29.187058" lon="104.637705"><ele>410.9897</ele><time>2026-02-01T01:00:19.000Z</time></trkpt>
        <trkpt lat="29.187056" lon="104.637649"><ele>411.21378</ele><time>2026-02-01T01:00:23.000Z</time></trkpt>
        <trkpt lat="29.187061" lon="104.637588"><ele>410.741</ele><time>2026-02-01T01:00:31.000Z</time></trkpt>
        <trkpt lat="29.187065" lon="104.637533"><ele>410.0407</ele><time>2026-02-01T01:00:35.000Z</time></trkpt>
        <trkpt lat="29.187067" lon="104.637478"><ele>410.78586</ele><time>2026-02-01T01:00:40.000Z</time></trkpt>
        <trkpt lat="29.18707" lon="104.637423"><ele>410.24106</ele><time>2026-02-01T01:00:44.000Z</time></trkpt>
        <trkpt lat="29.187075" lon="104.637366"><ele>410.20502</ele><time>2026-02-01T01:00:48.000Z</time></trkpt>
        <trkpt lat="29.187075" lon="104.637305"><ele>409.62405</ele><time>2026-02-01T01:00:52.000Z</time></trkpt>
        <trkpt lat="29.187062" lon="104.637246"><ele>409.3797</ele><time>2026-02-01T01:00:56.000Z</time></trkpt>
        <trkpt lat="29.187046" lon="104.637193"><ele>408.88834</ele><time>2026-02-01T01:01:00.000Z</time></trkpt>
        <trkpt lat="29.187028" lon="104.63714"><ele>408.99673</ele><time>2026-02-01T01:01:04.000Z</time></trkpt>
        <trkpt lat="29.187017" lon="104.637089"><ele>408.2761</ele><time>2026-02-01T01:01:08.000Z</time></trkpt>
        <trkpt lat="29.187006" lon="104.637034"><ele>407.96652</ele><time>2026-02-01T01:01:12.000Z</time></trkpt>
        <trkpt lat="29.187004" lon="104.63698"><ele>405.5199</ele><time>2026-02-01T01:01:18.000Z</time></trkpt>
        <trkpt lat="29.186992" lon="104.636921"><ele>405.6783</ele><time>2026-02-01T01:01:23.000Z</time></trkpt>
        <trkpt lat="29.186984" lon="104.636862"><ele>406.31827</ele><time>2026-02-01T01:01:28.000Z</time></trkpt>
        <trkpt lat="29.186978" lon="104.636803"><ele>405.679</ele><time>2026-02-01T01:01:48.000Z</time></trkpt>
        <trkpt lat="29.186981" lon="104.636744"><ele>405.7426</ele><time>2026-02-01T01:01:53.000Z</time></trkpt>
        <trkpt lat="29.186992" lon="104.636692"><ele>405.8218</ele><time>2026-02-01T01:02:05.000Z</time></trkpt>
        <trkpt lat="29.18702" lon="104.636651"><ele>405.8671</ele><time>2026-02-01T01:02:09.000Z</time></trkpt>
        <trkpt lat="29.18706" lon="104.636613"><ele>405.6488</ele><time>2026-02-01T01:02:15.000Z</time></trkpt>
        <trkpt lat="29.187107" lon="104.636601"><ele>405.64752</ele><time>2026-02-01T01:02:19.000Z</time></trkpt>
        <trkpt lat="29.187157" lon="104.636588"><ele>406.24515</ele><time>2026-02-01T01:02:46.000Z</time></trkpt>
        <trkpt lat="29.187203" lon="104.636582"><ele>406.04636</ele><time>2026-02-01T01:02:50.000Z</time></trkpt>
        <trkpt lat="29.187259" lon="104.636573"><ele>406.4106</ele><time>2026-02-01T01:02:57.000Z</time></trkpt>
        <trkpt lat="29.187308" lon="104.636567"><ele>406.97006</ele><time>2026-02-01T01:03:01.000Z</time></trkpt>
        <trkpt lat="29.187364" lon="104.636549"><ele>407.29526</ele><time>2026-02-01T01:03:05.000Z</time></trkpt>
        <trkpt lat="29.187417" lon="104.636528"><ele>407.99268</ele><time>2026-02-01T01:03:09.000Z</time></trkpt>
        <trkpt lat="29.187456" lon="104.636497"><ele>408.09418</ele><time>2026-02-01T01:03:13.000Z</time></trkpt>
        <trkpt lat="29.187486" lon="104.636456"><ele>407.6421</ele><time>2026-02-01T01:03:16.000Z</time></trkpt>
        <trkpt lat="29.187519" lon="104.636413"><ele>409.28436</ele><time>2026-02-01T01:03:20.000Z</time></trkpt>
        <trkpt lat="29.187557" lon="104.636368"><ele>409.30374</ele><time>2026-02-01T01:03:24.000Z</time></trkpt>
        <trkpt lat="29.187592" lon="104.636317"><ele>409.23447</ele><time>2026-02-01T01:03:28.000Z</time></trkpt>
        <trkpt lat="29.18763" lon="104.636282"><ele>409.8577</ele><time>2026-02-01T01:03:32.000Z</time></trkpt>
        <trkpt lat="29.187666" lon="104.636237"><ele>410.19226</ele><time>2026-02-01T01:03:36.000Z</time></trkpt>
        <trkpt lat="29.187701" lon="104.636188"><ele>411.2106</ele><time>2026-02-01T01:03:40.000Z</time></trkpt>
        <trkpt lat="29.18773" lon="104.636147"><ele>410.6536</ele><time>2026-02-01T01:03:43.000Z</time></trkpt>
        <trkpt lat="29.18777" lon="104.636111"><ele>411.16458</ele><time>2026-02-01T01:04:42.000Z</time></trkpt>
        <trkpt lat="29.187816" lon="104.636115"><ele>410.26273</ele><time>2026-02-01T01:04:56.000Z</time></trkpt>
        <trkpt lat="29.187862" lon="104.636114"><ele>411.98477</ele><time>2026-02-01T01:05:46.000Z</time></trkpt>
        <trkpt lat="29.187912" lon="104.636124"><ele>411.30707</ele><time>2026-02-01T01:06:01.000Z</time></trkpt>
        <trkpt lat="29.187945" lon="104.636167"><ele>411.29572</ele><time>2026-02-01T01:06:08.000Z</time></trkpt>
        <trkpt lat="29.187983" lon="104.636206"><ele>411.84995</ele><time>2026-02-01T01:06:15.000Z</time></trkpt>
        <trkpt lat="29.188022" lon="104.636252"><ele>412.3821</ele><time>2026-02-01T01:06:19.000Z</time></trkpt>
        <trkpt lat="29.188065" lon="104.636288"><ele>413.9476</ele><time>2026-02-01T01:06:23.000Z</time></trkpt>
        <trkpt lat="29.188112" lon="104.636303"><ele>413.8398</ele><time>2026-02-01T01:06:27.000Z</time></trkpt>
        <trkpt lat="29.188166" lon="104.636312"><ele>414.21512</ele><time>2026-02-01T01:06:31.000Z</time></trkpt>
        <trkpt lat="29.188214" lon="104.636331"><ele>412.67758</ele><time>2026-02-01T01:06:36.000Z</time></trkpt>
        <trkpt lat="29.18826" lon="104.63635"><ele>412.89105</ele><time>2026-02-01T01:06:48.000Z</time></trkpt>
        <trkpt lat="29.18831" lon="104.636366"><ele>413.15692</ele><time>2026-02-01T01:06:53.000Z</time></trkpt>
        <trkpt lat="29.188355" lon="104.636378"><ele>412.9265</ele><time>2026-02-01T01:06:58.000Z</time></trkpt>
        <trkpt lat="29.18841" lon="104.636386"><ele>412.1411</ele><time>2026-02-01T01:07:30.000Z</time></trkpt>
        <trkpt lat="29.188467" lon="104.636391"><ele>411.59476</ele><time>2026-02-01T01:07:39.000Z</time></trkpt>
        <trkpt lat="29.188514" lon="104.6364"><ele>410.929</ele><time>2026-02-01T01:07:44.000Z</time></trkpt>
        <trkpt lat="29.188568" lon="104.636406"><ele>410.9966</ele><time>2026-02-01T01:07:48.000Z</time></trkpt>
        <trkpt lat="29.188615" lon="104.636418"><ele>410.83228</ele><time>2026-02-01T01:07:52.000Z</time></trkpt>
        <trkpt lat="29.18866" lon="104.636443"><ele>411.00034</ele><time>2026-02-01T01:07:56.000Z</time></trkpt>
        <trkpt lat="29.188711" lon="104.636479"><ele>411.09488</ele><time>2026-02-01T01:08:00.000Z</time></trkpt>
        <trkpt lat="29.188758" lon="104.636507"><ele>411.25226</ele><time>2026-02-01T01:08:04.000Z</time></trkpt>
        <trkpt lat="29.188809" lon="104.636507"><ele>411.74344</ele><time>2026-02-01T01:08:08.000Z</time></trkpt>
        <trkpt lat="29.188857" lon="104.636483"><ele>411.70422</ele><time>2026-02-01T01:08:15.000Z</time></trkpt>
        <trkpt lat="29.188903" lon="104.636451"><ele>411.0894</ele><time>2026-02-01T01:08:51.000Z</time></trkpt>
        <trkpt lat="29.188951" lon="104.636467"><ele>410.4648</ele><time>2026-02-01T01:09:11.000Z</time></trkpt>
        <trkpt lat="29.188995" lon="104.636487"><ele>408.852</ele><time>2026-02-01T01:09:33.000Z</time></trkpt>
        <trkpt lat="29.189018" lon="104.636531"><ele>410.28116</ele><time>2026-02-01T01:09:42.000Z</time></trkpt>
        <trkpt lat="29.189066" lon="104.636516"><ele>411.6307</ele><time>2026-02-01T01:10:04.000Z</time></trkpt>
        <trkpt lat="29.18911" lon="104.636478"><ele>411.5342</ele><time>2026-02-01T01:10:12.000Z</time></trkpt>
        <trkpt lat="29.18914" lon="104.636439"><ele>411.49005</ele><time>2026-02-01T01:10:17.000Z</time></trkpt>
        <trkpt lat="29.18919" lon="104.636429"><ele>410.60297</ele><time>2026-02-01T01:10:24.000Z</time></trkpt>
        <trkpt lat="29.189241" lon="104.636443"><ele>409.58493</ele><time>2026-02-01T01:10:31.000Z</time></trkpt>
        <trkpt lat="29.189292" lon="104.636431"><ele>409.74118</ele><time>2026-02-01T01:10:36.000Z</time></trkpt>
        <trkpt lat="29.18934" lon="104.636432"><ele>410.1669</ele><time>2026-02-01T01:10:48.000Z</time></trkpt>
        <trkpt lat="29.189371" lon="104.636386"><ele>409.86615</ele><time>2026-02-01T01:10:53.000Z</time></trkpt>
        <trkpt lat="29.189407" lon="104.636354"><ele>409.46512</ele><time>2026-02-01T01:10:57.000Z</time></trkpt>
        <trkpt lat="29.18944" lon="104.636313"><ele>408.7813</ele><time>2026-02-01T01:11:01.000Z</time></trkpt>
        <trkpt lat="29.189493" lon="104.636305"><ele>407.6461</ele><time>2026-02-01T01:11:14.000Z</time></trkpt>
        <trkpt lat="29.189525" lon="104.636265"><ele>408.4467</ele><time>2026-02-01T01:11:20.000Z</time></trkpt>
        <trkpt lat="29.189556" lon="104.636217"><ele>407.80728</ele><time>2026-02-01T01:11:26.000Z</time></trkpt>
        <trkpt lat="29.189593" lon="104.636175"><ele>407.35825</ele><time>2026-02-01T01:11:31.000Z</time></trkpt>
        <trkpt lat="29.18964" lon="104.636134"><ele>406.38608</ele><time>2026-02-01T01:11:36.000Z</time></trkpt>
        <trkpt lat="29.189691" lon="104.636109"><ele>406.87177</ele><time>2026-02-01T01:11:40.000Z</time></trkpt>
        <trkpt lat="29.189742" lon="104.636084"><ele>405.7759</ele><time>2026-02-01T01:11:44.000Z</time></trkpt>
        <trkpt lat="29.189795" lon="104.636069"><ele>405.33966</ele><time>2026-02-01T01:11:48.000Z</time></trkpt>
        <trkpt lat="29.189848" lon="104.636084"><ele>405.56494</ele><time>2026-02-01T01:11:53.000Z</time></trkpt>
        <trkpt lat="29.189897" lon="104.636061"><ele>405.4098</ele><time>2026-02-01T01:11:58.000Z</time></trkpt>
        <trkpt lat="29.189927" lon="104.63601"><ele>405.06824</ele><time>2026-02-01T01:12:03.000Z</time></trkpt>
        <trkpt lat="29.189968" lon="104.636033"><ele>422.70587</ele><time>2026-02-01T01:13:08.000Z</time></trkpt>
        <trkpt lat="29.190013" lon="104.636009"><ele>426.16675</ele><time>2026-02-01T01:13:15.000Z</time></trkpt>
        <trkpt lat="29.190066" lon="104.636004"><ele>426.33246</ele><time>2026-02-01T01:13:20.000Z</time></trkpt>
        <trkpt lat="29.190119" lon="104.635987"><ele>426.04138</ele><time>2026-02-01T01:13:25.000Z</time></trkpt>
        <trkpt lat="29.190166" lon="104.635981"><ele>426.5011</ele><time>2026-02-01T01:13:30.000Z</time></trkpt>
        <trkpt lat="29.190213" lon="104.635977"><ele>426.1998</ele><time>2026-02-01T01:13:39.000Z</time></trkpt>
        <trkpt lat="29.190258" lon="104.635972"><ele>427.17383</ele><time>2026-02-01T01:13:44.000Z</time></trkpt>
        <trkpt lat="29.190307" lon="104.635978"><ele>428.09286</ele><time>2026-02-01T01:13:50.000Z</time></trkpt>
        <trkpt lat="29.190354" lon="104.636003"><ele>426.72168</ele><time>2026-02-01T01:13:55.000Z</time></trkpt>
      </trkseg>
  </trk>
</gpx>